BA280 / G-ZBKA 7700 Squawk Report (24th of February, 2018)

Aircraft B789 Reg No. G-ZBKA Age 3 years old
Model 787 Jet engines 2 First flight 07-09-15
Registered 28-09-15 Rollout 03-08-15 Delivered 29-09-15
Construction No. 38616 Line No. 0346 Series 9
ADSHEX 406D77 Airline name British Airways Owner N/A
Airfield based Heathrow~Gtr London~G First tracked 2015-09-06 20:55:06
Time Lat Lon Altitude Heading Speed Vertical Rate
2018-02-24 11:51:15 GMT 51.477493 -0.485922 -25 89 137 -832
2018-02-24 11:51:12 GMT 51.477512 -0.487900 -25 89 140 -768
2018-02-24 11:51:07 GMT 51.477448 -0.495053 125 89 137 -832
2018-02-24 11:51:02 GMT 51.477467 -0.498581 250 90 137 -832
2018-02-24 11:50:54 GMT 51.477417 -0.506897 150 89 137 -704
2018-02-24 11:50:51 GMT 51.477402 -0.509454 200 89 137 -704
2018-02-24 11:50:46 GMT 51.477371 -0.515213 275 90 137 -704
2018-02-24 11:50:43 GMT 51.477402 -0.518733 325 89 135 -576
2018-02-24 11:50:40 GMT 51.477402 -0.521405 350 89 135 -576
2018-02-24 11:50:34 GMT 51.477371 -0.527039 400 89 134 -832
2018-02-24 11:50:31 GMT 51.477325 -0.529861 475 89 135 -832
2018-02-24 11:50:27 GMT 51.477310 -0.534322 525 89 136 -768
2018-02-24 11:50:24 GMT 51.477310 -0.537736 625 89 135 -768
2018-02-24 11:50:21 GMT 51.477280 -0.540237 600 90 135 -832
2018-02-24 11:50:17 GMT 51.477310 -0.545382 675 89 135 -768
2018-02-24 11:50:14 GMT 51.477280 -0.546875 650 89 136 -704
2018-02-24 11:50:10 GMT 51.477264 -0.552211 725 89 135 -704
2018-02-24 11:50:04 GMT 51.477234 -0.556717 775 89 135 -832
2018-02-24 11:50:01 GMT 51.477234 -0.559692 850 89 136 -704
2018-02-24 11:49:58 GMT 51.477219 -0.563198 875 89 134 -832
2018-02-24 11:49:55 GMT 51.477184 -0.565872 925 89 135 -704
2018-02-24 11:49:51 GMT 51.477184 -0.569839 1,025 89 135 -704
2018-02-24 11:49:48 GMT 51.477184 -0.574875 1,025 89 136 -768
2018-02-24 11:49:45 GMT 51.477139 -0.576477 1,025 89 137 -768
2018-02-24 11:49:42 GMT 51.477127 -0.580048 1,150 89 136 -704
2018-02-24 11:49:39 GMT 51.477127 -0.582201 1,100 89 136 -768
2018-02-24 11:49:35 GMT 51.477127 -0.586655 1,200 89 138 -768
2018-02-24 11:49:31 GMT 51.477081 -0.590144 1,350 89 139 -768
2018-02-24 11:49:27 GMT 51.477081 -0.594672 1,325 89 139 -768
2018-02-24 11:49:23 GMT 51.477047 -0.598679 1,325 89 139 -768
2018-02-24 11:49:19 GMT 51.477036 -0.602912 1,550 89 148 -832
2018-02-24 11:49:16 GMT 51.477047 -0.605927 1,425 89 142 -896
2018-02-24 11:49:13 GMT 51.476990 -0.609147 1,475 89 145 -832
2018-02-24 11:49:09 GMT 51.476997 -0.612869 1,500 89 147 -704
2018-02-24 11:49:05 GMT 51.476997 -0.616760 1,625 89 147 -896
2018-02-24 11:49:02 GMT 51.476944 -0.620356 1,625 89 147 -832
2018-02-24 11:48:59 GMT 51.476944 -0.624068 1,650 90 148 -896
2018-02-24 11:48:55 GMT 51.476944 -0.628002 1,725 89 149 -768
2018-02-24 11:48:52 GMT 51.476944 -0.631788 1,750 89 148 -832
2018-02-24 11:48:49 GMT 51.476906 -0.635147 1,800 89 148 -768
2018-02-24 11:48:43 GMT 51.476852 -0.641587 1,925 89 148 -896
2018-02-24 11:48:39 GMT 51.476852 -0.645966 1,950 89 149 -832
2018-02-24 11:48:36 GMT 51.476807 -0.650198 2,150 89 147 -832
2018-02-24 11:48:33 GMT 51.476814 -0.652466 2,025 89 148 -768
2018-02-24 11:48:30 GMT 51.476807 -0.655245 2,075 89 147 -832
2018-02-24 11:48:27 GMT 51.476765 -0.659027 2,100 89 147 -832
2018-02-24 11:48:23 GMT 51.476765 -0.664062 2,175 89 147 -896
2018-02-24 11:48:20 GMT 51.476761 -0.667197 2,250 89 146 -832
2018-02-24 11:48:15 GMT 51.476715 -0.672319 2,350 89 142 -832
2018-02-24 11:48:12 GMT 51.476719 -0.675049 2,350 89 144 -768
2018-02-24 11:48:09 GMT 51.476669 -0.678332 2,350 89 144 -768
2018-02-24 11:48:05 GMT 51.476673 -0.683975 2,425 89 144 -832
2018-02-24 11:48:01 GMT 51.476669 -0.687091 2,450 89 145 -896
2018-02-24 11:47:57 GMT 51.476624 -0.692807 2,550 88 143 -768
2018-02-24 11:47:54 GMT 51.476582 -0.694427 2,600 89 143 -832
2018-02-24 11:47:50 GMT 51.476532 -0.698151 2,600 89 142 -832
2018-02-24 11:47:47 GMT 51.476536 -0.701981 2,675 89 142 -768
2018-02-24 11:47:43 GMT 51.476532 -0.706094 2,725 89 142 -768
2018-02-24 11:47:39 GMT 51.476486 -0.710771 2,775 89 141 -832
2018-02-24 11:47:36 GMT 51.476486 -0.713295 2,800 89 141 -832
2018-02-24 11:47:32 GMT 51.476440 -0.718491 2,875 89 141 -768
2018-02-24 11:47:29 GMT 51.476440 -0.721130 2,900 89 141 -832
2018-02-24 11:47:26 GMT 51.476440 -0.724640 2,950 89 142 -832
2018-02-24 11:47:21 GMT 51.476395 -0.729065 3,025 89 142 -832
2018-02-24 11:47:18 GMT 51.476395 -0.732150 3,050 89 142 -832
2018-02-24 11:47:14 GMT 51.476349 -0.736618 3,100 89 142 -832
2018-02-24 11:47:10 GMT 51.476349 -0.741882 3,175 89 143 -768
2018-02-24 11:47:07 GMT 51.476303 -0.745140 3,200 89 143 -768
2018-02-24 11:47:04 GMT 51.476299 -0.746994 3,250 89 143 -768
2018-02-24 11:47:01 GMT 51.476303 -0.750040 3,275 89 143 -768
2018-02-24 11:46:58 GMT 51.476254 -0.752869 3,350 89 142 -832
2018-02-24 11:46:55 GMT 51.476212 -0.758057 3,350 89 143 -832
2018-02-24 11:46:52 GMT 51.476212 -0.759764 3,450 89 142 -832
2018-02-24 11:46:49 GMT 51.476212 -0.764144 3,500 89 148 -896
2018-02-24 11:46:46 GMT 51.476162 -0.765762 3,475 89 143 -896
2018-02-24 11:46:43 GMT 51.476166 -0.769191 3,525 89 144 -896
2018-02-24 11:46:40 GMT 51.476166 -0.772235 3,575 89 146 -960
2018-02-24 11:46:37 GMT 51.476120 -0.775872 3,650 89 145 -960
2018-02-24 11:46:34 GMT 51.476116 -0.779190 3,675 89 146 -896
2018-02-24 11:46:31 GMT 51.476067 -0.781326 3,700 89 146 -896
2018-02-24 11:46:28 GMT 51.476074 -0.786042 3,850 89 148 -896
2018-02-24 11:46:25 GMT 51.476074 -0.788418 3,825 89 148 -832
2018-02-24 11:46:22 GMT 51.476028 -0.791238 3,850 89 148 -832
2018-02-24 11:46:19 GMT 51.476021 -0.795059 3,900 89 148 -832
2018-02-24 11:46:16 GMT 51.476021 -0.798798 3,950 89 147 -832
2018-02-24 11:46:13 GMT 51.475975 -0.801620 3,950 89 147 -832
2018-02-24 11:46:10 GMT 51.475983 -0.804377 4,025 89 147 -704
2018-02-24 11:46:07 GMT 51.475937 -0.808089 4,050 89 146 -704
2018-02-24 11:46:04 GMT 51.475937 -0.811504 4,050 89 146 -704
2018-02-24 11:46:01 GMT 51.475937 -0.815438 4,100 89 146 -576
2018-02-24 11:45:57 GMT 51.475883 -0.819397 4,150 89 146 -512
2018-02-24 11:45:54 GMT 51.475891 -0.822342 4,150 89 146 -512
2018-02-24 11:45:51 GMT 51.475883 -0.825500 4,200 88 146 -448
2018-02-24 11:45:48 GMT 51.475845 -0.829097 4,200 89 147 -448
2018-02-24 11:45:45 GMT 51.475800 -0.832363 4,225 89 147 -448
2018-02-24 11:45:42 GMT 51.475754 -0.835629 4,250 89 147 -512
2018-02-24 11:45:39 GMT 51.475742 -0.838776 4,275 89 147 -512
2018-02-24 11:45:36 GMT 51.475708 -0.842755 4,300 89 147 -512
2018-02-24 11:45:33 GMT 51.475708 -0.846244 4,350 89 146 -512
2018-02-24 11:45:29 GMT 51.475697 -0.849609 4,350 89 146 -512
2018-02-24 11:45:26 GMT 51.475651 -0.852814 4,375 89 147 -512
2018-02-24 11:45:22 GMT 51.475601 -0.857620 4,400 89 147 -320
2018-02-24 11:45:19 GMT 51.475601 -0.860443 4,425 89 148 -320
2018-02-24 11:45:16 GMT 51.475555 -0.864410 4,450 89 149 -320
2018-02-24 11:45:13 GMT 51.475525 -0.867994 4,450 89 149 -320
2018-02-24 11:45:10 GMT 51.475510 -0.869675 4,475 89 152 -256
2018-02-24 11:45:07 GMT 51.475510 -0.873489 4,475 89 152 -256
2018-02-24 11:45:03 GMT 51.475464 -0.878906 4,500 89 156 -320
2018-02-24 11:44:59 GMT 51.475433 -0.883583 4,550 89 156 -384
2018-02-24 11:44:56 GMT 51.475414 -0.886688 4,525 89 156 -320
2018-02-24 11:44:52 GMT 51.475388 -0.890709 4,575 89 158 -384
2018-02-24 11:44:49 GMT 51.475388 -0.894198 4,575 89 162 -384
2018-02-24 11:44:46 GMT 51.475323 -0.898056 4,600 89 169 -320
2018-02-24 11:44:42 GMT 51.475296 -0.903477 4,600 89 166 -384
2018-02-24 11:44:39 GMT 51.475277 -0.907059 4,625 89 167 -384
2018-02-24 11:44:36 GMT 51.475277 -0.909576 4,675 89 169 -320
2018-02-24 11:44:33 GMT 51.475204 -0.913721 4,675 89 169 -320
2018-02-24 11:44:30 GMT 51.475204 -0.917952 4,675 89 169 -320
2018-02-24 11:44:26 GMT 51.475159 -0.923668 4,700 89 169 -320
2018-02-24 11:44:23 GMT 51.475136 -0.927277 4,725 89 169 -320
2018-02-24 11:44:20 GMT 51.475090 -0.929565 4,725 89 169 -320
2018-02-24 11:44:17 GMT 51.475067 -0.933912 4,775 88 170 -320
2018-02-24 11:44:14 GMT 51.475067 -0.936956 4,775 88 170 -320
2018-02-24 11:44:11 GMT 51.474998 -0.941086 4,775 88 170 -256
2018-02-24 11:44:08 GMT 51.474953 -0.945358 4,775 88 170 -320
2018-02-24 11:44:04 GMT 51.474930 -0.950020 4,825 88 169 -320
2018-02-24 11:44:00 GMT 51.474838 -0.955588 4,825 88 169 -320
2018-02-24 11:43:57 GMT 51.474792 -0.959299 4,825 88 169 -320
2018-02-24 11:43:54 GMT 51.474747 -0.962788 4,875 88 169 -320
2018-02-24 11:43:50 GMT 51.474701 -0.967316 4,875 88 169 -320
2018-02-24 11:43:47 GMT 51.474655 -0.971028 4,900 89 169 -320
2018-02-24 11:43:44 GMT 51.474609 -0.976076 4,900 89 169 -320
2018-02-24 11:43:40 GMT 51.474625 -0.980148 4,925 90 168 -320
2018-02-24 11:43:37 GMT 51.474625 -0.983887 4,950 90 168 -320
2018-02-24 11:43:34 GMT 51.474655 -0.987508 4,950 92 167 -320
2018-02-24 11:43:31 GMT 51.474716 -0.990372 4,950 93 167 -320
2018-02-24 11:43:27 GMT 51.475021 -0.996118 5,000 101 167 -320
2018-02-24 11:43:24 GMT 51.475342 -1.000053 5,000 101 167 -320
2018-02-24 11:43:21 GMT 51.476440 -1.007550 5,025 104 167 -320
2018-02-24 11:43:18 GMT 51.476532 -1.007996 5,025 114 168 -320
2018-02-24 11:43:15 GMT 51.477184 -1.010437 5,025 117 168 -320
2018-02-24 11:43:12 GMT 51.478302 -1.013718 5,075 136 173 -320
2018-02-24 11:43:08 GMT 51.480583 -1.017914 5,100 195 189 -832
2018-02-24 11:43:05 GMT 51.482162 -1.020244 5,100 145 175 -320
2018-02-24 11:43:02 GMT 51.484543 -1.022797 5,100 150 177 -320
2018-02-24 11:42:59 GMT 51.486374 -1.024327 5,125 161 179 -320
2018-02-24 11:42:55 GMT 51.490265 -1.026154 5,150 174 182 -320
2018-02-24 11:42:52 GMT 51.493011 -1.026628 5,150 182 184 -384
2018-02-24 11:42:49 GMT 51.494705 -1.026628 5,175 189 184 -384
2018-02-24 11:42:46 GMT 51.497017 -1.026230 5,200 193 186 -384
2018-02-24 11:42:43 GMT 51.499466 -1.025514 5,225 195 187 -320
2018-02-24 11:42:39 GMT 51.502991 -1.024104 5,225 196 187 -320
2018-02-24 11:42:36 GMT 51.506420 -1.022644 5,250 196 186 -320
2018-02-24 11:42:33 GMT 51.508026 -1.021951 5,250 196 186 -320
2018-02-24 11:42:30 GMT 51.510498 -1.020838 5,275 195 188 -448
2018-02-24 11:42:27 GMT 51.512566 -1.019974 5,300 195 187 -384
2018-02-24 11:42:24 GMT 51.516102 -1.018448 5,300 195 188 -448
2018-02-24 11:42:20 GMT 51.518875 -1.017275 5,325 195 187 -448
2018-02-24 11:42:17 GMT 51.521393 -1.016161 5,350 195 187 -448
2018-02-24 11:42:13 GMT 51.524483 -1.014862 5,425 195 186 -512
2018-02-24 11:42:10 GMT 51.527184 -1.013794 5,425 195 187 -576
2018-02-24 11:42:07 GMT 51.530998 -1.012115 5,450 195 187 -576
2018-02-24 11:42:04 GMT 51.533112 -1.011262 5,450 195 187 -704
2018-02-24 11:42:01 GMT 51.534805 -1.010594 5,500 195 188 -768
2018-02-24 11:41:58 GMT 51.537003 -1.009629 5,625 195 188 -896
2018-02-24 11:41:55 GMT 51.540573 -1.008218 5,600 194 190 -768
2018-02-24 11:41:52 GMT 51.543198 -1.007156 5,625 195 189 -768
2018-02-24 11:41:49 GMT 51.545197 -1.006363 5,700 195 188 -896
2018-02-24 11:41:46 GMT 51.547897 -1.005249 5,700 195 188 -896
2018-02-24 11:41:42 GMT 51.550919 -1.003987 5,750 195 189 -896
2018-02-24 11:41:39 GMT 51.553391 -1.003036 5,825 194 190 -896
2018-02-24 11:41:35 GMT 51.556549 -1.001760 5,825 195 191 -768
2018-02-24 11:41:32 GMT 51.559582 -1.000519 5,875 195 194 -704
2018-02-24 11:41:29 GMT 51.561958 -0.999527 5,900 195 194 -640
2018-02-24 11:41:26 GMT 51.565567 -0.998123 5,950 195 196 -512
2018-02-24 11:41:23 GMT 51.567406 -0.997391 6,050 194 205 -640
2018-02-24 11:41:20 GMT 51.570007 -0.996341 6,000 194 200 -448
2018-02-24 11:41:16 GMT 51.573177 -0.995026 6,050 194 204 -512
2018-02-24 11:41:13 GMT 51.577469 -0.993372 6,050 194 206 -704
2018-02-24 11:41:10 GMT 51.579346 -0.992630 6,075 194 208 -768
2018-02-24 11:41:07 GMT 51.582184 -0.991590 6,100 194 210 -896
2018-02-24 11:41:04 GMT 51.585983 -0.990106 6,175 193 215 -1024
2018-02-24 11:41:01 GMT 51.587906 -0.989438 6,200 193 215 -1088
2018-02-24 11:40:58 GMT 51.590652 -0.988473 6,300 193 218 -1408
2018-02-24 11:40:54 GMT 51.594917 -0.986938 6,350 193 219 -1408
2018-02-24 11:40:51 GMT 51.597198 -0.986171 6,475 192 222 -1280
2018-02-24 11:40:48 GMT 51.601295 -0.984802 6,525 192 224 -1024
2018-02-24 11:40:45 GMT 51.603607 -0.983944 6,550 192 226 -896
2018-02-24 11:40:42 GMT 51.606903 -0.982905 6,650 192 232 -768
2018-02-24 11:40:39 GMT 51.610512 -0.981674 6,625 192 231 -768
2018-02-24 11:40:36 GMT 51.613358 -0.980752 6,700 192 234 -768
2018-02-24 11:40:33 GMT 51.616425 -0.979767 6,700 192 235 -768
2018-02-24 11:40:30 GMT 51.619720 -0.978674 6,750 192 240 -832
2018-02-24 11:40:26 GMT 51.623962 -0.977325 6,800 192 241 -896
2018-02-24 11:40:23 GMT 51.627777 -0.976150 6,825 192 243 -896
2018-02-24 11:40:19 GMT 51.631458 -0.974960 6,900 192 246 -832
2018-02-24 11:40:16 GMT 51.635696 -0.973587 7,100 191 251 -1152
2018-02-24 11:40:13 GMT 51.637932 -0.972900 7,100 191 251 -1152
2018-02-24 11:40:10 GMT 51.641327 -0.971832 7,025 192 250 -1152
2018-02-24 11:40:06 GMT 51.645996 -0.970360 7,125 191 251 -1088
2018-02-24 11:40:03 GMT 51.649334 -0.969315 7,150 191 251 -1088
2018-02-24 11:40:00 GMT 51.652733 -0.968323 7,225 191 252 -1152
2018-02-24 11:39:57 GMT 51.656982 -0.966945 7,275 191 252 -1152
2018-02-24 11:39:53 GMT 51.660973 -0.965729 7,400 192 252 -1216
2018-02-24 11:39:50 GMT 51.664883 -0.964432 7,425 192 252 -1280
2018-02-24 11:39:47 GMT 51.668884 -0.963160 7,475 192 252 -1280
2018-02-24 11:39:44 GMT 51.670841 -0.962524 7,550 192 252 -1280
2018-02-24 11:39:41 GMT 51.674988 -0.961227 7,575 192 252 -1280
2018-02-24 11:39:38 GMT 51.678383 -0.960083 7,675 192 252 -1280
2018-02-24 11:39:35 GMT 51.681702 -0.959003 7,750 192 252 -1216
2018-02-24 11:39:32 GMT 51.685970 -0.957565 7,775 192 252 -1216
2018-02-24 11:39:29 GMT 51.688251 -0.956802 7,850 192 252 -1216
2018-02-24 11:39:26 GMT 51.691650 -0.955658 7,925 192 253 -1280
2018-02-24 11:39:22 GMT 51.696911 -0.953903 8,000 192 252 -1600
2018-02-24 11:39:19 GMT 51.699783 -0.952990 8,050 192 251 -1600
2018-02-24 11:39:16 GMT 51.703102 -0.951920 8,175 192 251 -1664
2018-02-24 11:39:13 GMT 51.706650 -0.950763 8,250 191 252 -1664
2018-02-24 11:39:10 GMT 51.709396 -0.949946 8,250 185 248 -2432
2018-02-24 11:39:07 GMT 51.713516 -0.948684 8,450 190 252 -1792
2018-02-24 11:39:04 GMT 51.717113 -0.947723 8,475 154 245 -1984
2018-02-24 11:39:01 GMT 51.720558 -0.946884 8,675 186 249 -2368
2018-02-24 11:38:58 GMT 51.723679 -0.946309 8,725 182 247 -2496
2018-02-24 11:38:55 GMT 51.727684 -0.945969 9,025 145 276 -2240
2018-02-24 11:38:52 GMT 51.730846 -0.946045 9,050 145 268 -1408
2018-02-24 11:38:49 GMT 51.734200 -0.946655 9,000 165 243 -2176
2018-02-24 11:38:46 GMT 51.737640 -0.947793 9,250 156 244 -1984
2018-02-24 11:38:42 GMT 51.741417 -0.949783 9,575 145 249 -1408
2018-02-24 11:38:38 GMT 51.745884 -0.953293 9,650 144 255 -1152
2018-02-24 11:38:34 GMT 51.749794 -0.957108 9,525 145 249 -1408
2018-02-24 11:38:31 GMT 51.752262 -0.959778 9,625 145 251 -1280
2018-02-24 11:38:28 GMT 51.756180 -0.964199 9,650 144 256 -1088
2018-02-24 11:38:24 GMT 51.759109 -0.967539 9,700 145 262 -1088
2018-02-24 11:38:21 GMT 51.762268 -0.971028 9,800 145 265 -1216
2018-02-24 11:38:18 GMT 51.766251 -0.975556 9,825 145 268 -1408
2018-02-24 11:38:15 GMT 51.770142 -0.979862 9,875 145 271 -1664
2018-02-24 11:38:12 GMT 51.773254 -0.983351 10,150 146 298 -1600
2018-02-24 11:38:08 GMT 51.775314 -0.985652 10,400 145 280 -2176
2018-02-24 11:38:05 GMT 51.778702 -0.989363 10,175 145 276 -2240
2018-02-24 11:38:02 GMT 51.781860 -0.992778 10,375 145 279 -2176
2018-02-24 11:37:59 GMT 51.785706 -0.997009 10,425 145 280 -2176
2018-02-24 11:37:56 GMT 51.788269 -0.999830 10,550 146 281 -2304
2018-02-24 11:37:53 GMT 51.791412 -1.003189 10,825 146 297 -1664
2018-02-24 11:37:50 GMT 51.794437 -1.006470 11,025 146 295 -1792
2018-02-24 11:37:47 GMT 51.798706 -1.011113 10,900 146 286 -2304
2018-02-24 11:37:44 GMT 51.802353 -1.015015 11,425 146 297 -1664
2018-02-24 11:37:41 GMT 51.804588 -1.017380 11,125 146 290 -1984
2018-02-24 11:37:38 GMT 51.807938 -1.020966 11,275 146 294 -1792
2018-02-24 11:37:35 GMT 51.811989 -1.025314 11,600 146 296 -1728
2018-02-24 11:37:32 GMT 51.815388 -1.028976 11,400 146 298 -1600
2018-02-24 11:37:29 GMT 51.819763 -1.033630 11,450 146 301 -1472
2018-02-24 11:37:26 GMT 51.822189 -1.036278 11,575 146 305 -1344
2018-02-24 11:37:23 GMT 51.825943 -1.040287 11,575 146 306 -1344
2018-02-24 11:37:20 GMT 51.829010 -1.043627 11,675 146 311 -1408
2018-02-24 11:37:17 GMT 51.831959 -1.046829 11,750 145 318 -1728
2018-02-24 11:37:14 GMT 51.835968 -1.051124 11,950 145 320 -1856
2018-02-24 11:37:10 GMT 51.840820 -1.056469 11,950 145 327 -1856
2018-02-24 11:37:07 GMT 51.845993 -1.062185 12,000 145 327 -1856
2018-02-24 11:37:04 GMT 51.849243 -1.065822 12,100 145 329 -1792
2018-02-24 11:37:00 GMT 51.853374 -1.070404 12,250 145 332 -1984
2018-02-24 11:36:57 GMT 51.857887 -1.075516 12,325 145 334 -2048
2018-02-24 11:36:54 GMT 51.860825 -1.078813 12,525 144 335 -1856
2018-02-24 11:36:51 GMT 51.864735 -1.083298 12,500 144 335 -1728
2018-02-24 11:36:48 GMT 51.868423 -1.087424 12,575 144 337 -1600
2018-02-24 11:36:45 GMT 51.873001 -1.092694 12,650 144 339 -1728
2018-02-24 11:36:42 GMT 51.876465 -1.096649 12,775 144 339 -1728
2018-02-24 11:36:39 GMT 51.881351 -1.102295 12,825 144 340 -1792
2018-02-24 11:36:36 GMT 51.884033 -1.105388 13,000 144 341 -1792
2018-02-24 11:36:33 GMT 51.888756 -1.110840 13,000 144 340 -1856
2018-02-24 11:36:30 GMT 51.890800 -1.113281 13,375 143 341 -1856
2018-02-24 11:36:27 GMT 51.895294 -1.118469 13,300 144 340 -1920
2018-02-24 11:36:24 GMT 51.900146 -1.124115 13,300 143 341 -1600
2018-02-24 11:36:21 GMT 51.903671 -1.128311 13,475 143 340 -1856
2018-02-24 11:36:18 GMT 51.907887 -1.133240 13,475 143 340 -1856
2018-02-24 11:36:15 GMT 51.911087 -1.137009 13,575 143 341 -1728
2018-02-24 11:36:12 GMT 51.915752 -1.142578 13,675 143 341 -1792
2018-02-24 11:36:09 GMT 51.918316 -1.145639 13,700 143 341 -1728
2018-02-24 11:36:06 GMT 51.922760 -1.150894 13,850 143 341 -1600
2018-02-24 11:36:03 GMT 51.926559 -1.155472 13,900 143 342 -1536
2018-02-24 11:36:00 GMT 51.931023 -1.160784 13,975 143 343 -1344
2018-02-24 11:35:57 GMT 51.934982 -1.165543 14,050 143 343 -1344
2018-02-24 11:35:54 GMT 51.937912 -1.169102 14,100 143 345 -1216
2018-02-24 11:35:51 GMT 51.940613 -1.172333 14,150 143 346 -1152
2018-02-24 11:35:48 GMT 51.945641 -1.178284 14,200 143 348 -1024
2018-02-24 11:35:45 GMT 51.949631 -1.183090 14,250 143 349 -960
2018-02-24 11:35:41 GMT 51.955627 -1.190262 14,325 143 351 -960
2018-02-24 11:35:37 GMT 51.960846 -1.196594 14,425 143 354 -1216
2018-02-24 11:35:34 GMT 51.964958 -1.201433 14,450 143 355 -1344
2018-02-24 11:35:31 GMT 51.967846 -1.204965 14,500 143 356 -1536
2018-02-24 11:35:28 GMT 51.971191 -1.208878 14,650 143 357 -1920
2018-02-24 11:35:25 GMT 51.975449 -1.213913 14,650 143 357 -1856
2018-02-24 11:35:22 GMT 51.979980 -1.219330 14,800 143 357 -1600
2018-02-24 11:35:19 GMT 51.984009 -1.223984 14,850 144 358 -1216
2018-02-24 11:35:16 GMT 51.988701 -1.229527 14,975 144 358 -768
2018-02-24 11:35:13 GMT 51.991241 -1.232529 14,950 144 358 -192
2018-02-24 11:35:10 GMT 51.995270 -1.237259 14,975 143 357 -64
2018-02-24 11:35:07 GMT 52.000992 -1.243966 14,975 143 357 -64
2018-02-24 11:35:04 GMT 52.003006 -1.246338 14,975 143 357 -64
2018-02-24 11:35:01 GMT 52.007183 -1.251264 14,975 143 357 -64
2018-02-24 11:34:58 GMT 52.011292 -1.256104 14,975 143 357 -64
2018-02-24 11:34:54 GMT 52.017700 -1.263657 14,975 143 357 -128
2018-02-24 11:34:51 GMT 52.021729 -1.268387 14,975 143 357 -192
2018-02-24 11:34:48 GMT 52.025162 -1.272430 15,000 143 358 -256
2018-02-24 11:34:45 GMT 52.029739 -1.277847 15,050 143 360 -896
2018-02-24 11:34:42 GMT 52.033066 -1.281791 15,025 143 360 -512
2018-02-24 11:34:39 GMT 52.035919 -1.285095 15,050 143 360 -576
2018-02-24 11:34:36 GMT 52.041550 -1.291809 15,075 143 360 -704
2018-02-24 11:34:33 GMT 52.045448 -1.296387 15,100 143 361 -960
2018-02-24 11:34:30 GMT 52.049377 -1.301041 15,175 143 363 -1600
2018-02-24 11:34:27 GMT 52.053268 -1.305647 15,200 143 363 -1472
2018-02-24 11:34:24 GMT 52.058159 -1.311454 15,300 143 365 -1600
2018-02-24 11:34:21 GMT 52.061554 -1.315460 15,425 143 365 -1664
2018-02-24 11:34:18 GMT 52.066910 -1.321812 15,675 143 367 -1920
2018-02-24 11:34:15 GMT 52.070724 -1.326285 15,550 143 367 -1856
2018-02-24 11:34:12 GMT 52.073753 -1.329817 15,650 143 367 -1920
2018-02-24 11:34:09 GMT 52.077988 -1.334915 15,800 143 367 -1920
2018-02-24 11:34:06 GMT 52.081558 -1.339111 16,225 143 369 -2048
2018-02-24 11:34:02 GMT 52.088425 -1.347275 15,975 143 368 -2048
2018-02-24 11:33:59 GMT 52.091995 -1.351471 16,050 143 368 -2048
2018-02-24 11:33:56 GMT 52.097488 -1.358032 16,450 143 369 -2048
2018-02-24 11:33:53 GMT 52.100658 -1.361834 16,275 143 369 -2048
2018-02-24 11:33:50 GMT 52.102707 -1.364288 16,400 143 369 -2048
2018-02-24 11:33:47 GMT 52.108063 -1.370701 16,825 143 369 -2112
2018-02-24 11:33:44 GMT 52.112438 -1.375959 16,650 143 369 -2048
2018-02-24 11:33:41 GMT 52.116581 -1.380903 16,650 143 369 -2048
2018-02-24 11:33:38 GMT 52.121235 -1.386475 16,800 143 369 -2048
2018-02-24 11:33:35 GMT 52.125229 -1.391220 17,275 143 369 -1984
2018-02-24 11:33:31 GMT 52.132221 -1.399658 17,050 143 369 -1920
2018-02-24 11:33:28 GMT 52.135246 -1.403268 17,300 143 371 -1792
2018-02-24 11:33:25 GMT 52.138042 -1.406564 17,175 143 371 -1792
2018-02-24 11:33:22 GMT 52.141346 -1.410488 17,300 143 372 -1728
2018-02-24 11:33:19 GMT 52.147446 -1.417786 17,400 143 372 -1664
2018-02-24 11:33:16 GMT 52.151306 -1.422416 17,475 143 374 -1600
2018-02-24 11:33:13 GMT 52.155499 -1.427438 17,525 143 375 -1536
2018-02-24 11:33:10 GMT 52.158417 -1.430893 17,675 143 375 -1536
2018-02-24 11:33:07 GMT 52.164669 -1.438424 17,700 143 376 -1536
2018-02-24 11:33:04 GMT 52.167892 -1.442337 17,775 143 376 -1600
2018-02-24 11:33:00 GMT 52.174072 -1.449738 18,175 143 380 -1920
2018-02-24 11:32:57 GMT 52.178448 -1.454982 17,950 143 379 -1856
2018-02-24 11:32:54 GMT 52.180962 -1.458043 18,400 143 381 -1984
2018-02-24 11:32:51 GMT 52.187805 -1.466125 18,250 143 380 -1984
2018-02-24 11:32:48 GMT 52.190643 -1.469500 18,300 143 381 -1984
2018-02-24 11:32:45 GMT 52.195038 -1.474762 18,325 143 381 -1984
2018-02-24 11:32:41 GMT 52.204102 -1.485596 18,800 143 392 -1920
2018-02-24 11:32:38 GMT 52.209637 -1.492257 18,775 143 392 -1920
2018-02-24 11:32:35 GMT 52.211243 -1.494141 18,700 143 383 -1920
2018-02-24 11:32:31 GMT 52.214081 -1.497574 18,800 143 383 -1984
2018-02-24 11:32:28 GMT 52.219044 -1.503636 19,025 143 385 -1792
2018-02-24 11:32:25 GMT 52.222046 -1.507187 19,150 143 386 -1728
2018-02-24 11:32:21 GMT 52.228638 -1.515121 19,075 143 385 -1728
2018-02-24 11:32:18 GMT 52.232216 -1.519409 19,225 143 386 -1728
2018-02-24 11:32:14 GMT 52.239258 -1.527863 19,325 143 387 -1664
2018-02-24 11:32:11 GMT 52.243435 -1.532907 19,375 143 388 -1664
2018-02-24 11:32:08 GMT 52.246925 -1.537066 19,475 144 393 -2368
2018-02-24 11:32:05 GMT 52.252853 -1.544113 19,550 143 390 -1728
2018-02-24 11:32:02 GMT 52.255630 -1.547424 19,650 143 391 -1792
2018-02-24 11:31:59 GMT 52.260010 -1.552682 19,700 143 392 -1920
2018-02-24 11:31:56 GMT 52.264942 -1.558568 19,850 143 392 -1984
2018-02-24 11:31:53 GMT 52.270065 -1.564636 20,150 143 392 -2048
2018-02-24 11:31:50 GMT 52.273460 -1.568691 20,250 144 393 -2112
2018-02-24 11:31:47 GMT 52.277836 -1.573870 20,375 144 393 -2240
2018-02-24 11:31:44 GMT 52.283749 -1.580854 20,500 144 393 -2432
2018-02-24 11:31:41 GMT 52.285950 -1.583481 20,375 144 393 -2304
2018-02-24 11:31:38 GMT 52.292084 -1.590805 20,600 144 393 -2432
2018-02-24 11:31:35 GMT 52.295200 -1.594430 20,775 143 392 -2304
2018-02-24 11:31:32 GMT 52.300323 -1.600494 21,550 143 392 -2304
2018-02-24 11:31:29 GMT 52.303848 -1.604691 20,850 143 399 -1472
2018-02-24 11:31:26 GMT 52.308838 -1.610641 20,900 143 392 -2304
2018-02-24 11:31:23 GMT 52.313076 -1.615696 21,400 143 396 -1536
2018-02-24 11:31:20 GMT 52.317173 -1.620562 21,600 143 392 -2304
2018-02-24 11:31:17 GMT 52.322571 -1.627045 21,325 143 392 -2304
2018-02-24 11:31:14 GMT 52.326252 -1.631391 21,425 143 392 -2176
2018-02-24 11:31:11 GMT 52.330906 -1.636963 21,525 143 392 -2112
2018-02-24 11:31:08 GMT 52.334885 -1.641693 22,000 143 393 -1792
2018-02-24 11:31:05 GMT 52.338959 -1.646652 21,725 143 394 -1792
2018-02-24 11:31:02 GMT 52.343353 -1.651917 22,025 143 396 -1536
2018-02-24 11:30:59 GMT 52.348618 -1.658249 21,925 143 395 -1536
2018-02-24 11:30:56 GMT 52.353333 -1.663971 22,025 143 396 -1472
2018-02-24 11:30:52 GMT 52.358643 -1.670380 22,175 143 399 -1536
2018-02-24 11:30:48 GMT 52.363678 -1.676483 22,550 143 400 -1536
2018-02-24 11:30:45 GMT 52.368893 -1.682713 22,200 143 402 -1664
2018-02-24 11:30:42 GMT 52.373363 -1.688128 22,325 133 423 -1984
2018-02-24 11:30:39 GMT 52.379196 -1.695175 22,375 143 404 -1792
2018-02-24 11:30:36 GMT 52.382023 -1.698565 22,550 143 404 -1856
2018-02-24 11:30:33 GMT 52.386864 -1.704372 22,525 143 404 -1856
2018-02-24 11:30:30 GMT 52.392262 -1.710885 22,675 143 405 -1856
2018-02-24 11:30:27 GMT 52.395287 -1.714495 23,125 142 415 -1920
2018-02-24 11:30:24 GMT 52.401943 -1.722499 22,875 143 407 -1984
2018-02-24 11:30:21 GMT 52.404831 -1.725922 22,925 143 407 -1984
2018-02-24 11:30:18 GMT 52.409088 -1.731033 23,075 143 408 -1984
2018-02-24 11:30:15 GMT 52.414421 -1.737331 23,250 144 408 -1984
2018-02-24 11:30:12 GMT 52.419636 -1.743530 23,275 144 410 -1856
2018-02-24 11:30:09 GMT 52.421776 -1.746041 23,375 144 410 -1856
2018-02-24 11:30:06 GMT 52.427597 -1.753026 23,450 143 411 -1728
2018-02-24 11:30:03 GMT 52.433414 -1.759931 23,725 143 412 -1728
2018-02-24 11:30:00 GMT 52.438202 -1.765671 23,650 143 413 -1792
2018-02-24 11:29:57 GMT 52.442631 -1.770996 23,675 143 413 -1856
2018-02-24 11:29:54 GMT 52.446487 -1.775665 23,850 142 414 -1920
2018-02-24 11:29:51 GMT 52.451981 -1.782455 23,850 142 415 -1920
2018-02-24 11:29:48 GMT 52.455807 -1.787162 23,975 141 415 -1856
2018-02-24 11:29:45 GMT 52.460648 -1.793361 24,025 141 416 -1920
2018-02-24 11:29:42 GMT 52.464981 -1.799088 24,275 136 417 -2048
2018-02-24 11:29:39 GMT 52.469376 -1.805191 24,225 139 416 -1984
2018-02-24 11:29:36 GMT 52.474709 -1.812980 24,400 135 417 -1984
2018-02-24 11:29:33 GMT 52.478619 -1.819022 24,600 133 418 -1984
2018-02-24 11:29:30 GMT 52.481461 -1.823730 24,550 134 417 -1984
2018-02-24 11:29:27 GMT 52.485367 -1.830322 24,625 133 418 -1984
2018-02-24 11:29:24 GMT 52.489651 -1.837620 24,950 133 420 -1984
2018-02-24 11:29:21 GMT 52.493607 -1.844526 24,800 133 419 -1984
2018-02-24 11:29:18 GMT 52.497482 -1.851273 24,950 133 420 -1984
2018-02-24 11:29:15 GMT 52.501335 -1.857945 25,000 133 420 -1984
2018-02-24 11:29:12 GMT 52.505615 -1.865322 25,150 133 421 -1984
2018-02-24 11:29:09 GMT 52.510178 -1.873247 25,275 133 421 -1984
2018-02-24 11:29:06 GMT 52.514183 -1.880153 25,575 133 423 -1984
2018-02-24 11:29:03 GMT 52.518082 -1.886902 25,450 133 423 -1984
2018-02-24 11:29:00 GMT 52.520653 -1.891375 25,625 133 423 -1984
2018-02-24 11:28:57 GMT 52.526138 -1.900940 25,600 133 424 -1984
2018-02-24 11:28:54 GMT 52.530487 -1.908417 25,725 133 425 -1984
2018-02-24 11:28:50 GMT 52.535843 -1.917725 25,850 133 426 -1920
2018-02-24 11:28:47 GMT 52.540146 -1.925278 25,950 133 426 -1920
2018-02-24 11:28:44 GMT 52.544067 -1.932103 26,075 133 428 -1920
2018-02-24 11:28:41 GMT 52.547329 -1.937753 26,225 133 428 -1920
2018-02-24 11:28:38 GMT 52.552216 -1.946307 26,250 133 428 -1920
2018-02-24 11:28:35 GMT 52.555344 -1.951752 26,350 133 430 -1984
2018-02-24 11:28:32 GMT 52.560196 -1.960220 26,425 133 430 -1984
2018-02-24 11:28:29 GMT 52.563492 -1.965942 26,500 133 430 -1984
2018-02-24 11:28:26 GMT 52.568390 -1.974487 26,650 133 431 -1984
2018-02-24 11:28:23 GMT 52.571255 -1.979501 26,700 133 431 -1984
2018-02-24 11:28:20 GMT 52.577179 -1.989746 26,850 133 432 -1984
2018-02-24 11:28:17 GMT 52.579651 -1.994019 27,175 133 434 -1984
2018-02-24 11:28:14 GMT 52.584045 -2.001648 27,025 133 435 -2048
2018-02-24 11:28:11 GMT 52.587734 -2.008065 27,325 133 438 -1984
2018-02-24 11:28:08 GMT 52.591736 -2.015076 27,225 133 435 -2048
2018-02-24 11:28:05 GMT 52.596405 -2.023239 27,525 133 439 -2048
2018-02-24 11:28:02 GMT 52.600296 -2.029953 27,450 133 436 -1984
2018-02-24 11:27:59 GMT 52.605835 -2.039566 27,525 133 436 -1984
2018-02-24 11:27:56 GMT 52.608582 -2.044449 27,675 133 437 -1984
2018-02-24 11:27:53 GMT 52.613434 -2.052874 27,950 133 438 -1984
2018-02-24 11:27:50 GMT 52.617188 -2.059402 27,850 133 439 -2048
2018-02-24 11:27:47 GMT 52.621902 -2.067719 27,925 133 439 -2048
2018-02-24 11:27:44 GMT 52.626186 -2.075239 28,075 133 440 -2048
2018-02-24 11:27:40 GMT 52.630783 -2.083282 28,500 133 442 -1984
2018-02-24 11:27:36 GMT 52.636093 -2.092514 28,350 133 441 -2048
2018-02-24 11:27:33 GMT 52.640713 -2.100586 28,375 133 442 -2048
2018-02-24 11:27:30 GMT 52.645741 -2.109375 28,525 133 446 -2048
2018-02-24 11:27:27 GMT 52.650055 -2.117004 28,600 133 443 -1984
2018-02-24 11:27:24 GMT 52.653004 -2.122166 28,750 133 444 -1984
2018-02-24 11:27:21 GMT 52.658356 -2.131505 28,800 133 445 -1984
2018-02-24 11:27:18 GMT 52.662415 -2.138672 29,250 133 445 -2048
2018-02-24 11:27:14 GMT 52.668045 -2.148514 29,075 133 446 -2048
2018-02-24 11:27:11 GMT 52.671577 -2.154733 29,200 133 446 -2048
2018-02-24 11:27:08 GMT 52.676514 -2.163391 29,275 133 447 -1856
2018-02-24 11:27:04 GMT 52.681595 -2.172318 29,400 133 448 -1792
2018-02-24 11:27:01 GMT 52.686996 -2.181778 29,475 133 449 -1792
2018-02-24 11:26:58 GMT 52.689686 -2.186515 29,575 133 450 -1856
2018-02-24 11:26:55 GMT 52.694527 -2.194990 29,700 133 450 -1856
2018-02-24 11:26:52 GMT 52.698669 -2.202148 29,750 133 452 -1856
2018-02-24 11:26:49 GMT 52.702972 -2.209702 29,875 133 452 -1856
2018-02-24 11:26:46 GMT 52.706535 -2.215942 29,900 133 454 -1728
2018-02-24 11:26:43 GMT 52.713146 -2.227400 30,050 133 453 -1856
2018-02-24 11:26:40 GMT 52.715286 -2.231216 30,100 133 454 -1792
2018-02-24 11:26:37 GMT 52.720734 -2.240753 30,600 133 460 -1856
2018-02-24 11:26:34 GMT 52.723763 -2.245998 30,300 133 457 -1792
2018-02-24 11:26:31 GMT 52.728790 -2.254868 30,600 133 457 -1856
2018-02-24 11:26:28 GMT 52.734699 -2.265224 30,475 133 457 -1728
2018-02-24 11:26:25 GMT 52.739029 -2.272836 30,600 133 460 -1856
2018-02-24 11:26:22 GMT 52.742340 -2.278671 30,650 133 459 -1920
2018-02-24 11:26:19 GMT 52.747131 -2.287118 30,800 133 459 -1920
2018-02-24 11:26:16 GMT 52.750168 -2.292480 30,850 133 459 -1920
2018-02-24 11:26:13 GMT 52.755661 -2.302170 30,975 133 460 -1856
2018-02-24 11:26:10 GMT 52.760010 -2.309799 31,025 133 460 -1792
2018-02-24 11:26:07 GMT 52.763809 -2.316437 31,150 133 461 -1664
2018-02-24 11:26:04 GMT 52.768158 -2.324142 31,200 133 461 -1664
2018-02-24 11:26:01 GMT 52.773148 -2.332916 31,325 133 464 -1728
2018-02-24 11:25:58 GMT 52.776947 -2.339554 31,600 133 465 -1920
2018-02-24 11:25:55 GMT 52.781208 -2.347072 31,525 133 465 -1856
2018-02-24 11:25:52 GMT 52.785862 -2.355312 31,675 133 466 -1984
2018-02-24 11:25:49 GMT 52.789536 -2.361832 31,725 133 466 -1984
2018-02-24 11:25:46 GMT 52.793217 -2.368260 31,750 133 466 -1984
2018-02-24 11:25:43 GMT 52.798244 -2.377128 31,925 133 467 -1984
2018-02-24 11:25:40 GMT 52.803955 -2.387238 31,950 132 468 -1984
2018-02-24 11:25:37 GMT 52.808533 -2.395333 32,175 132 468 -1984
2018-02-24 11:25:34 GMT 52.812954 -2.403181 32,175 132 469 -1920
2018-02-24 11:25:31 GMT 52.816494 -2.409459 32,275 132 469 -1856
2018-02-24 11:25:28 GMT 52.821472 -2.418405 32,350 132 470 -1728
2018-02-24 11:25:25 GMT 52.824875 -2.424469 32,625 132 470 -1664
2018-02-24 11:25:22 GMT 52.829479 -2.432608 32,500 132 470 -1664
2018-02-24 11:25:19 GMT 52.834671 -2.441788 32,675 132 471 -1600
2018-02-24 11:25:15 GMT 52.841305 -2.453639 32,750 132 471 -1408
2018-02-24 11:25:12 GMT 52.845776 -2.461565 32,775 132 471 -1216
2018-02-24 11:25:09 GMT 52.848427 -2.466352 32,850 132 473 -960
2018-02-24 11:25:06 GMT 52.853783 -2.475848 32,925 132 475 -1024
2018-02-24 11:25:03 GMT 52.858383 -2.484131 32,950 132 476 -1088
2018-02-24 11:25:00 GMT 52.863045 -2.492327 32,975 132 477 -1088
2018-02-24 11:24:57 GMT 52.867355 -2.500076 33,050 132 477 -1216
2018-02-24 11:24:54 GMT 52.871246 -2.507095 33,075 132 478 -1408
2018-02-24 11:24:51 GMT 52.875732 -2.515182 33,175 132 479 -1920
2018-02-24 11:24:48 GMT 52.880363 -2.523481 33,400 132 478 -2368
2018-02-24 11:24:45 GMT 52.885300 -2.532425 33,625 134 478 0
2018-02-24 11:24:42 GMT 52.889023 -2.539097 33,625 132 477 -2368
2018-02-24 11:24:39 GMT 52.894051 -2.548279 33,800 132 477 -2368
2018-02-24 11:24:36 GMT 52.897915 -2.555263 33,750 132 477 -2368
2018-02-24 11:24:33 GMT 52.904709 -2.567662 33,900 132 475 -2240
2018-02-24 11:24:30 GMT 52.907227 -2.572250 33,950 132 475 -2240
2018-02-24 11:24:27 GMT 52.913132 -2.583008 34,100 132 475 -1984
2018-02-24 11:24:24 GMT 52.915325 -2.587045 34,200 132 474 -1728
2018-02-24 11:24:21 GMT 52.919746 -2.595049 34,300 132 474 -1728
2018-02-24 11:24:18 GMT 52.925766 -2.606049 34,350 132 474 -1600
2018-02-24 11:24:15 GMT 52.930637 -2.614903 34,500 132 474 -1280
2018-02-24 11:24:11 GMT 52.935062 -2.622907 34,525 132 475 -1088
2018-02-24 11:24:08 GMT 52.939484 -2.630990 34,575 132 475 -1024
2018-02-24 11:24:05 GMT 52.943756 -2.638779 34,625 132 475 -896
2018-02-24 11:24:02 GMT 52.948471 -2.647400 34,650 132 475 -896
2018-02-24 11:23:59 GMT 52.953030 -2.655788 34,700 132 475 -832
2018-02-24 11:23:56 GMT 52.956615 -2.662223 34,725 132 476 -832
2018-02-24 11:23:53 GMT 52.962662 -2.673264 34,800 132 476 -704
2018-02-24 11:23:50 GMT 52.965508 -2.678310 34,800 132 476 -704
2018-02-24 11:23:47 GMT 52.971268 -2.688828 34,850 132 476 -576
2018-02-24 11:23:44 GMT 52.974884 -2.695236 34,925 133 477 -512
2018-02-24 11:23:40 GMT 52.980560 -2.705383 34,900 133 476 -576
2018-02-24 11:23:37 GMT 52.985092 -2.713394 34,925 133 477 -512
2018-02-24 11:23:34 GMT 52.991455 -2.724457 34,950 133 478 -448
2018-02-24 11:23:31 GMT 52.995625 -2.731515 34,975 134 477 -256
2018-02-24 11:23:28 GMT 52.999306 -2.737793 34,975 134 478 -256
2018-02-24 11:23:25 GMT 53.003960 -2.745640 34,975 134 478 -192
2018-02-24 11:23:22 GMT 53.009720 -2.755203 34,975 134 478 -128
2018-02-24 11:23:19 GMT 53.014851 -2.763768 34,975 134 478 -64
2018-02-24 11:23:16 GMT 53.019379 -2.771378 34,975 134 478 -64
2018-02-24 11:23:13 GMT 53.023884 -2.778913 35,000 134 478 -64
2018-02-24 11:23:09 GMT 53.030075 -2.789350 35,000 134 478 -64
2018-02-24 11:23:06 GMT 53.033340 -2.794800 35,000 134 478 -64
2018-02-24 11:23:03 GMT 53.038971 -2.804184 35,000 134 478 -64
2018-02-24 11:23:00 GMT 53.044086 -2.812735 35,000 134 478 0
2018-02-24 11:22:57 GMT 53.047989 -2.819290 34,975 134 478 0
2018-02-24 11:22:54 GMT 53.052658 -2.827072 34,975 134 478 -64
2018-02-24 11:22:51 GMT 53.056564 -2.833609 34,975 134 478 -64
2018-02-24 11:22:48 GMT 53.061081 -2.841187 35,000 134 478 -64
2018-02-24 11:22:45 GMT 53.067131 -2.851345 34,975 134 479 -64
2018-02-24 11:22:42 GMT 53.071060 -2.857819 34,975 134 479 -64
2018-02-24 11:22:39 GMT 53.076050 -2.866211 35,000 134 480 -64
2018-02-24 11:22:35 GMT 53.081795 -2.875828 35,000 134 479 -64
2018-02-24 11:22:32 GMT 53.086170 -2.883205 35,000 134 479 -64
2018-02-24 11:22:29 GMT 53.091152 -2.891523 35,000 134 478 -64
2018-02-24 11:22:26 GMT 53.094551 -2.897252 34,975 134 478 -64
2018-02-24 11:22:23 GMT 53.100311 -2.906982 35,000 134 478 0
2018-02-24 11:22:20 GMT 53.105255 -2.915301 35,000 134 478 0
2018-02-24 11:22:17 GMT 53.110703 -2.924464 35,000 134 478 0
2018-02-24 11:22:14 GMT 53.115963 -2.933430 35,000 134 478 0
2018-02-24 11:22:11 GMT 53.118301 -2.937273 35,000 134 478 0
2018-02-24 11:22:08 GMT 53.122807 -2.944901 35,000 134 478 0
2018-02-24 11:22:05 GMT 53.128067 -2.953787 35,000 134 478 0
2018-02-24 11:22:02 GMT 53.132397 -2.961139 35,000 134 478 -64
2018-02-24 11:21:59 GMT 53.137527 -2.969761 34,975 134 478 0
2018-02-24 11:21:56 GMT 53.143112 -2.979100 34,975 134 478 -64
2018-02-24 11:21:53 GMT 53.148224 -2.987797 35,000 134 478 -64
2018-02-24 11:21:50 GMT 53.154137 -2.997733 35,000 134 478 0
2018-02-24 11:21:47 GMT 53.157394 -3.003191 35,000 134 478 -64
2018-02-24 11:21:44 GMT 53.162064 -3.011039 35,000 134 478 -64
2018-02-24 11:21:41 GMT 53.165451 -3.016767 35,000 134 478 0
2018-02-24 11:21:37 GMT 53.173233 -3.029872 34,975 134 478 0
2018-02-24 11:21:34 GMT 53.177414 -3.036993 35,000 134 478 -64
2018-02-24 11:21:31 GMT 53.180649 -3.042428 35,000 134 478 0
2018-02-24 11:21:28 GMT 53.185791 -3.051130 35,000 134 478 0
2018-02-24 11:21:25 GMT 53.191223 -3.060242 34,975 134 478 0
2018-02-24 11:21:22 GMT 53.194931 -3.066520 35,000 134 478 0
2018-02-24 11:21:19 GMT 53.199432 -3.074152 35,000 134 478 -64
2018-02-24 11:21:16 GMT 53.203949 -3.081744 35,000 134 478 -64
2018-02-24 11:21:13 GMT 53.209999 -3.091924 35,000 134 478 -64
2018-02-24 11:21:09 GMT 53.214653 -3.099841 35,000 134 479 -64
2018-02-24 11:21:06 GMT 53.219261 -3.107677 35,000 134 479 -64
2018-02-24 11:21:03 GMT 53.223919 -3.115593 35,000 134 478 -64
2018-02-24 11:21:00 GMT 53.228439 -3.123178 35,000 134 478 -64
2018-02-24 11:20:57 GMT 53.233555 -3.131911 34,975 134 478 -64
2018-02-24 11:20:54 GMT 53.238815 -3.140797 35,000 134 478 -64
2018-02-24 11:20:51 GMT 53.243145 -3.148148 35,000 134 478 -64
2018-02-24 11:20:48 GMT 53.246979 -3.154724 35,000 134 478 -64
2018-02-24 11:20:45 GMT 53.251007 -3.161551 35,000 134 478 -64
2018-02-24 11:20:42 GMT 53.257996 -3.173433 35,000 134 479 -64
2018-02-24 11:20:38 GMT 53.262497 -3.181013 35,000 134 478 -64
2018-02-24 11:20:35 GMT 53.267586 -3.189670 35,000 134 478 -64
2018-02-24 11:20:32 GMT 53.273170 -3.199122 35,000 134 478 0
2018-02-24 11:20:29 GMT 53.277008 -3.205732 35,000 134 478 0
2018-02-24 11:20:26 GMT 53.282913 -3.215698 35,000 134 478 -64
2018-02-24 11:20:23 GMT 53.286942 -3.222604 35,000 134 478 0
2018-02-24 11:20:20 GMT 53.291885 -3.231001 34,975 134 478 0
2018-02-24 11:20:17 GMT 53.295097 -3.236524 34,975 134 478 0
2018-02-24 11:20:14 GMT 53.300079 -3.244925 34,975 134 478 0
2018-02-24 11:20:11 GMT 53.305012 -3.253407 35,000 134 478 -64
2018-02-24 11:20:08 GMT 53.309620 -3.261243 35,000 134 478 -64
2018-02-24 11:20:05 GMT 53.314728 -3.270002 35,000 134 478 -64
2018-02-24 11:20:02 GMT 53.319817 -3.278692 35,000 134 478 -64
2018-02-24 11:19:59 GMT 53.322933 -3.283943 35,000 134 478 -64
2018-02-24 11:19:56 GMT 53.327408 -3.291582 35,000 134 478 -64
2018-02-24 11:19:53 GMT 53.332352 -3.300058 35,000 134 477 0
2018-02-24 11:19:50 GMT 53.338947 -3.311409 35,000 134 478 -64
2018-02-24 11:19:47 GMT 53.344345 -3.320618 35,000 134 478 -64
2018-02-24 11:19:44 GMT 53.346497 -3.324306 35,000 134 478 -64
2018-02-24 11:19:41 GMT 53.350845 -3.331682 34,975 134 478 -64
2018-02-24 11:19:38 GMT 53.356705 -3.341727 35,000 134 478 -64
2018-02-24 11:19:35 GMT 53.361328 -3.349653 35,000 134 477 0
2018-02-24 11:19:32 GMT 53.364990 -3.355931 35,000 134 477 0
2018-02-24 11:19:29 GMT 53.370373 -3.365209 34,975 134 478 -64
2018-02-24 11:19:26 GMT 53.373489 -3.370460 35,000 134 477 -64
2018-02-24 11:19:23 GMT 53.378540 -3.379159 34,975 134 477 0
2018-02-24 11:19:20 GMT 53.384571 -3.389444 34,975 134 477 0
2018-02-24 11:19:17 GMT 53.388382 -3.396031 35,000 134 477 -64
2018-02-24 11:19:14 GMT 53.393005 -3.403957 35,000 134 477 0
2018-02-24 11:19:11 GMT 53.396255 -3.409478 35,000 134 477 0
2018-02-24 11:19:08 GMT 53.403442 -3.421927 34,975 134 476 0
2018-02-24 11:19:05 GMT 53.407745 -3.429304 35,000 134 477 0
2018-02-24 11:19:02 GMT 53.411289 -3.435328 34,975 134 477 -64
2018-02-24 11:18:59 GMT 53.417435 -3.445910 34,975 134 476 0
2018-02-24 11:18:56 GMT 53.421440 -3.452777 35,000 134 476 0
2018-02-24 11:18:53 GMT 53.426655 -3.461744 35,000 134 476 0
2018-02-24 11:18:50 GMT 53.430611 -3.468610 34,975 134 476 -64
2018-02-24 11:18:47 GMT 53.434158 -3.474662 34,975 134 476 0
2018-02-24 11:18:44 GMT 53.439651 -3.484157 34,975 134 476 -64
2018-02-24 11:18:41 GMT 53.443634 -3.491063 34,975 134 476 0
2018-02-24 11:18:38 GMT 53.449173 -3.500558 35,000 134 476 0
2018-02-24 11:18:35 GMT 53.452240 -3.505894 34,975 134 476 0
2018-02-24 11:18:32 GMT 53.456818 -3.513820 35,000 134 476 -64
2018-02-24 11:18:29 GMT 53.461891 -3.522572 35,000 134 477 0
2018-02-24 11:18:26 GMT 53.468765 -3.534459 35,000 134 476 -64
2018-02-24 11:18:23 GMT 53.473389 -3.542385 35,000 134 476 -64
2018-02-24 11:18:20 GMT 53.475494 -3.546151 35,000 134 477 -64
2018-02-24 11:18:17 GMT 53.479958 -3.553754 35,000 134 477 -64
2018-02-24 11:18:14 GMT 53.483826 -3.560434 35,000 134 477 -64
2018-02-24 11:18:11 GMT 53.489044 -3.569380 34,975 131 477 -64
2018-02-24 11:18:08 GMT 53.494106 -3.578150 35,000 133 477 -64
2018-02-24 11:18:05 GMT 53.499390 -3.587585 35,000 125 476 0
2018-02-24 11:18:02 GMT 53.503235 -3.594648 34,975 131 476 -64
2018-02-24 11:17:59 GMT 53.508633 -3.604889 34,975 130 477 -64
2018-02-24 11:17:56 GMT 53.510681 -3.608766 35,000 129 476 0
2018-02-24 11:17:53 GMT 53.516079 -3.619430 35,000 129 476 0
2018-02-24 11:17:50 GMT 53.520317 -3.627993 35,000 128 476 -64
2018-02-24 11:17:47 GMT 53.524338 -3.636318 35,000 127 477 0
2018-02-24 11:17:44 GMT 53.529346 -3.647057 35,000 127 477 0
2018-02-24 11:17:41 GMT 53.533863 -3.657074 34,975 126 476 0
2018-02-24 11:17:38 GMT 53.535828 -3.661508 35,000 121 477 -64
2018-02-24 11:17:35 GMT 53.541000 -3.673436 34,975 125 476 0
2018-02-24 11:17:31 GMT 53.545303 -3.683716 35,000 123 476 -64
2018-02-24 11:17:28 GMT 53.549057 -3.692897 35,000 123 476 -64
2018-02-24 11:17:25 GMT 53.552113 -3.700535 35,000 121 476 0
2018-02-24 11:17:22 GMT 53.556393 -3.711682 35,000 122 476 -64
2018-02-24 11:17:19 GMT 53.560272 -3.722011 35,000 121 476 -64
2018-02-24 11:17:15 GMT 53.563843 -3.731797 35,000 121 477 -64
2018-02-24 11:17:12 GMT 53.567986 -3.743187 35,000 121 477 -64
2018-02-24 11:17:09 GMT 53.570847 -3.751046 35,000 121 477 -64
2018-02-24 11:17:06 GMT 53.575993 -3.765241 35,000 121 477 -64
2018-02-24 11:17:03 GMT 53.578972 -3.773481 35,000 121 477 -64
2018-02-24 11:17:00 GMT 53.581718 -3.780993 35,000 121 477 -64
2018-02-24 11:16:57 GMT 53.585163 -3.790526 35,000 121 477 0
2018-02-24 11:16:54 GMT 53.588745 -3.800328 35,000 121 477 0
2018-02-24 11:16:51 GMT 53.591721 -3.808489 35,000 121 476 -64
2018-02-24 11:16:48 GMT 53.596069 -3.820496 35,000 121 476 -64
2018-02-24 11:16:45 GMT 53.598816 -3.828108 35,000 121 477 0
2018-02-24 11:16:42 GMT 53.601688 -3.836006 35,000 121 477 -64
2018-02-24 11:16:39 GMT 53.606251 -3.848608 35,000 121 477 0
2018-02-24 11:16:35 GMT 53.610394 -3.860079 34,975 121 476 -64
2018-02-24 11:16:32 GMT 53.613792 -3.869530 35,000 121 477 0
2018-02-24 11:16:29 GMT 53.617237 -3.879062 34,975 121 476 0
2018-02-24 11:16:26 GMT 53.621334 -3.890453 34,975 121 476 0
2018-02-24 11:16:23 GMT 53.624908 -3.900225 35,000 121 477 64
2018-02-24 11:16:20 GMT 53.627991 -3.908790 34,975 121 477 0
2018-02-24 11:16:17 GMT 53.632416 -3.921099 34,975 121 476 0
2018-02-24 11:16:14 GMT 53.634247 -3.926200 34,975 121 476 -64
2018-02-24 11:16:11 GMT 53.638367 -3.937578 34,975 121 477 -64
2018-02-24 11:16:08 GMT 53.641342 -3.945818 35,000 121 477 -64
2018-02-24 11:16:05 GMT 53.644890 -3.955644 35,000 121 477 -64
2018-02-24 11:16:02 GMT 53.647869 -3.963883 35,000 121 477 -64
2018-02-24 11:15:59 GMT 53.651871 -3.975010 35,000 121 478 -64
2018-02-24 11:15:56 GMT 53.655411 -3.984806 34,975 121 478 -64
2018-02-24 11:15:53 GMT 53.658810 -3.994338 34,975 121 478 -64
2018-02-24 11:15:50 GMT 53.661667 -4.002319 35,000 121 478 -64
2018-02-24 11:15:47 GMT 53.664536 -4.010252 35,000 121 478 -64
2018-02-24 11:15:44 GMT 53.668678 -4.021642 35,000 121 478 -64
2018-02-24 11:15:41 GMT 53.671738 -4.030256 35,000 121 478 0
2018-02-24 11:15:38 GMT 53.675858 -4.041713 35,000 121 478 -64
2018-02-24 11:15:34 GMT 53.679852 -4.052824 35,000 121 478 -64
2018-02-24 11:15:31 GMT 53.683296 -4.062356 35,000 121 477 -64
2018-02-24 11:15:28 GMT 53.686844 -4.072239 34,975 121 477 -64
2018-02-24 11:15:25 GMT 53.691071 -4.084006 34,975 121 477 -64
2018-02-24 11:15:22 GMT 53.694004 -4.092246 35,000 121 477 -64
2018-02-24 11:15:19 GMT 53.696983 -4.100485 35,000 121 477 -64
2018-02-24 11:15:16 GMT 53.700848 -4.111310 35,000 121 477 -64
2018-02-24 11:15:13 GMT 53.703735 -4.119245 35,000 121 477 -64
2018-02-24 11:15:10 GMT 53.707687 -4.130375 35,000 121 477 -64
2018-02-24 11:15:07 GMT 53.711319 -4.140553 35,000 121 477 -64
2018-02-24 11:15:04 GMT 53.714764 -4.150085 35,000 121 477 -64
2018-02-24 11:15:01 GMT 53.718395 -4.160345 35,000 121 477 -64
2018-02-24 11:14:58 GMT 53.720764 -4.166957 35,000 121 477 -64
2018-02-24 11:14:55 GMT 53.724308 -4.176824 35,000 121 476 -64
2018-02-24 11:14:52 GMT 53.727356 -4.185399 35,000 121 476 -64
2018-02-24 11:14:49 GMT 53.731888 -4.198111 35,000 121 476 0
2018-02-24 11:14:46 GMT 53.734634 -4.205802 35,000 121 476 -64
2018-02-24 11:14:42 GMT 53.739807 -4.220398 35,000 120 475 0
2018-02-24 11:14:39 GMT 53.742184 -4.227071 34,975 120 475 0
2018-02-24 11:14:36 GMT 53.746170 -4.238133 34,975 120 475 -64
2018-02-24 11:14:33 GMT 53.749680 -4.247993 34,975 120 475 0
2018-02-24 11:14:30 GMT 53.753498 -4.258818 34,975 120 475 -64
2018-02-24 11:14:26 GMT 53.756893 -4.268269 35,000 120 474 0
2018-02-24 11:14:23 GMT 53.759827 -4.276590 35,000 120 474 -64
2018-02-24 11:14:20 GMT 53.765121 -4.291495 35,000 120 474 -64
2018-02-24 11:14:17 GMT 53.768051 -4.299735 35,000 120 474 0
2018-02-24 11:14:14 GMT 53.770752 -4.307347 34,975 120 474 -64
2018-02-24 11:14:11 GMT 53.774139 -4.316842 35,000 120 474 -64
2018-02-24 11:14:08 GMT 53.777069 -4.325082 35,000 120 474 -64
2018-02-24 11:14:05 GMT 53.781143 -4.336461 35,000 120 474 -64
2018-02-24 11:14:01 GMT 53.785755 -4.349455 35,000 120 474 -64
2018-02-24 11:13:57 GMT 53.791157 -4.364642 35,000 120 474 -64
2018-02-24 11:13:54 GMT 53.794418 -4.373893 35,000 120 474 -64
2018-02-24 11:13:51 GMT 53.796661 -4.380171 34,975 120 473 0
2018-02-24 11:13:48 GMT 53.800507 -4.391000 34,975 120 474 0
2018-02-24 11:13:45 GMT 53.804993 -4.403634 35,000 120 473 -64
2018-02-24 11:13:42 GMT 53.808010 -4.412222 35,000 120 473 -64
2018-02-24 11:13:39 GMT 53.810246 -4.418523 35,000 120 473 0
2018-02-24 11:13:36 GMT 53.812592 -4.425214 35,000 120 473 -64
2018-02-24 11:13:33 GMT 53.817646 -4.439446 35,000 120 472 0
2018-02-24 11:13:30 GMT 53.820465 -4.447344 34,975 120 472 0
2018-02-24 11:13:27 GMT 53.823120 -4.454956 35,000 120 472 -64
2018-02-24 11:13:24 GMT 53.827049 -4.466023 34,975 120 472 -64
2018-02-24 11:13:21 GMT 53.831406 -4.478420 35,000 120 472 -64
2018-02-24 11:13:18 GMT 53.833191 -4.483442 35,000 120 472 -64
2018-02-24 11:13:15 GMT 53.836990 -4.494271 35,000 120 472 -64
2018-02-24 11:13:12 GMT 53.840744 -4.505022 35,000 120 472 0
2018-02-24 11:13:09 GMT 53.843761 -4.513604 35,000 120 472 -64
2018-02-24 11:13:06 GMT 53.846100 -4.520246 35,000 120 472 0
2018-02-24 11:13:03 GMT 53.850464 -4.532587 34,975 120 471 0
2018-02-24 11:13:00 GMT 53.855026 -4.545515 35,000 120 471 64
2018-02-24 11:12:57 GMT 53.857166 -4.551571 34,975 120 471 0
2018-02-24 11:12:54 GMT 53.860382 -4.560739 34,975 120 471 0
2018-02-24 11:12:50 GMT 53.865509 -4.575256 34,975 120 471 64
2018-02-24 11:12:47 GMT 53.867752 -4.581613 34,975 120 471 64
2018-02-24 11:12:44 GMT 53.872421 -4.594875 34,975 120 471 0
2018-02-24 11:12:41 GMT 53.874531 -4.600929 34,975 120 473 -64
2018-02-24 11:12:38 GMT 53.878071 -4.611027 34,975 120 471 0
2018-02-24 11:12:35 GMT 53.882725 -4.624356 34,975 120 472 -64
2018-02-24 11:12:32 GMT 53.884415 -4.629089 34,975 120 472 -64
2018-02-24 11:12:29 GMT 53.887985 -4.639212 34,975 120 473 -64
2018-02-24 11:12:26 GMT 53.891556 -4.649336 34,975 120 472 -64
2018-02-24 11:12:23 GMT 53.894897 -4.658909 35,000 120 472 -64
2018-02-24 11:12:20 GMT 53.899567 -4.672171 34,975 120 472 -64
2018-02-24 11:12:17 GMT 53.901123 -4.676644 34,975 120 472 -64
2018-02-24 11:12:14 GMT 53.904793 -4.687123 35,000 120 473 -64
2018-02-24 11:12:10 GMT 53.909134 -4.699559 35,000 120 473 -64
2018-02-24 11:12:07 GMT 53.912380 -4.708773 35,000 120 473 -64
2018-02-24 11:12:04 GMT 53.916733 -4.721139 35,000 120 473 -64
2018-02-24 11:12:01 GMT 53.919083 -4.727837 35,000 120 473 -64
2018-02-24 11:11:58 GMT 53.923084 -4.739308 35,000 120 473 0
2018-02-24 11:11:54 GMT 53.927509 -4.752072 35,000 120 473 -64
2018-02-24 11:11:50 GMT 53.931976 -4.764754 35,000 120 473 -64
2018-02-24 11:11:46 GMT 53.937195 -4.779681 35,000 120 472 0
2018-02-24 11:11:43 GMT 53.938980 -4.784781 35,000 120 471 0
2018-02-24 11:11:40 GMT 53.942963 -4.796238 35,000 120 471 -64
2018-02-24 11:11:37 GMT 53.945618 -4.803850 34,975 120 472 0
2018-02-24 11:11:34 GMT 53.950367 -4.817586 35,000 120 471 0
2018-02-24 11:11:30 GMT 53.954041 -4.828020 35,000 120 471 0
2018-02-24 11:11:27 GMT 53.956879 -4.836339 35,000 120 471 -64
2018-02-24 11:11:24 GMT 53.961166 -4.848687 35,000 120 471 0
2018-02-24 11:11:21 GMT 53.963821 -4.856361 35,000 120 471 -64
2018-02-24 11:11:18 GMT 53.966705 -4.864601 35,000 120 471 0
2018-02-24 11:11:15 GMT 53.969963 -4.874133 35,000 120 471 0
2018-02-24 11:11:12 GMT 53.973038 -4.883100 35,000 120 471 64
2018-02-24 11:11:08 GMT 53.977753 -4.896763 34,975 120 471 64
2018-02-24 11:11:05 GMT 53.981277 -4.906965 35,000 120 471 64
2018-02-24 11:11:02 GMT 53.985031 -4.917794 34,975 120 471 64
2018-02-24 11:10:58 GMT 53.989655 -4.931135 35,000 120 471 64
2018-02-24 11:10:54 GMT 53.994049 -4.943848 34,975 120 471 64
2018-02-24 11:10:51 GMT 53.996593 -4.951199 34,975 120 471 64
2018-02-24 11:10:48 GMT 53.999432 -4.959519 34,975 120 472 0
2018-02-24 11:10:45 GMT 54.003387 -4.970990 34,975 120 473 0
2018-02-24 11:10:42 GMT 54.006592 -4.980259 34,975 120 473 -64
2018-02-24 11:10:39 GMT 54.009811 -4.989570 34,975 120 473 0
2018-02-24 11:10:36 GMT 54.013119 -4.999183 35,000 120 475 0
2018-02-24 11:10:33 GMT 54.017075 -5.010735 34,975 120 475 -64
2018-02-24 11:10:30 GMT 54.019867 -5.018790 35,000 120 476 -64
2018-02-24 11:10:27 GMT 54.022896 -5.027457 34,975 120 476 -64
2018-02-24 11:10:24 GMT 54.027130 -5.039655 35,000 120 477 -64
2018-02-24 11:10:21 GMT 54.029831 -5.047410 35,000 120 477 -64
2018-02-24 11:10:18 GMT 54.033134 -5.057104 35,000 120 478 -128
2018-02-24 11:10:15 GMT 54.037079 -5.068464 35,000 120 478 -128
2018-02-24 11:10:11 GMT 54.040878 -5.079450 35,000 120 479 -64
2018-02-24 11:10:08 GMT 54.043533 -5.087219 35,000 120 479 64
2018-02-24 11:10:05 GMT 54.047894 -5.099918 34,975 120 479 0
2018-02-24 11:10:02 GMT 54.051895 -5.111632 34,975 120 479 0
2018-02-24 11:09:58 GMT 54.055714 -5.122618 34,975 120 479 0
2018-02-24 11:09:55 GMT 54.058647 -5.131100 35,000 120 479 -64
2018-02-24 11:09:51 GMT 54.062759 -5.143093 35,000 120 479 -64
2018-02-24 11:09:48 GMT 54.068005 -5.158404 34,975 120 479 -64
2018-02-24 11:09:45 GMT 54.070236 -5.164867 35,000 120 479 -64
2018-02-24 11:09:42 GMT 54.074158 -5.176287 35,000 120 480 -128
2018-02-24 11:09:39 GMT 54.077957 -5.187352 35,000 120 480 0
2018-02-24 11:09:35 GMT 54.081757 -5.198417 35,000 120 480 -64
2018-02-24 11:09:31 GMT 54.085415 -5.209135 35,000 120 480 64
2018-02-24 11:09:28 GMT 54.089001 -5.219556 35,000 120 479 64
2018-02-24 11:09:25 GMT 54.092239 -5.228943 34,975 120 479 0
2018-02-24 11:09:22 GMT 54.095581 -5.238674 34,975 120 479 0
2018-02-24 11:09:19 GMT 54.100124 -5.252030 34,975 120 479 0
2018-02-24 11:09:16 GMT 54.103134 -5.260803 35,000 120 479 -64
2018-02-24 11:09:13 GMT 54.107059 -5.272145 35,000 120 479 -64
2018-02-24 11:09:10 GMT 54.109947 -5.280627 35,000 120 479 0
2018-02-24 11:09:07 GMT 54.111832 -5.286150 34,975 120 479 0
2018-02-24 11:09:04 GMT 54.116730 -5.300432 34,975 120 479 0
2018-02-24 11:09:01 GMT 54.121170 -5.313459 34,975 120 479 -64
2018-02-24 11:08:58 GMT 54.123306 -5.319645 34,975 120 479 -64
2018-02-24 11:08:55 GMT 54.125610 -5.326486 35,000 120 479 -64
2018-02-24 11:08:51 GMT 54.130383 -5.340486 35,000 120 479 -64
2018-02-24 11:08:48 GMT 54.133503 -5.349615 35,000 120 479 0
2018-02-24 11:08:45 GMT 54.136734 -5.359052 35,000 120 479 0
2018-02-24 11:08:42 GMT 54.140259 -5.369489 35,000 120 479 0
2018-02-24 11:08:38 GMT 54.144699 -5.382516 35,000 120 479 0
2018-02-24 11:08:35 GMT 54.147888 -5.392025 35,000 120 479 -64
2018-02-24 11:08:32 GMT 54.151749 -5.403390 35,000 120 479 -64
2018-02-24 11:08:27 GMT 54.156963 -5.418764 35,000 120 479 0
2018-02-24 11:08:24 GMT 54.160172 -5.428266 34,975 120 479 0
2018-02-24 11:08:21 GMT 54.163155 -5.437021 34,975 119 479 0
2018-02-24 11:08:18 GMT 54.166397 -5.446551 35,000 119 480 -64
2018-02-24 11:08:14 GMT 54.171814 -5.462548 35,000 119 480 -64
2018-02-24 11:08:11 GMT 54.174469 -5.470384 34,975 119 480 0
2018-02-24 11:08:08 GMT 54.177773 -5.480158 35,000 119 480 -64
2018-02-24 11:08:05 GMT 54.181545 -5.491306 35,000 119 478 64
2018-02-24 11:08:02 GMT 54.185081 -5.501727 35,000 119 480 -64
2018-02-24 11:07:59 GMT 54.187866 -5.509957 34,975 119 479 0
2018-02-24 11:07:56 GMT 54.191738 -5.521357 35,000 119 479 -64
2018-02-24 11:07:53 GMT 54.193928 -5.527900 35,000 119 479 0
2018-02-24 11:07:50 GMT 54.197388 -5.538051 35,000 119 480 0
2018-02-24 11:07:46 GMT 54.202469 -5.553118 35,000 119 479 -64
2018-02-24 11:07:43 GMT 54.205193 -5.561263 35,000 119 479 0
2018-02-24 11:07:40 GMT 54.209518 -5.574071 35,000 119 479 0
2018-02-24 11:07:36 GMT 54.214039 -5.587436 35,000 119 478 64
2018-02-24 11:07:33 GMT 54.216690 -5.595353 34,975 119 478 64
2018-02-24 11:07:30 GMT 54.219112 -5.602543 34,975 119 478 64
2018-02-24 11:07:27 GMT 54.223068 -5.614256 34,975 119 478 64
2018-02-24 11:07:24 GMT 54.226685 -5.625078 34,975 119 478 64
2018-02-24 11:07:20 GMT 54.231766 -5.640145 34,975 119 478 0
2018-02-24 11:07:17 GMT 54.235291 -5.650582 34,975 119 478 -64
2018-02-24 11:07:14 GMT 54.237362 -5.656828 34,975 119 479 -64
2018-02-24 11:07:11 GMT 54.241783 -5.669915 35,000 119 479 -64
2018-02-24 11:07:08 GMT 54.244080 -5.676793 35,000 119 479 -64
2018-02-24 11:07:05 GMT 54.248016 -5.688564 35,000 119 479 -64
2018-02-24 11:07:02 GMT 54.250347 -5.695442 35,000 119 479 -64
2018-02-24 11:06:59 GMT 54.254425 -5.707554 35,000 119 479 -64
2018-02-24 11:06:55 GMT 54.257610 -5.717091 35,000 119 479 0
2018-02-24 11:06:52 GMT 54.262684 -5.732197 35,000 119 479 64
2018-02-24 11:06:48 GMT 54.266327 -5.743025 35,000 119 479 0
2018-02-24 11:06:44 GMT 54.270412 -5.755140 34,975 119 479 0
2018-02-24 11:06:41 GMT 54.273483 -5.764349 34,975 119 479 64
2018-02-24 11:06:38 GMT 54.277023 -5.774850 34,975 119 479 64
2018-02-24 11:06:35 GMT 54.280094 -5.784052 34,975 119 479 0
2018-02-24 11:06:32 GMT 54.284363 -5.796823 34,975 119 479 0
2018-02-24 11:06:28 GMT 54.288757 -5.809910 35,000 119 479 -64
2018-02-24 11:06:25 GMT 54.292152 -5.820091 34,975 119 478 -64
2018-02-24 11:06:22 GMT 54.294807 -5.827997 34,975 119 478 0
2018-02-24 11:06:19 GMT 54.298065 -5.837818 35,000 119 478 0
2018-02-24 11:06:16 GMT 54.301254 -5.847392 34,975 119 478 -64
2018-02-24 11:06:12 GMT 54.305096 -5.858876 34,975 119 478 -64
2018-02-24 11:06:09 GMT 54.308487 -5.869042 35,000 119 478 -64
2018-02-24 11:06:06 GMT 54.312309 -5.880515 35,000 119 478 -64
2018-02-24 11:06:03 GMT 54.315617 -5.890336 35,000 119 478 -64
2018-02-24 11:06:00 GMT 54.319427 -5.901839 35,000 119 478 -64
2018-02-24 11:05:57 GMT 54.321625 -5.908383 35,000 119 478 -64
2018-02-24 11:05:54 GMT 54.324875 -5.918238 35,000 119 478 -64
2018-02-24 11:05:51 GMT 54.329163 -5.931036 35,000 119 478 -64
2018-02-24 11:05:47 GMT 54.332653 -5.941606 35,000 119 478 -64
2018-02-24 11:05:43 GMT 54.338100 -5.958002 35,000 119 478 0
2018-02-24 11:05:40 GMT 54.341492 -5.968161 34,975 119 478 0
2018-02-24 11:05:37 GMT 54.343918 -5.975351 34,975 119 478 0
2018-02-24 11:05:34 GMT 54.346851 -5.984220 34,975 119 478 0
2018-02-24 11:05:31 GMT 54.350235 -5.994415 34,975 119 478 64
2018-02-24 11:05:28 GMT 54.353485 -6.004271 35,000 119 477 64
2018-02-24 11:05:24 GMT 54.357834 -6.017438 34,975 119 477 0
2018-02-24 11:05:21 GMT 54.360958 -6.026917 34,975 119 477 0
2018-02-24 11:05:18 GMT 54.365288 -6.040067 34,975 119 477 -64
2018-02-24 11:05:15 GMT 54.369011 -6.051220 34,975 119 477 -64
2018-02-24 11:05:10 GMT 54.373108 -6.063704 35,000 119 478 -64
2018-02-24 11:05:07 GMT 54.376366 -6.073608 35,000 119 478 -64
2018-02-24 11:05:04 GMT 54.379303 -6.082467 35,000 119 478 -64
2018-02-24 11:05:01 GMT 54.382648 -6.092668 35,000 119 478 -64
2018-02-24 11:04:58 GMT 54.385910 -6.102572 35,000 119 478 -64
2018-02-24 11:04:55 GMT 54.389282 -6.112761 35,000 119 478 -64
2018-02-24 11:04:52 GMT 54.393730 -6.126293 35,000 119 477 0
2018-02-24 11:04:49 GMT 54.396652 -6.135218 34,975 119 477 0
2018-02-24 11:04:45 GMT 54.399719 -6.144427 34,975 119 477 0
2018-02-24 11:04:42 GMT 54.404709 -6.159533 34,975 119 477 0
2018-02-24 11:04:39 GMT 54.406448 -6.164784 34,975 119 477 0
2018-02-24 11:04:36 GMT 54.409286 -6.173347 35,000 119 477 -64
2018-02-24 11:04:32 GMT 54.414047 -6.187807 34,975 119 477 -64
2018-02-24 11:04:29 GMT 54.418262 -6.200700 35,000 119 477 -64
2018-02-24 11:04:26 GMT 54.421417 -6.210184 35,000 119 477 -64
2018-02-24 11:04:22 GMT 54.425079 -6.221412 35,000 119 477 -64
2018-02-24 11:04:19 GMT 54.428875 -6.232910 35,000 119 477 -64
2018-02-24 11:04:16 GMT 54.431808 -6.241769 35,000 119 477 -64
2018-02-24 11:04:13 GMT 54.436001 -6.254633 35,000 119 476 0
2018-02-24 11:04:10 GMT 54.437622 -6.259541 35,000 119 476 -64
2018-02-24 11:04:07 GMT 54.441284 -6.270689 35,000 119 475 0
2018-02-24 11:04:03 GMT 54.446457 -6.286522 35,000 119 475 64
2018-02-24 11:04:00 GMT 54.448940 -6.294001 35,000 119 475 64
2018-02-24 11:03:56 GMT 54.452866 -6.306152 34,975 119 475 64
2018-02-24 11:03:52 GMT 54.457504 -6.320301 34,975 119 474 0
2018-02-24 11:03:49 GMT 54.460903 -6.330788 34,975 119 474 0
2018-02-24 11:03:46 GMT 54.463928 -6.339944 35,000 119 475 -64
2018-02-24 11:03:42 GMT 54.468109 -6.352763 34,975 119 474 0
2018-02-24 11:03:39 GMT 54.470901 -6.361326 35,000 119 474 0
2018-02-24 11:03:35 GMT 54.475288 -6.374734 34,975 119 475 -64
2018-02-24 11:03:32 GMT 54.479572 -6.387801 34,975 119 474 0
2018-02-24 11:03:29 GMT 54.481712 -6.394376 34,975 119 474 0
2018-02-24 11:03:26 GMT 54.485344 -6.405529 34,975 119 474 0
2018-02-24 11:03:22 GMT 54.490280 -6.420593 34,975 119 474 0
2018-02-24 11:03:19 GMT 54.492420 -6.427168 34,975 119 474 -64
2018-02-24 11:03:16 GMT 54.495758 -6.437342 35,000 119 475 -64
2018-02-24 11:03:13 GMT 54.499683 -6.449557 35,000 119 474 -64
2018-02-24 11:03:10 GMT 54.503128 -6.460044 35,000 119 474 -64
2018-02-24 11:03:07 GMT 54.505035 -6.465953 35,000 119 474 -64
2018-02-24 11:03:03 GMT 54.510727 -6.483388 35,000 119 475 -64
2018-02-24 11:03:00 GMT 54.513474 -6.491951 35,000 119 474 -64
2018-02-24 11:02:57 GMT 54.516449 -6.501160 35,000 119 474 -64
2018-02-24 11:02:54 GMT 54.519241 -6.509723 35,000 119 474 0
2018-02-24 11:02:51 GMT 54.522961 -6.521301 35,000 119 474 0
2018-02-24 11:02:48 GMT 54.525333 -6.528542 35,000 119 474 -64
2018-02-24 11:02:44 GMT 54.531189 -6.546640 35,000 119 474 64
2018-02-24 11:02:41 GMT 54.534164 -6.555849 35,000 118 474 64
2018-02-24 11:02:38 GMT 54.536270 -6.562392 35,000 118 474 0
2018-02-24 11:02:35 GMT 54.540649 -6.575900 35,000 119 473 64
2018-02-24 11:02:32 GMT 54.543816 -6.585721 34,975 119 473 64
2018-02-24 11:02:28 GMT 54.547348 -6.596563 34,975 118 474 0
2018-02-24 11:02:24 GMT 54.552017 -6.611104 34,975 118 474 64
2018-02-24 11:02:20 GMT 54.555733 -6.622592 34,975 119 474 0
2018-02-24 11:02:17 GMT 54.558525 -6.631165 34,975 119 474 0
2018-02-24 11:02:14 GMT 54.561813 -6.641316 34,975 119 474 0
2018-02-24 11:02:10 GMT 54.566811 -6.656799 34,975 119 474 -64
2018-02-24 11:02:06 GMT 54.570374 -6.667651 34,975 119 474 -64
2018-02-24 11:02:02 GMT 54.575272 -6.682838 35,000 119 476 -64
2018-02-24 11:01:59 GMT 54.578171 -6.691756 35,000 119 476 0
2018-02-24 11:01:56 GMT 54.580811 -6.700045 34,975 119 476 0
2018-02-24 11:01:53 GMT 54.585297 -6.713939 35,000 119 476 -64
2018-02-24 11:01:50 GMT 54.587265 -6.719836 34,975 119 477 -64
2018-02-24 11:01:47 GMT 54.591064 -6.731792 35,000 118 476 -64
2018-02-24 11:01:44 GMT 54.594910 -6.743747 35,000 118 476 -64
2018-02-24 11:01:39 GMT 54.600327 -6.760587 35,000 118 477 -64
2018-02-24 11:01:35 GMT 54.603123 -6.769243 35,000 118 477 -64
2018-02-24 11:01:31 GMT 54.608616 -6.786471 35,000 118 476 -64
2018-02-24 11:01:28 GMT 54.611828 -6.796459 35,000 118 476 -64
2018-02-24 11:01:25 GMT 54.613861 -6.802718 35,000 118 476 -64
2018-02-24 11:01:22 GMT 54.617134 -6.813022 35,000 118 475 0
2018-02-24 11:01:18 GMT 54.621460 -6.826549 35,000 118 474 -64
2018-02-24 11:01:15 GMT 54.624767 -6.836825 35,000 118 474 -64
2018-02-24 11:01:12 GMT 54.627823 -6.846421 35,000 118 474 64
2018-02-24 11:01:07 GMT 54.633316 -6.863628 35,000 118 473 64
2018-02-24 11:01:04 GMT 54.636406 -6.873197 35,000 118 473 64
2018-02-24 11:01:00 GMT 54.640732 -6.886731 35,000 118 473 64
2018-02-24 11:00:57 GMT 54.644413 -6.898249 34,975 118 473 64
2018-02-24 11:00:54 GMT 54.646320 -6.904241 34,975 118 476 -64
2018-02-24 11:00:50 GMT 54.651260 -6.919690 34,975 118 473 0
2018-02-24 11:00:47 GMT 54.654747 -6.930625 34,975 118 473 0
2018-02-24 11:00:44 GMT 54.658100 -6.941195 34,975 118 473 -64
2018-02-24 11:00:40 GMT 54.661449 -6.951766 34,975 118 474 -64
2018-02-24 11:00:37 GMT 54.665874 -6.965665 34,975 118 474 -64
2018-02-24 11:00:34 GMT 54.669159 -6.975914 34,975 118 476 -64
2018-02-24 11:00:30 GMT 54.671906 -6.984558 34,975 118 475 -64
2018-02-24 11:00:25 GMT 54.677746 -7.002785 34,975 118 475 -64
2018-02-24 11:00:20 GMT 54.682587 -7.018016 34,975 118 476 -64
2018-02-24 11:00:16 GMT 54.687149 -7.032300 35,000 118 477 -64
2018-02-24 11:00:13 GMT 54.691479 -7.045982 35,000 118 477 -64
2018-02-24 11:00:07 GMT 54.696854 -7.062997 35,000 118 477 64
2018-02-24 11:00:04 GMT 54.699905 -7.072698 34,975 118 477 64
2018-02-24 11:00:01 GMT 54.704140 -7.086098 34,975 118 477 64
2018-02-24 10:59:57 GMT 54.707428 -7.096441 34,975 118 477 0
2018-02-24 10:59:54 GMT 54.710587 -7.106377 34,975 118 477 64
2018-02-24 10:59:51 GMT 54.713032 -7.114064 34,975 118 476 -64
2018-02-24 10:59:48 GMT 54.716618 -7.125383 34,975 118 476 -64
2018-02-24 10:59:45 GMT 54.719597 -7.134705 34,975 118 477 0
2018-02-24 10:59:42 GMT 54.723495 -7.147091 35,000 118 476 -64
2018-02-24 10:59:39 GMT 54.725784 -7.154442 35,000 118 476 -64
2018-02-24 10:59:36 GMT 54.729355 -7.165752 35,000 118 476 -64
2018-02-24 10:59:33 GMT 54.732864 -7.176736 35,000 118 476 -64
2018-02-24 10:59:29 GMT 54.736866 -7.189387 35,000 118 476 -64
2018-02-24 10:59:26 GMT 54.740032 -7.199374 35,000 118 476 0
2018-02-24 10:59:23 GMT 54.742859 -7.208405 35,000 118 474 0
2018-02-24 10:59:18 GMT 54.748226 -7.225342 35,000 118 475 0
2018-02-24 10:59:13 GMT 54.753670 -7.242654 35,000 118 474 0
2018-02-24 10:59:09 GMT 54.757782 -7.255581 34,975 118 474 0
2018-02-24 10:59:05 GMT 54.762096 -7.269204 35,000 118 473 0
2018-02-24 10:59:02 GMT 54.765030 -7.278442 34,975 118 473 64
2018-02-24 10:58:58 GMT 54.769218 -7.291759 34,975 118 472 64
2018-02-24 10:58:55 GMT 54.773026 -7.304050 35,000 118 471 0
2018-02-24 10:58:52 GMT 54.775314 -7.311321 35,000 118 472 -64
2018-02-24 10:58:48 GMT 54.779297 -7.323923 34,975 118 472 0
2018-02-24 10:58:45 GMT 54.783005 -7.335878 34,975 118 472 0
2018-02-24 10:58:42 GMT 54.786118 -7.345814 34,975 118 472 0
2018-02-24 10:58:37 GMT 54.790512 -7.359709 35,000 118 472 -64
2018-02-24 10:58:34 GMT 54.794678 -7.372957 34,975 118 472 -64
2018-02-24 10:58:31 GMT 54.796825 -7.379983 34,975 118 472 -64
2018-02-24 10:58:27 GMT 54.801201 -7.393882 34,975 118 472 0
2018-02-24 10:58:23 GMT 54.805435 -7.407451 35,000 118 471 -64
2018-02-24 10:58:20 GMT 54.808651 -7.417769 35,000 118 471 -64
2018-02-24 10:58:17 GMT 54.811249 -7.426031 35,000 118 471 -64
2018-02-24 10:58:14 GMT 54.815262 -7.438993 35,000 118 471 -64
2018-02-24 10:58:11 GMT 54.817959 -7.447565 35,000 118 471 -64
2018-02-24 10:58:07 GMT 54.822056 -7.460799 35,000 118 470 0
2018-02-24 10:58:04 GMT 54.826080 -7.473773 35,000 118 470 -64
2018-02-24 10:58:01 GMT 54.829086 -7.483354 35,000 118 469 0
2018-02-24 10:57:57 GMT 54.832489 -7.494291 35,000 118 470 -64
2018-02-24 10:57:53 GMT 54.836487 -7.507158 35,000 118 470 0
2018-02-24 10:57:50 GMT 54.839794 -7.517728 35,000 118 469 0
2018-02-24 10:57:46 GMT 54.843201 -7.528704 35,000 118 470 0
2018-02-24 10:57:43 GMT 54.847092 -7.541226 35,000 118 470 -64
2018-02-24 10:57:40 GMT 54.849747 -7.549869 34,975 118 469 0
2018-02-24 10:57:37 GMT 54.853867 -7.563118 35,000 118 469 0
2018-02-24 10:57:33 GMT 54.857250 -7.573991 34,975 118 469 192
2018-02-24 10:57:30 GMT 54.860229 -7.583636 34,975 118 469 0
2018-02-24 10:57:26 GMT 54.864304 -7.596884 34,975 118 469 0
2018-02-24 10:57:22 GMT 54.868328 -7.609780 35,000 118 469 -128
2018-02-24 10:57:19 GMT 54.871590 -7.620350 35,000 118 470 -192
2018-02-24 10:57:16 GMT 54.874893 -7.631004 35,000 118 470 -192
2018-02-24 10:57:12 GMT 54.878494 -7.642607 35,025 118 470 -192
2018-02-24 10:57:09 GMT 54.881878 -7.653476 35,025 118 470 -128
2018-02-24 10:57:05 GMT 54.886391 -7.668124 35,000 118 469 -64
2018-02-24 10:57:01 GMT 54.889755 -7.679039 35,000 118 470 128
2018-02-24 10:56:58 GMT 54.892639 -7.688329 34,975 118 470 128
2018-02-24 10:56:53 GMT 54.899231 -7.709494 35,000 118 469 64
2018-02-24 10:56:49 GMT 54.901703 -7.717411 34,975 118 469 128
2018-02-24 10:56:45 GMT 54.906464 -7.732598 34,975 118 469 128
2018-02-24 10:56:42 GMT 54.909531 -7.742534 34,975 118 470 64
2018-02-24 10:56:39 GMT 54.912319 -7.751520 34,975 118 471 -64
2018-02-24 10:56:33 GMT 54.918961 -7.773069 34,975 118 470 -64
2018-02-24 10:56:30 GMT 54.921352 -7.780734 34,975 118 471 -64
2018-02-24 10:56:26 GMT 54.925449 -7.794051 34,975 118 471 -128
2018-02-24 10:56:23 GMT 54.928619 -7.804413 35,000 118 471 -128
2018-02-24 10:56:20 GMT 54.931503 -7.813703 35,000 118 472 -192
2018-02-24 10:56:14 GMT 54.937973 -7.834750 35,025 117 473 -64
2018-02-24 10:56:11 GMT 54.941044 -7.844821 35,000 118 473 -64
2018-02-24 10:56:08 GMT 54.944534 -7.856223 34,975 118 473 64
2018-02-24 10:56:02 GMT 54.950180 -7.874612 34,975 118 473 64
2018-02-24 10:55:59 GMT 54.954823 -7.889682 34,975 118 473 64
2018-02-24 10:55:51 GMT 54.961945 -7.912822 34,975 118 474 -64
2018-02-24 10:55:48 GMT 54.965012 -7.922839 34,975 118 474 -64
2018-02-24 10:55:44 GMT 54.969955 -7.938995 34,975 118 474 0
2018-02-24 10:55:41 GMT 54.972656 -7.947720 34,975 117 475 0
2018-02-24 10:55:38 GMT 54.975494 -7.957171 34,975 117 475 0
2018-02-24 10:55:32 GMT 54.982086 -7.978740 34,975 117 475 -64
2018-02-24 10:55:28 GMT 54.986244 -7.992554 34,975 117 476 -128
2018-02-24 10:55:22 GMT 54.991104 -8.008468 35,000 117 476 -128
2018-02-24 10:55:18 GMT 54.995090 -8.021601 35,000 117 476 -128
2018-02-24 10:55:13 GMT 55.001175 -8.041588 35,000 117 476 -64
2018-02-24 10:55:10 GMT 55.004169 -8.051397 35,000 117 476 -64
2018-02-24 10:55:07 GMT 55.007126 -8.061137 35,000 117 476 -64
2018-02-24 10:55:03 GMT 55.012299 -8.078021 35,000 117 476 0
2018-02-24 10:54:59 GMT 55.016319 -8.091264 35,000 117 475 -64
2018-02-24 10:54:56 GMT 55.018555 -8.098672 35,000 117 475 0
2018-02-24 10:54:52 GMT 55.022736 -8.112515 35,000 117 475 0
2018-02-24 10:54:48 GMT 55.026749 -8.125721 35,000 117 474 0
2018-02-24 10:54:45 GMT 55.029400 -8.134460 35,000 117 474 64
2018-02-24 10:54:40 GMT 55.035187 -8.153713 34,975 117 474 128
2018-02-24 10:54:36 GMT 55.039177 -8.166837 34,975 117 473 64
2018-02-24 10:54:32 GMT 55.043564 -8.181341 34,975 117 474 64
2018-02-24 10:54:29 GMT 55.046345 -8.190391 34,975 117 474 64
2018-02-24 10:54:25 GMT 55.051163 -8.206222 34,975 117 474 64
2018-02-24 10:54:21 GMT 55.054119 -8.216026 34,975 117 475 64
2018-02-24 10:54:18 GMT 55.056957 -8.225514 34,975 117 475 0
2018-02-24 10:54:15 GMT 55.060318 -8.236676 34,975 117 475 -64
2018-02-24 10:54:11 GMT 55.064392 -8.250248 35,000 117 475 -128
2018-02-24 10:54:07 GMT 55.068550 -8.264132 35,000 117 476 -64
2018-02-24 10:54:04 GMT 55.071533 -8.273917 35,000 117 476 -128
2018-02-24 10:54:00 GMT 55.075607 -8.287569 35,000 117 477 -128
2018-02-24 10:53:57 GMT 55.078560 -8.297424 35,000 117 476 -128
2018-02-24 10:53:54 GMT 55.081215 -8.306247 35,000 117 477 -64
2018-02-24 10:53:48 GMT 55.088150 -8.329385 35,000 117 476 0
2018-02-24 10:53:45 GMT 55.091492 -8.340562 34,975 117 476 0
2018-02-24 10:53:38 GMT 55.098450 -8.363665 35,000 117 476 -64
2018-02-24 10:53:35 GMT 55.101418 -8.373496 35,000 117 476 0
2018-02-24 10:53:31 GMT 55.104584 -8.384022 35,000 117 476 -64
2018-02-24 10:53:28 GMT 55.108166 -8.395885 35,000 117 476 -64
2018-02-24 10:53:24 GMT 55.112549 -8.410519 35,000 117 475 64
2018-02-24 10:53:20 GMT 55.117035 -8.425383 35,000 117 475 64
2018-02-24 10:53:17 GMT 55.120781 -8.437916 34,975 117 475 64
2018-02-24 10:53:13 GMT 55.123810 -8.448153 34,975 117 475 64
2018-02-24 10:53:08 GMT 55.128799 -8.464723 35,000 117 475 -64
2018-02-24 10:53:03 GMT 55.134003 -8.481945 34,975 117 475 64
2018-02-24 10:52:56 GMT 55.141251 -8.506003 35,000 117 475 0
2018-02-24 10:52:53 GMT 55.144089 -8.515535 34,975 117 475 0
2018-02-24 10:52:48 GMT 55.149506 -8.533464 35,000 117 475 -64
2018-02-24 10:52:42 GMT 55.154999 -8.551774 35,000 117 475 0
2018-02-24 10:52:36 GMT 55.160797 -8.571194 35,000 117 475 -64
2018-02-24 10:52:32 GMT 55.165466 -8.586785 35,000 117 475 -64
2018-02-24 10:52:27 GMT 55.169849 -8.601379 34,975 117 475 -64
2018-02-24 10:52:24 GMT 55.173294 -8.612948 34,975 117 475 0
2018-02-24 10:52:21 GMT 55.176132 -8.622437 34,975 117 475 -64
2018-02-24 10:52:18 GMT 55.180527 -8.637031 35,000 117 474 64
2018-02-24 10:52:14 GMT 55.183548 -8.647210 35,000 117 475 0
2018-02-24 10:52:11 GMT 55.186699 -8.657809 35,000 117 475 0
2018-02-24 10:52:06 GMT 55.191238 -8.673060 35,000 117 474 64
2018-02-24 10:52:03 GMT 55.194939 -8.685691 34,975 117 474 0
2018-02-24 10:52:00 GMT 55.197548 -8.694513 34,975 117 474 0
2018-02-24 10:51:57 GMT 55.201401 -8.707877 34,975 116 474 0
2018-02-24 10:51:53 GMT 55.204147 -8.717490 34,975 116 475 0
2018-02-24 10:51:50 GMT 55.207535 -8.729122 34,975 116 475 0
2018-02-24 10:51:46 GMT 55.211372 -8.742454 35,000 116 475 -64
2018-02-24 10:51:43 GMT 55.214306 -8.752691 35,000 116 475 0
2018-02-24 10:51:39 GMT 55.218384 -8.766767 34,975 116 475 0
2018-02-24 10:51:35 GMT 55.222404 -8.780823 34,975 116 475 0
2018-02-24 10:51:32 GMT 55.224884 -8.789386 34,975 116 475 64
2018-02-24 10:51:29 GMT 55.228130 -8.800715 34,975 116 474 0
2018-02-24 10:51:26 GMT 55.231483 -8.812367 34,975 116 474 0
2018-02-24 10:51:22 GMT 55.234909 -8.824364 34,975 116 475 -64
2018-02-24 10:51:19 GMT 55.238186 -8.835671 34,975 116 475 -64
2018-02-24 10:51:15 GMT 55.241638 -8.847629 35,000 116 475 -64
2018-02-24 10:51:11 GMT 55.246243 -8.863720 35,000 116 475 0
2018-02-24 10:51:08 GMT 55.248615 -8.871959 35,000 116 475 -64
2018-02-24 10:51:05 GMT 55.251549 -8.882280 35,000 116 475 -64
2018-02-24 10:51:01 GMT 55.255272 -8.895264 35,000 116 474 0
2018-02-24 10:50:58 GMT 55.258995 -8.908331 35,000 116 474 -64
2018-02-24 10:50:55 GMT 55.261742 -8.917902 35,000 116 474 0
2018-02-24 10:50:50 GMT 55.266445 -8.934382 35,000 116 474 0
2018-02-24 10:50:45 GMT 55.271851 -8.953211 34,975 116 474 64
2018-02-24 10:50:37 GMT 55.279037 -8.978577 34,975 116 474 64
2018-02-24 10:50:34 GMT 55.281967 -8.988836 34,975 116 474 0
2018-02-24 10:50:31 GMT 55.285309 -9.000469 34,975 116 474 -64
2018-02-24 10:50:28 GMT 55.288929 -9.013200 34,975 116 474 0
2018-02-24 10:50:24 GMT 55.292358 -9.025188 35,000 116 474 -64
2018-02-24 10:50:18 GMT 55.297623 -9.043768 35,000 116 474 -64
2018-02-24 10:50:14 GMT 55.301743 -9.058147 35,000 116 475 -64
2018-02-24 10:50:10 GMT 55.305733 -9.072293 35,000 116 475 0
2018-02-24 10:50:07 GMT 55.308853 -9.083280 35,000 116 475 0
2018-02-24 10:50:04 GMT 55.311722 -9.093287 35,000 116 475 -64
2018-02-24 10:49:59 GMT 55.316620 -9.110493 35,000 116 475 0
2018-02-24 10:49:53 GMT 55.321838 -9.129073 34,975 116 474 0
2018-02-24 10:49:48 GMT 55.326824 -9.146618 35,000 116 474 -64
2018-02-24 10:49:44 GMT 55.331589 -9.163486 35,000 116 474 0
2018-02-24 10:49:39 GMT 55.336319 -9.180409 35,000 116 474 0
2018-02-24 10:49:36 GMT 55.339508 -9.191679 34,975 116 474 64
2018-02-24 10:49:33 GMT 55.341476 -9.198626 34,975 116 474 0
2018-02-24 10:49:28 GMT 55.346420 -9.216114 35,000 116 474 -64
2018-02-24 10:49:23 GMT 55.351730 -9.235059 35,000 116 474 -64
2018-02-24 10:49:17 GMT 55.356812 -9.252912 35,000 116 474 -64
2018-02-24 10:49:13 GMT 55.361736 -9.270463 35,000 116 474 0
2018-02-24 10:49:05 GMT 55.369766 -9.299038 35,000 116 474 -64
2018-02-24 10:49:02 GMT 55.371838 -9.306252 35,000 116 474 -64
2018-02-24 10:48:57 GMT 55.377609 -9.326976 35,000 116 474 -64
2018-02-24 10:48:52 GMT 55.381474 -9.340709 35,000 116 474 0
2018-02-24 10:48:47 GMT 55.385834 -9.356232 35,000 116 474 0
2018-02-24 10:48:44 GMT 55.389679 -9.370045 34,975 116 474 0
2018-02-24 10:48:41 GMT 55.391968 -9.378366 34,975 116 473 0
2018-02-24 10:48:37 GMT 55.395767 -9.391729 34,975 116 473 0
2018-02-24 10:48:32 GMT 55.401031 -9.410679 34,975 116 473 0
2018-02-24 10:48:27 GMT 55.405590 -9.426852 34,975 116 473 64
2018-02-24 10:48:20 GMT 55.412064 -9.449939 34,975 116 473 0
2018-02-24 10:48:16 GMT 55.416275 -9.465126 34,975 116 473 0
2018-02-24 10:48:11 GMT 55.421082 -9.482332 34,975 116 473 -64
2018-02-24 10:48:05 GMT 55.426350 -9.501343 35,000 116 473 -64
2018-02-24 10:48:02 GMT 55.429611 -9.512995 35,000 116 473 -64
2018-02-24 10:47:59 GMT 55.432125 -9.521984 35,000 116 473 -64
2018-02-24 10:47:56 GMT 55.435822 -9.535487 35,000 116 473 -64
2018-02-24 10:47:49 GMT 55.441898 -9.557190 35,000 116 472 0
2018-02-24 10:47:44 GMT 55.446880 -9.575014 35,000 115 471 64
2018-02-24 10:47:39 GMT 55.451340 -9.591231 34,975 115 471 64
2018-02-24 10:47:33 GMT 55.456936 -9.611492 35,000 115 471 0
2018-02-24 10:47:30 GMT 55.460381 -9.623938 34,975 115 470 0
2018-02-24 10:47:23 GMT 55.466248 -9.645224 35,000 115 470 0
2018-02-24 10:47:20 GMT 55.470520 -9.660645 34,975 115 470 64
2018-02-24 10:47:09 GMT 55.480350 -9.696035 35,000 115 470 -64
2018-02-24 10:47:02 GMT 55.486679 -9.718989 34,975 115 470 -64
2018-02-24 10:46:59 GMT 55.488968 -9.727228 35,000 115 470 -64
2018-02-24 10:46:53 GMT 55.494873 -9.748535 35,000 115 470 -64
2018-02-24 10:46:50 GMT 55.499298 -9.764700 34,975 115 469 0
2018-02-24 10:46:43 GMT 55.504417 -9.783239 34,975 115 469 0
2018-02-24 10:46:38 GMT 55.509613 -9.802052 34,975 115 469 0
2018-02-24 10:46:32 GMT 55.514557 -9.819863 35,000 115 468 0
2018-02-24 10:46:28 GMT 55.518570 -9.834566 34,975 115 467 0
2018-02-24 10:46:23 GMT 55.523876 -9.853792 35,000 115 467 -64
2018-02-24 10:46:18 GMT 55.528839 -9.871882 35,000 115 467 -64
2018-02-24 10:46:12 GMT 55.533466 -9.888639 35,000 115 467 -64
2018-02-24 10:46:07 GMT 55.538223 -9.906089 35,000 115 466 -64
2018-02-24 10:46:03 GMT 55.543259 -9.924566 35,000 115 466 0
2018-02-24 10:45:57 GMT 55.547665 -9.940653 35,000 115 466 64
2018-02-24 10:45:51 GMT 55.552963 -9.960105 35,000 115 464 0
2018-02-24 10:45:48 GMT 55.556931 -9.974728 35,000 115 464 64
2018-02-24 10:45:41 GMT 55.562328 -9.994555 34,975 115 464 64
2018-02-24 10:45:35 GMT 55.568241 -10.016441 34,975 115 465 64
2018-02-24 10:45:32 GMT 55.571274 -10.027688 34,975 115 466 64
2018-02-24 10:45:26 GMT 55.576389 -10.046482 34,975 115 466 64
2018-02-24 10:45:22 GMT 55.581253 -10.064642 34,975 115 467 64
2018-02-24 10:45:16 GMT 55.585510 -10.080455 34,975 115 467 -64
2018-02-24 10:45:10 GMT 55.591141 -10.101096 34,975 115 468 -64
2018-02-24 10:45:05 GMT 55.595570 -10.117292 34,975 115 469 -64
2018-02-24 10:45:00 GMT 55.600937 -10.136968 35,000 115 470 -64
2018-02-24 10:44:55 GMT 55.605286 -10.152865 34,975 115 471 -64
2018-02-24 10:44:49 GMT 55.611816 -10.176773 35,000 115 472 -64
2018-02-24 10:44:45 GMT 55.614841 -10.187845 35,000 115 473 -64
2018-02-24 10:44:40 GMT 55.619728 -10.205956 35,000 115 473 -64
2018-02-24 10:44:33 GMT 55.625782 -10.228271 35,000 115 473 64
2018-02-24 10:44:30 GMT 55.629639 -10.242504 35,000 115 473 64
2018-02-24 10:44:24 GMT 55.634441 -10.260286 34,975 115 473 64
2018-02-24 10:44:20 GMT 55.639160 -10.278126 35,000 115 473 -64
2018-02-24 10:44:15 GMT 55.644012 -10.296270 34,975 114 472 0
2018-02-24 10:44:08 GMT 55.649570 -10.317707 35,000 114 473 0
2018-02-24 10:44:03 GMT 55.654037 -10.334889 35,000 114 474 -64
2018-02-24 10:43:59 GMT 55.658066 -10.350370 35,000 114 473 0
2018-02-24 10:43:53 GMT 55.662884 -10.368948 34,975 114 473 -64
2018-02-24 10:43:49 GMT 55.667358 -10.386158 35,000 114 473 -64
2018-02-24 10:43:44 GMT 55.672440 -10.405884 35,000 114 473 -64
2018-02-24 10:43:32 GMT 55.682098 -10.443171 35,000 114 473 0
2018-02-24 10:43:27 GMT 55.686630 -10.460732 35,000 114 473 -64
2018-02-24 10:43:22 GMT 55.691235 -10.478725 35,000 114 473 -64
2018-02-24 10:43:17 GMT 55.695564 -10.495548 35,000 114 473 -64
2018-02-24 10:43:13 GMT 55.700077 -10.513144 35,000 114 472 0
2018-02-24 10:43:08 GMT 55.704548 -10.530739 35,000 114 472 64
2018-02-24 10:43:01 GMT 55.710571 -10.554282 34,975 114 472 64
2018-02-24 10:42:57 GMT 55.714188 -10.568265 35,000 114 471 64
2018-02-24 10:42:51 GMT 55.718746 -10.586185 35,000 114 470 0
2018-02-24 10:42:46 GMT 55.723480 -10.604803 35,000 114 470 0
2018-02-24 10:42:42 GMT 55.728149 -10.623030 34,975 114 470 0
2018-02-24 10:42:30 GMT 55.737740 -10.660601 34,975 114 470 0
2018-02-24 10:42:25 GMT 55.742798 -10.680542 34,975 114 470 0
2018-02-24 10:42:20 GMT 55.746819 -10.696392 35,000 114 470 -64
2018-02-24 10:42:11 GMT 55.755756 -10.731497 35,000 114 470 -64
2018-02-24 10:41:59 GMT 55.765530 -10.770121 34,975 114 470 0
2018-02-24 10:41:55 GMT 55.769897 -10.787326 35,000 114 470 0
2018-02-24 10:41:49 GMT 55.774338 -10.804887 34,975 114 470 0
2018-02-24 10:41:44 GMT 55.778660 -10.822048 35,000 114 470 0
2018-02-24 10:41:40 GMT 55.783722 -10.842008 34,975 114 469 0
2018-02-24 10:41:28 GMT 55.793369 -10.880241 34,975 114 469 0
2018-02-24 10:41:18 GMT 55.801575 -10.912919 35,000 114 469 0
2018-02-24 10:41:09 GMT 55.810871 -10.949678 35,000 114 469 0
2018-02-24 10:40:57 GMT 55.820602 -10.988302 35,000 114 468 0
2018-02-24 10:40:48 GMT 55.829315 -11.023032 35,000 113 468 0
2018-02-24 10:40:40 GMT 55.835815 -11.048917 35,000 113 467 0
2018-02-24 10:40:37 GMT 55.838524 -11.059799 34,975 113 467 0
2018-02-24 10:40:29 GMT 55.844925 -11.085372 35,000 113 467 0
2018-02-24 10:40:26 GMT 55.847717 -11.096524 34,975 113 467 0
2018-02-24 10:40:19 GMT 55.853794 -11.120653 34,975 114 466 0
2018-02-24 10:40:15 GMT 55.857010 -11.133645 34,975 113 466 0
2018-02-24 10:40:09 GMT 55.862595 -11.155950 35,000 113 466 0
2018-02-24 10:40:05 GMT 55.865990 -11.169577 35,000 113 466 64
2018-02-24 10:39:59 GMT 55.871578 -11.191978 34,975 113 464 0
2018-02-24 10:39:56 GMT 55.874451 -11.203475 35,000 113 465 0
2018-02-24 10:39:48 GMT 55.881042 -11.230025 34,975 113 464 0
2018-02-24 10:39:44 GMT 55.883972 -11.241843 34,975 113 464 0
2018-02-24 10:39:38 GMT 55.889511 -11.264149 35,000 113 464 -64
2018-02-24 10:39:34 GMT 55.892899 -11.277809 35,000 113 464 -64
2018-02-24 10:39:28 GMT 55.898346 -11.299771 35,000 113 464 0
2018-02-24 10:39:24 GMT 55.901745 -11.313343 35,000 113 464 -64
2018-02-24 10:39:17 GMT 55.907684 -11.337474 35,000 113 464 0
2018-02-24 10:39:13 GMT 55.910797 -11.349959 35,000 113 464 0
2018-02-24 10:39:08 GMT 55.915894 -11.370592 35,000 113 464 0
2018-02-24 10:39:03 GMT 55.919952 -11.386913 35,000 113 463 0
2018-02-24 10:38:57 GMT 55.924576 -11.405806 35,000 113 462 0
2018-02-24 10:38:53 GMT 55.927906 -11.419344 35,000 113 462 0
2018-02-24 10:38:44 GMT 55.937122 -11.456938 35,000 113 461 0
2018-02-24 10:38:37 GMT 55.942104 -11.477108 34,975 113 461 64
2018-02-24 10:38:32 GMT 55.946014 -11.493158 35,000 113 461 64
2018-02-24 10:38:26 GMT 55.951035 -11.513672 34,975 113 461 0
2018-02-24 10:38:22 GMT 55.954926 -11.529735 35,000 113 462 0
2018-02-24 10:38:16 GMT 55.960052 -11.550626 34,975 113 462 0
2018-02-24 10:38:13 GMT 55.963257 -11.563859 34,975 113 462 0
2018-02-24 10:38:02 GMT 55.972317 -11.601219 35,000 113 463 -64
2018-02-24 10:37:51 GMT 55.980743 -11.635770 35,000 113 462 -64
2018-02-24 10:37:41 GMT 55.990219 -11.674139 34,975 113 463 64
2018-02-24 10:37:35 GMT 55.994942 -11.694174 35,000 111 465 0
2018-02-24 10:37:30 GMT 55.998322 -11.710344 35,000 108 467 0
2018-02-24 10:37:20 GMT 56.004730 -11.746299 35,000 105 469 0
2018-02-24 10:37:09 GMT 56.010315 -11.787831 34,975 100 473 64
2018-02-24 10:36:59 GMT 56.013885 -11.828031 34,975 96 478 64
2018-02-24 10:36:49 GMT 56.015797 -11.867723 34,975 92 481 0
2018-02-24 10:36:38 GMT 56.016167 -11.910725 34,975 90 485 0
2018-02-24 10:36:28 GMT 56.016174 -11.952709 34,975 90 486 64
2018-02-24 10:36:18 GMT 56.016216 -11.989946 35,000 90 487 -64
2018-02-24 10:36:13 GMT 56.016216 -12.012348 35,000 90 487 -64
2018-02-24 10:36:07 GMT 56.016174 -12.036022 35,000 90 487 0
2018-02-24 10:35:57 GMT 56.016167 -12.073288 34,975 89 487 0
2018-02-24 10:35:47 GMT 56.016121 -12.116547 35,000 89 486 -64
2018-02-24 10:35:36 GMT 56.016037 -12.160117 34,975 89 486 0
2018-02-24 10:35:26 GMT 56.015984 -12.200575 34,975 89 486 64
2018-02-24 10:35:02 GMT 56.015808 -12.297779 35,000 89 486 0
2018-02-24 10:34:55 GMT 56.015701 -12.324600 35,000 89 486 64
2018-02-24 10:34:45 GMT 56.015564 -12.367773 34,975 89 486 0
2018-02-24 10:34:41 GMT 56.015564 -12.378159 35,000 89 486 64
2018-02-24 10:34:30 GMT 56.015350 -12.423373 35,000 89 486 0
2018-02-24 10:33:57 GMT 56.014801 -12.555209 34,975 89 485 0
2018-02-24 10:33:54 GMT 56.014725 -12.570848 34,975 89 485 0
2018-02-24 10:33:29 GMT 56.014343 -12.666404 35,000 89 486 -64
2018-02-24 10:30:49 GMT 56.009418 -13.308220 34,975 88 487 64
We lost coverage of the aircraft here for a total of 191 minutes
2018-02-24 07:19:25 GMT 52.818356 -61.989651 34,975 82 586 64
2018-02-24 07:19:13 GMT 52.815628 -62.025528 34,975 82 586 -64
2018-02-24 07:19:03 GMT 52.810627 -62.090645 35,000 82 585 -64
2018-02-24 07:18:47 GMT 52.805367 -62.157974 34,975 82 585 64
2018-02-24 07:18:32 GMT 52.801598 -62.206631 34,975 82 585 0
2018-02-24 07:18:21 GMT 52.798012 -62.252693 35,000 82 585 -64
2018-02-24 07:18:11 GMT 52.794296 -62.300110 35,000 82 586 -64
2018-02-24 07:17:59 GMT 52.790451 -62.347870 35,000 82 585 0
2018-02-24 07:17:50 GMT 52.786835 -62.393875 34,975 82 585 0
2018-02-24 07:17:38 GMT 52.783035 -62.441635 34,975 82 586 -64
2018-02-24 07:17:27 GMT 52.779099 -62.490234 35,000 82 586 -64
2018-02-24 07:17:18 GMT 52.775528 -62.534409 35,000 82 585 -64
2018-02-24 07:17:06 GMT 52.771755 -62.580791 35,000 82 585 -64
2018-02-24 07:16:56 GMT 52.767838 -62.628937 35,000 82 585 -64
2018-02-24 07:16:45 GMT 52.764309 -62.671745 35,000 82 585 0
2018-02-24 07:16:34 GMT 52.760101 -62.722473 35,000 82 585 0
2018-02-24 07:16:25 GMT 52.756210 -62.769318 34,975 82 585 0
2018-02-24 07:16:14 GMT 52.752640 -62.812576 34,975 82 585 -64
2018-02-24 07:16:04 GMT 52.748760 -62.858906 35,000 82 585 -64
2018-02-24 07:15:53 GMT 52.744675 -62.906952 35,000 81 584 0
2018-02-24 07:15:43 GMT 52.740692 -62.953644 34,975 82 584 64
2018-02-24 07:15:31 GMT 52.736748 -62.999924 34,975 82 585 -64
2018-02-24 07:15:21 GMT 52.732910 -63.045273 35,000 81 585 -128
2018-02-24 07:15:10 GMT 52.726646 -63.117161 35,000 81 585 -64
2018-02-24 07:14:55 GMT 52.720921 -63.183159 34,975 81 584 0
2018-02-24 07:14:40 GMT 52.716934 -63.229370 34,975 81 584 0
2018-02-24 07:14:28 GMT 52.712677 -63.277817 34,975 81 585 -64
2018-02-24 07:14:18 GMT 52.708679 -63.324177 34,975 81 585 -64
2018-02-24 07:14:08 GMT 52.704575 -63.370438 34,975 81 586 -64
2018-02-24 07:13:57 GMT 52.700394 -63.417561 35,000 81 585 -64
2018-02-24 07:13:47 GMT 52.696110 -63.465115 34,975 81 585 -64
2018-02-24 07:13:36 GMT 52.691967 -63.511726 34,975 81 585 -64
2018-02-24 07:13:25 GMT 52.687824 -63.558342 34,975 81 586 -64
2018-02-24 07:13:15 GMT 52.683449 -63.606758 35,000 81 585 -64
2018-02-24 07:13:03 GMT 52.679302 -63.652508 35,000 81 584 -64
2018-02-24 07:12:53 GMT 52.674881 -63.700771 35,000 81 584 -64
2018-02-24 07:12:42 GMT 52.670883 -63.744202 35,000 81 584 0
2018-02-24 07:12:32 GMT 52.666828 -63.788506 35,000 81 584 0
2018-02-24 07:12:22 GMT 52.662403 -63.835823 35,000 81 584 0
2018-02-24 07:12:11 GMT 52.658249 -63.881073 35,000 81 585 64
2018-02-24 07:12:01 GMT 52.653625 -63.930359 34,975 81 586 64
2018-02-24 07:11:40 GMT 52.642960 -64.043884 34,975 81 586 -64
2018-02-24 07:11:24 GMT 52.638565 -64.090424 35,000 81 585 -64
2018-02-24 07:11:13 GMT 52.634033 -64.137878 35,000 81 585 -64
2018-02-24 07:11:03 GMT 52.629776 -64.182587 35,000 81 585 -64
2018-02-24 07:10:51 GMT 52.625061 -64.231720 35,000 81 585 -64
2018-02-24 07:10:42 GMT 52.620850 -64.275513 35,000 80 585 -64
2018-02-24 07:10:30 GMT 52.614178 -64.344337 35,000 80 585 0
2018-02-24 07:10:16 GMT 52.609497 -64.392090 34,975 80 585 64
2018-02-24 07:10:04 GMT 52.605099 -64.437248 34,975 80 586 -64
2018-02-24 07:09:54 GMT 52.598629 -64.503006 35,000 80 586 -64
2018-02-24 07:09:38 GMT 52.593742 -64.552132 34,975 80 586 0
2018-02-24 07:09:28 GMT 52.589218 -64.598160 34,975 80 586 0
2018-02-24 07:09:17 GMT 52.584320 -64.647293 34,975 80 586 -64
2018-02-24 07:09:07 GMT 52.579727 -64.693382 35,000 80 586 -64
2018-02-24 07:08:56 GMT 52.574844 -64.742050 35,000 80 585 -64
2018-02-24 07:08:45 GMT 52.570312 -64.786682 35,000 80 585 -64
2018-02-24 07:08:35 GMT 52.565598 -64.833145 35,000 80 586 -64
2018-02-24 07:08:23 GMT 52.560829 -64.880074 35,000 80 586 0
2018-02-24 07:08:13 GMT 52.555847 -64.929123 34,975 80 587 64
2018-02-24 07:08:03 GMT 52.551376 -64.972984 34,975 80 588 -64
2018-02-24 07:07:52 GMT 52.546692 -65.018234 34,975 80 588 -64
2018-02-24 07:07:42 GMT 52.541740 -65.066055 35,000 80 588 -64
2018-02-24 07:07:31 GMT 52.534805 -65.132759 35,000 80 588 -64
2018-02-24 07:07:16 GMT 52.529709 -65.181503 35,000 80 587 -64
2018-02-24 07:07:04 GMT 52.524937 -65.227478 34,975 80 587 0
2018-02-24 07:06:54 GMT 52.519913 -65.275269 35,000 80 587 -64
2018-02-24 07:06:43 GMT 52.515255 -65.319603 35,000 80 588 0
2018-02-24 07:06:32 GMT 52.509613 -65.372696 34,975 80 589 0
2018-02-24 07:06:22 GMT 52.504852 -65.417480 34,975 80 589 -64
2018-02-24 07:06:10 GMT 52.499863 -65.464096 35,000 80 589 -64
2018-02-24 07:06:01 GMT 52.494965 -65.509796 35,000 80 589 -64
2018-02-24 07:05:49 GMT 52.489746 -65.558167 34,975 79 590 0
2018-02-24 07:05:38 GMT 52.484856 -65.603287 34,975 79 589 -64
2018-02-24 07:05:29 GMT 52.479858 -65.649338 35,000 79 589 -64
2018-02-24 07:05:18 GMT 52.475033 -65.693611 34,975 79 589 -64
2018-02-24 07:05:08 GMT 52.469631 -65.742661 35,000 79 588 -64
2018-02-24 07:04:56 GMT 52.464466 -65.789978 35,000 79 588 -64
2018-02-24 07:04:47 GMT 52.459530 -65.834633 35,000 79 588 -64
2018-02-24 07:04:35 GMT 52.454636 -65.878830 35,000 79 589 0
2018-02-24 07:04:25 GMT 52.449280 -65.926971 35,000 79 589 -64
2018-02-24 07:04:15 GMT 52.444077 -65.973839 35,000 79 589 -64
2018-02-24 07:04:04 GMT 52.439049 -66.018570 35,000 79 589 -64
2018-02-24 07:03:53 GMT 52.433556 -66.067619 35,000 79 589 0
2018-02-24 07:03:31 GMT 52.420101 -66.186897 34,975 79 591 -64
2018-02-24 07:03:16 GMT 52.415131 -66.230392 34,975 79 591 -64
2018-02-24 07:03:04 GMT 52.409409 -66.280518 35,000 79 592 -64
2018-02-24 07:02:53 GMT 52.404190 -66.326141 35,000 79 592 -64
2018-02-24 07:02:44 GMT 52.398926 -66.371765 35,000 79 591 -64
2018-02-24 07:02:33 GMT 52.393566 -66.417770 34,975 79 591 -64
2018-02-24 07:02:23 GMT 52.387653 -66.468620 34,975 79 591 -64
2018-02-24 07:02:11 GMT 52.382256 -66.515076 35,000 79 590 -64
2018-02-24 07:02:01 GMT 52.376900 -66.560593 35,000 79 590 0
2018-02-24 07:01:50 GMT 52.371414 -66.607437 34,975 79 590 64
2018-02-24 07:01:38 GMT 52.365097 -66.660767 34,975 79 590 0
2018-02-24 07:01:28 GMT 52.360245 -66.701965 34,975 78 591 -64
2018-02-24 07:01:17 GMT 52.354935 -66.746597 34,975 78 591 -64
2018-02-24 07:01:08 GMT 52.348892 -66.797485 34,975 79 592 -64
2018-02-24 07:00:56 GMT 52.342987 -66.847458 35,000 79 592 -64
2018-02-24 07:00:45 GMT 52.337193 -66.896065 35,000 78 593 -128
2018-02-24 07:00:34 GMT 52.331955 -66.939468 35,000 78 593 -64
2018-02-24 07:00:24 GMT 52.326233 -66.986847 35,000 78 593 64
2018-02-24 07:00:13 GMT 52.320618 -67.032845 34,975 78 594 64
2018-02-24 07:00:02 GMT 52.314987 -67.079384 34,975 78 594 -64
2018-02-24 06:59:52 GMT 52.309353 -67.125992 34,975 78 595 -64
2018-02-24 06:59:41 GMT 52.303711 -67.172089 34,975 78 595 0
2018-02-24 06:59:31 GMT 52.297947 -67.219139 34,975 78 595 -64
We lost coverage of the aircraft here for a total of 88 minutes
2018-02-24 05:31:32 GMT 47.045609 -88.741447 35,000 58 607 0
2018-02-24 05:31:29 GMT 47.041035 -88.752274 35,000 58 607 0
2018-02-24 05:30:53 GMT 46.984360 -88.885712 34,975 58 606 -64
2018-02-24 05:30:28 GMT 46.949795 -88.966721 35,000 58 606 -64
2018-02-24 05:30:22 GMT 46.939545 -88.990631 35,000 58 606 -64
2018-02-24 05:29:37 GMT 46.873306 -89.145126 34,975 57 605 -64
2018-02-24 05:29:17 GMT 46.844585 -89.211868 35,000 57 606 -64
2018-02-24 05:29:09 GMT 46.831783 -89.241531 34,975 57 606 -64
2018-02-24 05:28:58 GMT 46.816452 -89.277115 35,000 57 606 -64
2018-02-24 05:28:52 GMT 46.805420 -89.302635 35,000 57 606 -64
2018-02-24 05:28:47 GMT 46.800453 -89.314041 35,000 57 606 -64
2018-02-24 05:28:40 GMT 46.789261 -89.339882 35,000 57 606 -64
2018-02-24 05:28:36 GMT 46.783585 -89.353012 34,975 57 606 -64
2018-02-24 05:28:27 GMT 46.770008 -89.384354 34,975 57 606 -64
2018-02-24 05:28:15 GMT 46.752041 -89.425690 35,000 57 605 0
2018-02-24 05:28:05 GMT 46.737980 -89.458099 35,000 57 605 0
2018-02-24 05:27:59 GMT 46.726902 -89.483574 34,975 57 606 0
2018-02-24 05:27:55 GMT 46.720898 -89.497307 34,975 57 606 0
2018-02-24 05:27:45 GMT 46.707443 -89.528343 34,975 57 606 0
2018-02-24 05:27:33 GMT 46.689880 -89.568588 35,000 57 606 -64
2018-02-24 05:27:24 GMT 46.675926 -89.600578 34,975 57 606 -64
2018-02-24 05:27:14 GMT 46.660892 -89.634911 34,975 57 606 -64
2018-02-24 05:27:04 GMT 46.644791 -89.671684 35,000 57 606 -64
2018-02-24 05:26:53 GMT 46.628860 -89.708061 35,000 57 606 -64
2018-02-24 05:26:42 GMT 46.613083 -89.744019 35,000 57 606 -64
2018-02-24 05:26:32 GMT 46.597672 -89.778969 35,000 57 606 -64
2018-02-24 05:26:21 GMT 46.581528 -89.815575 34,975 57 605 0
2018-02-24 05:26:11 GMT 46.566467 -89.849739 35,000 57 606 -64
2018-02-24 05:26:00 GMT 46.550236 -89.886223 35,000 57 605 -64
2018-02-24 05:25:51 GMT 46.534561 -89.922226 35,000 58 605 -64
2018-02-24 05:25:40 GMT 46.519684 -89.957527 35,000 59 605 -64
2018-02-24 05:25:29 GMT 46.505081 -89.993614 35,000 60 606 0
2018-02-24 05:25:19 GMT 46.490341 -90.031349 35,000 61 606 0
2018-02-24 05:25:08 GMT 46.476151 -90.069199 35,000 62 607 -64
2018-02-24 05:24:59 GMT 46.462784 -90.106651 35,000 63 607 -64
2018-02-24 05:24:47 GMT 46.447960 -90.149071 35,000 63 607 -64
2018-02-24 05:24:36 GMT 46.435299 -90.185257 35,000 63 607 -64
2018-02-24 05:24:27 GMT 46.421612 -90.224327 35,000 63 606 -64
2018-02-24 05:24:14 GMT 46.407028 -90.265884 35,000 63 606 0
2018-02-24 05:24:04 GMT 46.394073 -90.302727 34,975 63 606 0
2018-02-24 05:23:55 GMT 46.381348 -90.338768 34,975 63 605 -64
2018-02-24 05:23:43 GMT 46.367752 -90.377380 34,975 62 606 -64
2018-02-24 05:23:34 GMT 46.354660 -90.414467 35,000 63 605 -64
2018-02-24 05:23:25 GMT 46.344566 -90.442955 34,975 62 606 -64
2018-02-24 05:23:22 GMT 46.341156 -90.452652 35,000 62 606 -64
2018-02-24 05:23:12 GMT 46.326370 -90.494453 35,000 62 606 0
2018-02-24 05:23:02 GMT 46.313190 -90.531532 35,000 62 605 -64
2018-02-24 05:22:54 GMT 46.305046 -90.554535 34,975 62 606 -64
2018-02-24 05:22:50 GMT 46.300049 -90.568542 35,000 62 606 -64
2018-02-24 05:22:44 GMT 46.291218 -90.593330 35,000 62 606 -64
2018-02-24 05:22:41 GMT 46.287403 -90.604111 35,000 62 606 -64
2018-02-24 05:22:36 GMT 46.280514 -90.623474 34,975 62 605 0
2018-02-24 05:22:32 GMT 46.277298 -90.632454 35,000 62 605 -64
2018-02-24 05:22:29 GMT 46.272320 -90.646477 34,975 62 605 -64
2018-02-24 05:22:23 GMT 46.264801 -90.667618 35,000 62 605 -64
2018-02-24 05:22:12 GMT 46.251137 -90.706009 35,000 62 605 -64
2018-02-24 05:22:01 GMT 46.238056 -90.742607 35,000 62 605 -64
2018-02-24 05:21:57 GMT 46.232254 -90.758728 35,000 62 605 -64
2018-02-24 05:21:48 GMT 46.218506 -90.797058 35,000 62 605 0
2018-02-24 05:21:40 GMT 46.210033 -90.820679 35,000 62 605 0
2018-02-24 05:21:35 GMT 46.204910 -90.835030 35,000 62 605 0
2018-02-24 05:21:31 GMT 46.197697 -90.855080 35,000 62 605 0
2018-02-24 05:21:25 GMT 46.190643 -90.874756 35,000 62 605 -64
2018-02-24 05:21:22 GMT 46.187965 -90.882202 34,975 62 605 0
2018-02-24 05:21:19 GMT 46.184101 -90.892982 34,975 62 605 0
2018-02-24 05:21:16 GMT 46.178558 -90.908318 35,000 62 605 0
2018-02-24 05:21:10 GMT 46.170975 -90.929443 34,975 62 605 0
2018-02-24 05:21:04 GMT 46.163361 -90.950516 34,975 62 605 0
2018-02-24 05:20:59 GMT 46.157455 -90.966934 34,975 62 605 0
2018-02-24 05:20:55 GMT 46.151657 -90.983002 34,975 62 605 0
2018-02-24 05:20:51 GMT 46.147793 -90.993713 34,975 62 605 -64
2018-02-24 05:20:48 GMT 46.144161 -91.003738 34,975 62 605 -64
2018-02-24 05:20:41 GMT 46.134521 -91.030502 34,975 62 605 -64
2018-02-24 05:20:38 GMT 46.130241 -91.042328 35,000 62 605 -64
2018-02-24 05:20:32 GMT 46.123539 -91.060867 35,000 62 605 -64
2018-02-24 05:20:28 GMT 46.117298 -91.078033 34,975 62 605 -64
2018-02-24 05:20:22 GMT 46.108269 -91.102959 34,975 62 605 -64
2018-02-24 05:20:17 GMT 46.103615 -91.115799 34,975 62 605 -64
2018-02-24 05:20:12 GMT 46.096073 -91.136536 35,000 62 605 -64
2018-02-24 05:20:07 GMT 46.090256 -91.152557 34,975 62 605 -64
2018-02-24 05:20:02 GMT 46.082340 -91.174301 35,000 62 605 -64
2018-02-24 05:19:56 GMT 46.076660 -91.189957 35,000 62 605 -64
2018-02-24 05:19:49 GMT 46.067070 -91.216324 35,000 62 604 -64
2018-02-24 05:19:45 GMT 46.062695 -91.228409 34,975 62 604 -64
2018-02-24 05:19:39 GMT 46.054363 -91.251205 35,000 62 604 -64
2018-02-24 05:19:36 GMT 46.049057 -91.265770 35,000 62 604 -64
2018-02-24 05:19:30 GMT 46.040771 -91.288483 34,975 62 604 -64
2018-02-24 05:19:24 GMT 46.035324 -91.303421 35,000 62 604 -64
2018-02-24 05:19:15 GMT 46.022472 -91.338547 35,000 62 604 -64
2018-02-24 05:19:08 GMT 46.013165 -91.364021 35,000 62 603 -64
2018-02-24 05:19:04 GMT 46.008865 -91.375771 35,000 62 603 -64
2018-02-24 05:18:58 GMT 46.000031 -91.399818 34,975 62 603 -64
2018-02-24 05:18:53 GMT 45.994728 -91.414352 35,000 62 603 -64
2018-02-24 05:18:47 GMT 45.986023 -91.438072 35,000 62 603 -64
2018-02-24 05:18:43 GMT 45.981739 -91.449783 35,000 62 603 -64
2018-02-24 05:18:37 GMT 45.971970 -91.476387 35,000 62 603 -64
2018-02-24 05:18:32 GMT 45.968079 -91.486977 35,000 62 604 -64
2018-02-24 05:18:23 GMT 45.954369 -91.524147 34,975 62 604 0
2018-02-24 05:18:12 GMT 45.940933 -91.560593 35,000 62 604 -64
2018-02-24 05:18:05 GMT 45.930725 -91.588264 34,975 62 604 -64
2018-02-24 05:18:02 GMT 45.926834 -91.598846 35,000 62 604 -64
2018-02-24 05:17:51 GMT 45.913513 -91.634956 35,000 62 604 -64
2018-02-24 05:17:44 GMT 45.902882 -91.663605 35,000 62 604 -64
2018-02-24 05:17:40 GMT 45.899368 -91.673134 35,000 62 604 -64
2018-02-24 05:17:30 GMT 45.886402 -91.708099 35,000 62 604 -64
2018-02-24 05:17:20 GMT 45.873039 -91.744148 35,000 61 604 -64
2018-02-24 05:17:10 GMT 45.859268 -91.781189 35,000 61 604 -64
2018-02-24 05:16:59 GMT 45.845528 -91.818237 34,975 61 603 0
2018-02-24 05:16:49 GMT 45.831757 -91.855286 35,000 61 603 0
2018-02-24 05:16:38 GMT 45.817692 -91.892944 35,000 61 604 -64
2018-02-24 05:16:27 GMT 45.804283 -91.928925 35,000 61 604 -64
2018-02-24 05:16:16 GMT 45.789642 -91.967957 34,975 61 604 -64
2018-02-24 05:16:07 GMT 45.777142 -92.001366 35,000 61 604 0
2018-02-24 05:15:57 GMT 45.762897 -92.039337 35,000 61 604 -64
2018-02-24 05:15:45 GMT 45.749039 -92.076279 35,000 61 604 0
2018-02-24 05:15:36 GMT 45.735580 -92.112122 34,975 61 604 0
2018-02-24 05:15:25 GMT 45.722076 -92.147964 35,000 61 605 -64
2018-02-24 05:15:14 GMT 45.707596 -92.186211 35,000 61 605 -64
2018-02-24 05:15:04 GMT 45.694328 -92.221367 35,000 61 605 -64
2018-02-24 05:14:53 GMT 45.679943 -92.259270 35,000 61 605 -64
2018-02-24 05:14:44 GMT 45.666000 -92.296211 35,000 61 605 0
2018-02-24 05:14:32 GMT 45.652012 -92.333084 34,975 61 605 64
2018-02-24 05:14:25 GMT 45.640560 -92.363228 34,975 61 605 64
2018-02-24 05:14:22 GMT 45.637348 -92.371674 35,000 61 604 64
2018-02-24 05:14:19 GMT 45.633389 -92.382179 35,000 61 605 0
2018-02-24 05:14:12 GMT 45.624985 -92.404266 34,975 61 605 0
2018-02-24 05:14:02 GMT 45.610950 -92.441093 35,000 61 605 -64
2018-02-24 05:13:51 GMT 45.596924 -92.477882 35,000 61 606 -64
2018-02-24 05:13:41 GMT 45.583008 -92.514328 35,000 61 605 -64
2018-02-24 05:13:31 GMT 45.568962 -92.551094 35,000 61 605 0
2018-02-24 05:13:19 GMT 45.554077 -92.589958 35,000 61 605 64
2018-02-24 05:13:10 GMT 45.540798 -92.624527 34,975 61 605 0
2018-02-24 05:13:03 GMT 45.531952 -92.647636 34,975 61 606 -64
2018-02-24 05:12:58 GMT 45.525879 -92.663338 34,975 61 605 0
2018-02-24 05:12:49 GMT 45.512970 -92.696884 34,975 61 606 -64
2018-02-24 05:12:38 GMT 45.498573 -92.734253 35,000 61 606 -64
2018-02-24 05:12:27 GMT 45.484726 -92.770256 34,975 61 606 -64
2018-02-24 05:12:18 GMT 45.470947 -92.805893 35,000 61 607 -64
2018-02-24 05:12:07 GMT 45.456894 -92.842255 35,000 61 607 -64
2018-02-24 05:12:04 GMT 45.452164 -92.854439 35,000 61 607 0
2018-02-24 05:11:56 GMT 45.441593 -92.881699 34,975 61 607 0
2018-02-24 05:11:53 GMT 45.437439 -92.892479 34,975 61 606 0
2018-02-24 05:11:45 GMT 45.427414 -92.918312 35,000 61 606 0
2018-02-24 05:11:40 GMT 45.420914 -92.934982 35,000 61 606 0
2018-02-24 05:11:33 GMT 45.410339 -92.962189 34,975 61 606 0
2018-02-24 05:11:25 GMT 45.400040 -92.988670 34,975 61 606 0
2018-02-24 05:11:21 GMT 45.395321 -93.000809 34,975 61 606 0
2018-02-24 05:11:12 GMT 45.381729 -93.035645 34,975 61 606 -64
2018-02-24 05:11:02 GMT 45.367996 -93.070808 35,000 60 607 -64
2018-02-24 05:10:53 GMT 45.357243 -93.098282 35,000 60 607 -64
2018-02-24 05:10:50 GMT 45.353146 -93.108727 35,000 60 607 -64
2018-02-24 05:10:44 GMT 45.343090 -93.134453 35,000 61 606 -64
2018-02-24 05:10:41 GMT 45.339706 -93.143204 34,975 61 606 0
2018-02-24 05:10:33 GMT 45.329086 -93.170341 34,975 60 607 0
2018-02-24 05:10:29 GMT 45.324738 -93.181458 34,975 60 607 0
2018-02-24 05:10:23 GMT 45.314346 -93.207878 35,000 60 606 0
2018-02-24 05:10:19 GMT 45.310970 -93.216515 35,000 60 606 0
2018-02-24 05:10:10 GMT 45.297050 -93.251953 34,975 60 606 -64
2018-02-24 05:10:02 GMT 45.285877 -93.280426 34,975 60 607 -64
2018-02-24 05:09:58 GMT 45.282291 -93.289398 34,975 60 607 0
2018-02-24 05:09:49 GMT 45.268799 -93.323753 35,000 60 607 -64
2018-02-24 05:09:38 GMT 45.254173 -93.360878 34,975 60 607 -64
2018-02-24 05:09:28 GMT 45.240768 -93.394913 35,000 60 607 -64
2018-02-24 05:09:18 GMT 45.226135 -93.431984 35,000 60 607 -64
2018-02-24 05:09:06 GMT 45.211395 -93.469460 35,000 60 607 0
2018-02-24 05:08:57 GMT 45.197754 -93.504112 35,000 60 606 64
2018-02-24 05:08:47 GMT 45.183975 -93.539001 34,975 60 605 0
2018-02-24 05:08:35 GMT 45.169693 -93.575333 34,975 60 605 -64
2018-02-24 05:08:26 GMT 45.155392 -93.611618 35,000 60 605 -64
2018-02-24 05:08:16 GMT 45.141518 -93.646858 34,975 60 606 0
2018-02-24 05:08:04 GMT 45.127132 -93.683502 35,000 60 606 0
2018-02-24 05:07:55 GMT 45.113262 -93.718803 35,000 60 606 0
2018-02-24 05:07:44 GMT 45.099243 -93.754448 35,000 60 606 -64
2018-02-24 05:07:34 GMT 45.084679 -93.791420 35,000 60 606 -64
2018-02-24 05:07:24 GMT 45.070480 -93.827332 35,000 60 607 -64
2018-02-24 05:07:13 GMT 45.056625 -93.862221 34,975 60 607 0
2018-02-24 05:07:03 GMT 45.042252 -93.898056 34,975 60 606 0
2018-02-24 05:06:53 GMT 45.027885 -93.933304 34,975 59 606 -64
2018-02-24 05:06:41 GMT 45.012314 -93.970383 35,000 58 606 -64
2018-02-24 05:06:32 GMT 44.998047 -94.002975 35,000 58 606 0
2018-02-24 05:06:21 GMT 44.982357 -94.038544 35,000 58 605 0
2018-02-24 05:06:11 GMT 44.966900 -94.073318 34,975 57 605 -64
2018-02-24 05:06:01 GMT 44.951633 -94.107277 35,000 57 605 -64
2018-02-24 05:05:50 GMT 44.936142 -94.141518 35,000 57 606 -64
2018-02-24 05:05:39 GMT 44.918701 -94.180099 34,975 57 606 0
2018-02-24 05:05:28 GMT 44.904102 -94.212318 35,000 57 606 0
2018-02-24 05:05:19 GMT 44.889065 -94.245476 35,000 57 605 -64
2018-02-24 05:05:09 GMT 44.872772 -94.281319 35,000 57 605 -64
2018-02-24 05:04:57 GMT 44.857410 -94.315079 35,000 57 605 0
2018-02-24 05:04:48 GMT 44.840927 -94.351173 35,000 57 604 0
2018-02-24 05:04:37 GMT 44.826313 -94.383209 34,975 57 604 0
2018-02-24 05:04:27 GMT 44.810165 -94.418663 35,000 57 605 -64
2018-02-24 05:04:16 GMT 44.794144 -94.453712 34,975 57 605 -64
2018-02-24 05:04:05 GMT 44.777802 -94.489418 35,000 57 606 -64
2018-02-24 05:03:55 GMT 44.762489 -94.522820 34,975 57 606 -64
2018-02-24 05:03:44 GMT 44.747036 -94.556511 34,975 57 605 -64
2018-02-24 05:03:35 GMT 44.730515 -94.592545 35,000 57 605 -64
2018-02-24 05:03:20 GMT 44.710190 -94.636757 35,000 57 606 -64
2018-02-24 05:03:08 GMT 44.690735 -94.678871 35,000 57 605 -64
2018-02-24 05:03:03 GMT 44.683456 -94.694695 35,000 57 605 -64
2018-02-24 05:02:27 GMT 44.629944 -94.810440 34,975 57 605 0
We lost coverage of the aircraft here for a total of 5 minutes
2018-02-24 04:57:17 GMT 44.154190 -95.820068 35,000 56 603 -64
2018-02-24 04:57:09 GMT 44.141510 -95.846512 34,975 56 603 -64
2018-02-24 04:57:01 GMT 44.129425 -95.871620 35,000 56 603 0
2018-02-24 04:56:49 GMT 44.111481 -95.909050 35,000 56 603 0
2018-02-24 04:56:41 GMT 44.097725 -95.937653 35,000 56 603 -64
2018-02-24 04:56:36 GMT 44.090744 -95.952164 35,000 56 603 -64
2018-02-24 04:56:27 GMT 44.077290 -95.980156 34,975 56 603 0
2018-02-24 04:56:20 GMT 44.064857 -96.005859 34,975 56 604 -64
2018-02-24 04:56:14 GMT 44.056641 -96.022934 34,975 56 604 -64
2018-02-24 04:56:09 GMT 44.048584 -96.039673 35,000 56 604 -64
2018-02-24 04:56:06 GMT 44.043915 -96.049316 35,000 56 603 -64
2018-02-24 04:55:59 GMT 44.031574 -96.074654 35,000 56 603 -64
2018-02-24 04:55:51 GMT 44.020844 -96.096840 35,000 55 604 -64
2018-02-24 04:55:48 GMT 44.015854 -96.107124 35,000 55 604 -64
2018-02-24 04:55:45 GMT 44.011929 -96.115135 35,000 56 603 0
2018-02-24 04:55:34 GMT 43.995255 -96.149467 34,975 56 603 0
2018-02-24 04:55:23 GMT 43.977386 -96.186287 34,975 56 602 -64
2018-02-24 04:55:13 GMT 43.962616 -96.216728 35,000 56 602 -64
2018-02-24 04:55:06 GMT 43.949688 -96.243240 35,000 56 602 -64
2018-02-24 04:55:02 GMT 43.944427 -96.254097 35,000 56 602 -64
2018-02-24 04:54:52 GMT 43.929440 -96.284767 34,975 55 602 0
2018-02-24 04:54:41 GMT 43.912491 -96.319565 34,975 55 602 0
2018-02-24 04:54:31 GMT 43.897083 -96.351143 35,000 55 602 -64
2018-02-24 04:54:24 GMT 43.883514 -96.378906 34,975 55 602 -64
2018-02-24 04:54:21 GMT 43.881042 -96.384018 35,000 55 602 -64
2018-02-24 04:54:11 GMT 43.864838 -96.417168 34,975 55 602 -64
2018-02-24 04:54:03 GMT 43.850952 -96.445511 34,975 55 602 -64
2018-02-24 04:54:00 GMT 43.847672 -96.452171 35,000 55 602 -64
2018-02-24 04:53:49 GMT 43.831467 -96.485321 35,000 55 602 -64
2018-02-24 04:53:38 GMT 43.813934 -96.520958 35,000 55 601 0
2018-02-24 04:53:28 GMT 43.798767 -96.551773 35,000 55 601 -64
2018-02-24 04:53:18 GMT 43.782845 -96.584213 34,975 55 601 0
2018-02-24 04:53:08 GMT 43.766273 -96.617889 34,975 55 601 0
2018-02-24 04:52:57 GMT 43.749977 -96.650978 34,975 55 601 0
2018-02-24 04:52:46 GMT 43.732475 -96.686554 34,975 55 602 0
2018-02-24 04:52:36 GMT 43.716934 -96.718010 34,975 55 602 -64
2018-02-24 04:52:25 GMT 43.700073 -96.751945 35,000 55 603 -64
2018-02-24 04:52:15 GMT 43.683517 -96.785210 35,000 55 603 -64
2018-02-24 04:52:04 GMT 43.666809 -96.818871 35,000 55 603 -64
2018-02-24 04:51:54 GMT 43.650639 -96.851547 35,000 55 602 -64
2018-02-24 04:51:44 GMT 43.634251 -96.884567 35,000 55 603 0
2018-02-24 04:51:33 GMT 43.617260 -96.918770 34,975 55 602 0
2018-02-24 04:51:22 GMT 43.600708 -96.951920 35,000 55 602 -64
2018-02-24 04:51:12 GMT 43.584438 -96.984489 35,000 55 602 -64
2018-02-24 04:51:01 GMT 43.567448 -97.018631 35,000 55 602 0
2018-02-24 04:50:51 GMT 43.550690 -97.052109 35,000 55 603 0
2018-02-24 04:50:40 GMT 43.533463 -97.086502 34,975 55 603 0
2018-02-24 04:50:30 GMT 43.517944 -97.117416 34,975 55 603 -64
2018-02-24 04:50:18 GMT 43.499760 -97.153732 35,000 55 603 -64
2018-02-24 04:50:09 GMT 43.484539 -97.184013 35,000 55 603 -64
2018-02-24 04:49:58 GMT 43.467270 -97.218338 35,000 55 603 0
2018-02-24 04:49:47 GMT 43.450470 -97.251740 34,975 55 603 -64
2018-02-24 04:49:37 GMT 43.433796 -97.284782 34,975 55 603 0
2018-02-24 04:49:26 GMT 43.417419 -97.317146 35,000 55 603 0
2018-02-24 04:49:16 GMT 43.400574 -97.350494 35,000 55 603 0
2018-02-24 04:49:05 GMT 43.383568 -97.384056 35,000 55 603 -64
2018-02-24 04:48:53 GMT 43.364529 -97.421791 35,000 55 603 -64
2018-02-24 04:48:44 GMT 43.350357 -97.449692 35,000 55 603 -64
2018-02-24 04:48:34 GMT 43.333832 -97.482330 35,000 55 602 -64
2018-02-24 04:48:23 GMT 43.317261 -97.514900 35,000 55 602 -64
2018-02-24 04:48:13 GMT 43.300415 -97.548119 35,000 55 602 -64
2018-02-24 04:48:02 GMT 43.283386 -97.581612 35,000 55 601 -64
2018-02-24 04:47:52 GMT 43.266678 -97.614357 35,000 55 601 0
2018-02-24 04:47:40 GMT 43.248550 -97.649933 35,000 55 601 0
2018-02-24 04:47:31 GMT 43.233715 -97.678917 34,975 55 601 0
2018-02-24 04:47:19 GMT 43.215233 -97.715019 34,975 54 600 0
2018-02-24 04:47:10 GMT 43.200073 -97.744530 34,975 54 600 -64
2018-02-24 04:46:59 GMT 43.183346 -97.777206 35,000 54 600 -64
2018-02-24 04:46:49 GMT 43.166656 -97.809875 35,000 54 600 -64
2018-02-24 04:46:38 GMT 43.149399 -97.843407 35,000 54 600 -64
2018-02-24 04:46:28 GMT 43.132828 -97.875664 35,000 54 600 -64
2018-02-24 04:46:17 GMT 43.116032 -97.908195 34,975 54 600 0
2018-02-24 04:46:07 GMT 43.099457 -97.940369 35,000 54 600 -64
2018-02-24 04:46:02 GMT 43.090073 -97.958633 35,000 54 600 -64
2018-02-24 04:45:56 GMT 43.082748 -97.972878 35,000 54 600 -64
2018-02-24 04:45:46 GMT 43.065662 -98.005959 35,000 54 599 -64
2018-02-24 04:45:35 GMT 43.048553 -98.039055 34,975 54 599 0
2018-02-24 04:45:25 GMT 43.032257 -98.070541 35,000 54 599 -64
2018-02-24 04:45:14 GMT 43.015152 -98.103531 35,000 54 599 -64
2018-02-24 04:45:04 GMT 42.998337 -98.135887 34,975 54 599 0
2018-02-24 04:44:53 GMT 42.981869 -98.167618 34,975 54 599 0
2018-02-24 04:44:43 GMT 42.964924 -98.200249 35,000 54 599 -64
2018-02-24 04:44:32 GMT 42.948257 -98.232224 35,000 54 598 -64
2018-02-24 04:44:22 GMT 42.931412 -98.264526 35,000 54 598 -64
2018-02-24 04:44:10 GMT 42.913147 -98.299530 35,000 54 598 -64
2018-02-24 04:44:00 GMT 42.897125 -98.330193 34,975 54 598 -64
2018-02-24 04:43:50 GMT 42.880142 -98.362770 35,000 54 598 -64
2018-02-24 04:43:38 GMT 42.861511 -98.398277 35,000 54 598 -64
2018-02-24 04:43:29 GMT 42.846725 -98.426453 35,000 54 597 0
2018-02-24 04:43:18 GMT 42.829742 -98.458900 34,975 54 597 0
2018-02-24 04:43:08 GMT 42.812557 -98.491585 34,975 54 597 -64
2018-02-24 04:42:57 GMT 42.796005 -98.523079 35,000 54 598 -64
2018-02-24 04:42:45 GMT 42.776852 -98.559433 35,000 54 598 -64
2018-02-24 04:42:36 GMT 42.761723 -98.588112 35,000 54 598 0
2018-02-24 04:42:26 GMT 42.745010 -98.619858 35,000 54 597 -64
2018-02-24 04:42:15 GMT 42.728119 -98.651924 35,000 54 597 -64
2018-02-24 04:42:04 GMT 42.709763 -98.686691 35,000 54 597 -64
2018-02-24 04:41:54 GMT 42.694656 -98.715279 35,000 54 597 -64
2018-02-24 04:41:42 GMT 42.674332 -98.753670 35,000 54 598 0
2018-02-24 04:41:32 GMT 42.659027 -98.782547 34,975 54 598 0
2018-02-24 04:41:21 GMT 42.641617 -98.815376 35,000 54 597 -64
2018-02-24 04:41:10 GMT 42.623833 -98.848785 35,000 54 598 -64
2018-02-24 04:41:00 GMT 42.607353 -98.879761 35,000 54 598 0
2018-02-24 04:40:50 GMT 42.590874 -98.910744 34,975 54 598 0
2018-02-24 04:40:39 GMT 42.573372 -98.943512 34,975 54 598 -64
2018-02-24 04:40:29 GMT 42.556732 -98.974770 35,000 54 598 -64
2018-02-24 04:40:18 GMT 42.539566 -99.006912 35,000 54 598 -64
2018-02-24 04:40:08 GMT 42.522034 -99.039627 35,000 54 598 0
2018-02-24 04:39:57 GMT 42.504662 -99.072090 34,975 54 598 0
2018-02-24 04:39:46 GMT 42.487762 -99.103577 35,000 54 598 0
2018-02-24 04:39:36 GMT 42.471039 -99.134758 34,975 54 598 0
2018-02-24 04:39:24 GMT 42.451859 -99.170464 34,975 54 599 -64
2018-02-24 04:39:15 GMT 42.436417 -99.199196 35,000 54 597 -64
2018-02-24 04:39:03 GMT 42.418076 -99.233322 34,975 54 597 0
2018-02-24 04:38:54 GMT 42.402012 -99.263199 35,000 53 597 -64
2018-02-24 04:38:43 GMT 42.384834 -99.295135 35,000 53 597 -64
2018-02-24 04:38:32 GMT 42.367126 -99.327957 34,975 53 596 0
2018-02-24 04:38:21 GMT 42.349228 -99.360977 34,975 53 596 -64
2018-02-24 04:38:11 GMT 42.332462 -99.391907 35,000 53 596 -64
2018-02-24 04:38:00 GMT 42.315353 -99.423462 35,000 53 598 -64
2018-02-24 04:37:50 GMT 42.298691 -99.454170 35,000 53 598 -64
2018-02-24 04:37:38 GMT 42.279465 -99.489632 35,000 53 598 0
2018-02-24 04:37:28 GMT 42.262962 -99.520035 34,975 53 598 0
2018-02-24 04:37:18 GMT 42.246506 -99.550362 35,000 53 598 -64
2018-02-24 04:37:08 GMT 42.229523 -99.581573 35,000 53 597 -64
2018-02-24 04:36:56 GMT 42.211212 -99.615158 34,975 53 597 0
2018-02-24 04:36:45 GMT 42.193085 -99.648422 34,975 53 597 0
2018-02-24 04:36:36 GMT 42.176926 -99.678078 35,000 53 598 -64
2018-02-24 04:36:25 GMT 42.159943 -99.709229 35,000 53 598 -64
2018-02-24 04:36:15 GMT 42.142593 -99.740936 35,000 53 597 0
2018-02-24 04:36:04 GMT 42.125244 -99.772652 34,975 53 597 0
2018-02-24 04:35:53 GMT 42.107849 -99.804298 34,975 53 597 -64
2018-02-24 04:35:43 GMT 42.090626 -99.835640 34,975 53 597 -64
2018-02-24 04:35:32 GMT 42.072887 -99.867897 35,000 53 598 -64
2018-02-24 04:35:22 GMT 42.056084 -99.898300 34,975 53 598 -64
2018-02-24 04:35:11 GMT 42.038719 -99.929977 35,000 54 598 -64
2018-02-24 04:35:00 GMT 42.021606 -99.962349 35,000 55 597 0
2018-02-24 04:34:50 GMT 42.005310 -99.994064 34,975 55 597 0
2018-02-24 04:34:39 GMT 41.988674 -100.027641 34,975 56 596 -64
2018-02-24 04:34:28 GMT 41.972717 -100.060921 34,975 57 595 -64
2018-02-24 04:34:18 GMT 41.957886 -100.092812 35,000 58 594 -64
2018-02-24 04:34:07 GMT 41.942368 -100.126770 35,000 58 594 0
2018-02-24 04:33:57 GMT 41.927216 -100.160042 34,975 58 593 0
2018-02-24 04:33:46 GMT 41.912109 -100.193314 34,975 58 592 -64
2018-02-24 04:33:36 GMT 41.896828 -100.226868 35,000 58 592 -64
2018-02-24 04:33:25 GMT 41.881142 -100.261292 35,000 58 592 -64
2018-02-24 04:33:15 GMT 41.867249 -100.291565 34,975 58 592 0
2018-02-24 04:33:04 GMT 41.852276 -100.324402 35,000 58 592 -64
2018-02-24 04:32:54 GMT 41.837265 -100.357178 35,000 58 592 -64
2018-02-24 04:32:43 GMT 41.822018 -100.390511 35,000 58 591 -64
2018-02-24 04:32:32 GMT 41.806732 -100.423904 35,000 58 591 0
2018-02-24 04:32:22 GMT 41.792130 -100.455612 35,000 58 591 0
2018-02-24 04:32:11 GMT 41.776539 -100.489578 35,000 58 591 0
2018-02-24 04:32:01 GMT 41.761551 -100.522278 34,975 58 591 0
2018-02-24 04:31:49 GMT 41.744228 -100.559967 35,000 58 591 -64
We lost coverage of the aircraft here for a total of 5 minutes
2018-02-24 04:26:39 GMT 41.293186 -101.522537 35,000 57 593 0
2018-02-24 04:26:33 GMT 41.286026 -101.537659 34,975 57 593 0
2018-02-24 04:26:18 GMT 41.264099 -101.583740 35,000 57 592 -64
2018-02-24 04:26:15 GMT 41.257919 -101.596619 35,000 57 592 0
2018-02-24 04:26:04 GMT 41.243095 -101.627655 35,000 57 593 0
2018-02-24 04:25:54 GMT 41.227982 -101.659241 34,975 57 594 0
2018-02-24 04:25:44 GMT 41.212097 -101.692444 35,000 57 594 -64
2018-02-24 04:25:32 GMT 41.196636 -101.724724 35,000 57 594 0
2018-02-24 04:25:21 GMT 41.180111 -101.759056 34,975 57 593 64
2018-02-24 04:25:12 GMT 41.165222 -101.790100 34,975 57 594 0
2018-02-24 04:25:01 GMT 41.149151 -101.823540 34,975 57 594 0
2018-02-24 04:24:49 GMT 41.132908 -101.857307 35,000 57 595 -64
2018-02-24 04:24:40 GMT 41.117775 -101.888641 35,000 57 595 -64
2018-02-24 04:24:29 GMT 41.101913 -101.921448 35,000 57 595 -64
2018-02-24 04:24:17 GMT 41.085747 -101.954872 35,000 57 594 64
2018-02-24 04:24:08 GMT 41.069641 -101.988220 34,975 57 594 64
2018-02-24 04:23:56 GMT 41.054581 -102.019470 34,975 57 593 0
2018-02-24 04:23:46 GMT 41.038971 -102.051941 35,000 57 594 -64
2018-02-24 04:23:36 GMT 41.022949 -102.084961 35,000 57 595 -64
2018-02-24 04:23:25 GMT 41.008007 -102.115860 35,000 57 595 -64
2018-02-24 04:23:17 GMT 40.996262 -102.140015 35,000 57 594 -64
2018-02-24 04:23:14 GMT 40.991180 -102.150391 35,000 57 594 -64
2018-02-24 04:23:09 GMT 40.983612 -102.165985 35,000 57 594 -64
2018-02-24 04:23:04 GMT 40.975708 -102.182129 35,000 57 594 0
2018-02-24 04:23:01 GMT 40.972301 -102.189140 35,000 57 594 0
2018-02-24 04:22:51 GMT 40.956711 -102.221130 35,000 57 593 0
2018-02-24 04:22:43 GMT 40.944695 -102.245827 34,975 57 593 64
2018-02-24 04:22:40 GMT 40.941158 -102.253128 34,975 57 592 0
2018-02-24 04:22:32 GMT 40.928833 -102.278381 34,975 57 592 0
2018-02-24 04:22:29 GMT 40.924538 -102.287148 34,975 57 593 0
2018-02-24 04:22:21 GMT 40.913132 -102.310547 35,000 57 593 0
2018-02-24 04:22:18 GMT 40.909409 -102.318169 34,975 57 593 0
2018-02-24 04:22:09 GMT 40.894684 -102.348267 34,975 57 593 0
2018-02-24 04:21:58 GMT 40.879055 -102.380157 35,000 57 593 -64
2018-02-24 04:21:48 GMT 40.863419 -102.412048 35,000 57 593 -64
2018-02-24 04:21:37 GMT 40.846607 -102.446327 35,000 57 593 0
2018-02-24 04:21:27 GMT 40.832199 -102.475708 35,000 57 591 0
2018-02-24 04:21:17 GMT 40.816727 -102.507202 34,975 57 591 0
2018-02-24 04:21:11 GMT 40.807972 -102.525040 34,975 57 591 0
2018-02-24 04:21:06 GMT 40.800980 -102.539246 34,975 57 590 0
2018-02-24 04:20:55 GMT 40.783901 -102.573975 34,975 57 590 -64
2018-02-24 04:20:50 GMT 40.776031 -102.589966 35,000 57 590 -64
2018-02-24 04:20:45 GMT 40.770218 -102.601753 34,975 57 590 -64
2018-02-24 04:20:40 GMT 40.762344 -102.617737 35,000 56 590 -64
2018-02-24 04:20:35 GMT 40.754929 -102.632812 35,000 56 590 -64
2018-02-24 04:20:28 GMT 40.745823 -102.651131 35,000 56 590 -64
2018-02-24 04:20:25 GMT 40.740192 -102.662621 35,000 56 590 -64
2018-02-24 04:20:18 GMT 40.730927 -102.681221 35,000 56 590 -64
2018-02-24 04:20:14 GMT 40.723938 -102.695374 34,975 56 590 0
2018-02-24 04:20:08 GMT 40.714867 -102.713737 34,975 57 589 -64
2018-02-24 04:20:04 GMT 40.707870 -102.727844 34,975 56 589 -64
2018-02-24 04:19:58 GMT 40.698944 -102.745850 35,000 56 589 -64
2018-02-24 04:19:53 GMT 40.692287 -102.759369 35,000 56 589 -64
2018-02-24 04:19:46 GMT 40.683197 -102.777649 35,000 56 589 -64
2018-02-24 04:19:43 GMT 40.677113 -102.789963 35,000 56 588 -64
2018-02-24 04:19:36 GMT 40.665985 -102.812439 35,000 56 588 64
2018-02-24 04:19:31 GMT 40.660492 -102.823479 34,975 56 588 64
2018-02-24 04:19:24 GMT 40.650391 -102.843826 34,975 56 587 64
2018-02-24 04:19:21 GMT 40.644882 -102.854919 34,975 56 587 64
2018-02-24 04:19:15 GMT 40.636002 -102.872803 34,975 56 587 0
2018-02-24 04:19:10 GMT 40.629181 -102.886536 34,975 56 587 -64
2018-02-24 04:19:04 GMT 40.620411 -102.904129 34,975 56 586 -64
2018-02-24 04:18:59 GMT 40.612518 -102.919983 35,000 56 587 -64
2018-02-24 04:18:53 GMT 40.604507 -102.936096 35,000 56 588 -64
2018-02-24 04:18:50 GMT 40.599472 -102.946228 35,000 56 588 -64
2018-02-24 04:18:47 GMT 40.595306 -102.954590 34,975 56 588 -64
2018-02-24 04:18:44 GMT 40.589355 -102.966492 35,000 56 588 -64
2018-02-24 04:18:40 GMT 40.583263 -102.978722 34,975 56 588 -64
2018-02-24 04:18:37 GMT 40.580284 -102.984718 35,000 56 588 -64
2018-02-24 04:18:33 GMT 40.574047 -102.997200 35,000 56 587 -64
2018-02-24 04:18:27 GMT 40.563618 -103.018051 35,000 56 587 -64
2018-02-24 04:18:22 GMT 40.558411 -103.028503 35,000 56 587 -64
2018-02-24 04:18:18 GMT 40.550770 -103.043640 35,000 56 587 64
2018-02-24 04:18:15 GMT 40.547974 -103.049316 34,975 56 587 64
2018-02-24 04:18:12 GMT 40.542892 -103.059448 34,975 56 586 64
2018-02-24 04:18:08 GMT 40.536346 -103.072510 34,975 56 586 64
2018-02-24 04:18:04 GMT 40.531265 -103.082581 34,975 56 585 64
2018-02-24 04:18:01 GMT 40.526096 -103.093018 34,975 56 585 0
2018-02-24 04:17:57 GMT 40.520744 -103.103691 34,975 56 585 -64
2018-02-24 04:17:51 GMT 40.511524 -103.122047 35,000 56 584 -64
2018-02-24 04:17:46 GMT 40.504402 -103.136276 35,000 56 585 -64
2018-02-24 04:17:40 GMT 40.495605 -103.153809 35,000 56 585 0
2018-02-24 04:17:35 GMT 40.488464 -103.168030 34,975 56 585 64
2018-02-24 04:17:32 GMT 40.482834 -103.179260 34,975 56 585 0
2018-02-24 04:17:28 GMT 40.478195 -103.188461 34,975 56 585 0
2018-02-24 04:17:24 GMT 40.469421 -103.205933 35,000 56 585 -64
2018-02-24 04:17:19 GMT 40.464230 -103.216301 35,000 56 584 -64
2018-02-24 04:17:15 GMT 40.458115 -103.228394 35,000 56 584 -64
2018-02-24 04:17:12 GMT 40.454407 -103.235779 35,000 56 584 -64
2018-02-24 04:17:09 GMT 40.448448 -103.247574 34,975 56 583 0
2018-02-24 04:17:05 GMT 40.442047 -103.260254 34,975 56 583 0
2018-02-24 04:16:59 GMT 40.433224 -103.277664 34,975 56 583 -64
2018-02-24 04:16:54 GMT 40.426380 -103.291206 35,000 56 583 -64
2018-02-24 04:16:48 GMT 40.416279 -103.311249 35,000 56 582 -64
2018-02-24 04:16:44 GMT 40.410187 -103.323303 35,000 56 582 0
2018-02-24 04:16:37 GMT 40.399986 -103.343582 35,000 56 582 64
2018-02-24 04:16:33 GMT 40.395081 -103.353271 34,975 56 581 64
2018-02-24 04:16:26 GMT 40.383499 -103.376160 35,000 56 581 64
2018-02-24 04:16:22 GMT 40.379459 -103.384094 34,975 56 580 64
2018-02-24 04:16:15 GMT 40.367588 -103.407501 34,975 56 580 0
2018-02-24 04:16:11 GMT 40.362839 -103.416862 34,975 56 580 -64
2018-02-24 04:16:07 GMT 40.355156 -103.432098 35,000 56 580 -64
2018-02-24 04:16:04 GMT 40.352455 -103.437340 35,000 56 580 -64
2018-02-24 04:15:59 GMT 40.345184 -103.451660 35,000 56 580 -64
2018-02-24 04:15:53 GMT 40.336163 -103.469551 35,000 56 580 -64
2018-02-24 04:15:50 GMT 40.331818 -103.478027 35,000 56 580 -64
2018-02-24 04:15:46 GMT 40.324127 -103.493225 35,000 56 580 0
2018-02-24 04:15:43 GMT 40.320236 -103.500854 35,000 56 581 0
2018-02-24 04:15:39 GMT 40.314926 -103.511353 35,000 56 581 0
2018-02-24 04:15:32 GMT 40.304649 -103.531601 35,000 56 582 64
2018-02-24 04:15:29 GMT 40.300049 -103.540649 34,975 56 582 64
2018-02-24 04:15:24 GMT 40.291241 -103.557938 34,975 56 582 64
2018-02-24 04:15:19 GMT 40.284397 -103.571487 34,975 56 582 64
2018-02-24 04:15:12 GMT 40.275135 -103.589653 34,975 56 583 0
2018-02-24 04:15:08 GMT 40.269176 -103.601387 34,975 56 584 -64
2018-02-24 04:15:01 GMT 40.258530 -103.622253 35,000 56 584 -64
2018-02-24 04:14:58 GMT 40.253254 -103.632538 35,000 56 585 -64
2018-02-24 04:14:52 GMT 40.245155 -103.648392 34,975 56 585 -64
2018-02-24 04:14:49 GMT 40.238708 -103.661072 34,975 56 585 0
2018-02-24 04:14:46 GMT 40.235687 -103.666931 34,975 56 585 0
2018-02-24 04:14:42 GMT 40.229839 -103.678413 35,000 56 585 -64
2018-02-24 04:14:39 GMT 40.224438 -103.688965 35,000 56 585 -64
2018-02-24 04:14:36 GMT 40.221134 -103.695457 34,975 56 585 0
2018-02-24 04:14:30 GMT 40.212891 -103.711609 34,975 56 585 0
2018-02-24 04:14:27 GMT 40.206253 -103.724487 34,975 56 584 0
2018-02-24 04:14:24 GMT 40.203117 -103.730659 35,000 56 584 0
2018-02-24 04:14:20 GMT 40.197281 -103.742126 34,975 56 584 -64
2018-02-24 04:14:16 GMT 40.190224 -103.755882 34,975 56 583 0
2018-02-24 04:14:13 GMT 40.186916 -103.762314 34,975 56 583 0
2018-02-24 04:14:10 GMT 40.181992 -103.771973 34,975 56 583 -64
2018-02-24 04:14:05 GMT 40.173138 -103.789215 34,975 56 581 -64
2018-02-24 04:13:59 GMT 40.165691 -103.803757 35,000 56 581 -64
2018-02-24 04:13:56 GMT 40.161221 -103.812561 35,000 56 580 -64
2018-02-24 04:13:53 GMT 40.156425 -103.821861 35,000 56 580 -64
2018-02-24 04:13:49 GMT 40.151550 -103.831482 35,000 56 580 -64
2018-02-24 04:13:46 GMT 40.145599 -103.843079 35,000 56 579 -64
2018-02-24 04:13:43 GMT 40.141434 -103.851257 35,000 56 579 -64
2018-02-24 04:13:39 GMT 40.136948 -103.859924 35,000 56 579 -64
2018-02-24 04:13:36 GMT 40.130722 -103.872131 35,000 56 578 -64
2018-02-24 04:13:32 GMT 40.124958 -103.883476 35,000 56 578 0
2018-02-24 04:13:29 GMT 40.119736 -103.893616 35,000 56 577 64
2018-02-24 04:13:24 GMT 40.114426 -103.903992 35,000 56 578 0
2018-02-24 04:13:21 GMT 40.110107 -103.912437 35,000 56 577 64
2018-02-24 04:13:15 GMT 40.099548 -103.932922 35,000 56 578 64
2018-02-24 04:13:11 GMT 40.094326 -103.943085 34,975 56 578 64
2018-02-24 04:13:04 GMT 40.082687 -103.965683 34,975 56 579 64
2018-02-24 04:13:01 GMT 40.078354 -103.974060 34,975 56 579 0
2018-02-24 04:12:55 GMT 40.069839 -103.990585 35,000 56 581 -64
2018-02-24 04:12:52 GMT 40.064716 -104.000450 35,000 56 581 -64
2018-02-24 04:12:49 GMT 40.060959 -104.007690 35,000 56 584 64
2018-02-24 04:12:46 GMT 40.055965 -104.017303 35,000 55 582 -64
2018-02-24 04:12:41 GMT 40.049030 -104.030663 35,000 56 583 0
2018-02-24 04:12:38 GMT 40.044388 -104.039734 35,000 56 584 0
2018-02-24 04:12:35 GMT 40.039997 -104.048141 35,000 56 583 64
2018-02-24 04:12:32 GMT 40.035206 -104.057503 35,000 56 584 64
2018-02-24 04:12:28 GMT 40.029648 -104.068298 34,975 56 584 64
2018-02-24 04:12:25 GMT 40.024521 -104.078247 34,975 56 584 64
2018-02-24 04:12:21 GMT 40.018753 -104.089355 34,975 56 584 64
2018-02-24 04:12:18 GMT 40.013947 -104.098694 34,975 56 584 64
2018-02-24 04:12:15 GMT 40.010925 -104.104492 34,975 56 584 64
2018-02-24 04:12:11 GMT 40.003826 -104.118179 35,000 56 584 0
2018-02-24 04:12:08 GMT 39.999115 -104.127258 35,000 56 584 64
2018-02-24 04:12:04 GMT 39.992329 -104.140404 35,000 56 585 0
2018-02-24 04:11:59 GMT 39.985065 -104.154388 35,000 56 585 0
2018-02-24 04:11:55 GMT 39.980392 -104.163452 34,975 56 585 64
2018-02-24 04:11:50 GMT 39.970688 -104.182129 34,975 56 585 0
2018-02-24 04:11:47 GMT 39.966911 -104.189468 34,975 55 585 64
2018-02-24 04:11:43 GMT 39.960861 -104.201141 34,975 55 586 64
2018-02-24 04:11:38 GMT 39.953876 -104.214561 34,975 56 585 64
2018-02-24 04:11:35 GMT 39.950245 -104.221550 34,975 56 585 64
2018-02-24 04:11:32 GMT 39.944687 -104.232361 34,975 56 584 64
2018-02-24 04:11:29 GMT 39.939835 -104.241699 34,975 55 585 0
2018-02-24 04:11:26 GMT 39.934982 -104.250977 34,975 55 585 0
2018-02-24 04:11:22 GMT 39.928619 -104.263245 34,975 55 585 -64
2018-02-24 04:11:17 GMT 39.922256 -104.275482 34,975 55 585 -64
2018-02-24 04:11:14 GMT 39.918274 -104.283066 34,975 55 585 -64
2018-02-24 04:11:11 GMT 39.912827 -104.293510 34,975 55 585 -64
2018-02-24 04:11:07 GMT 39.907974 -104.302826 34,975 55 585 -64
2018-02-24 04:11:04 GMT 39.902672 -104.313049 35,000 55 585 -128
2018-02-24 04:11:00 GMT 39.895523 -104.326706 35,000 55 585 -64
2018-02-24 04:10:57 GMT 39.890846 -104.335754 35,000 55 585 -64
2018-02-24 04:10:54 GMT 39.886139 -104.344803 35,000 55 585 -64
2018-02-24 04:10:51 GMT 39.881767 -104.353210 34,975 55 585 0
2018-02-24 04:10:47 GMT 39.877029 -104.362236 34,975 55 585 0
2018-02-24 04:10:43 GMT 39.870224 -104.375366 34,975 55 584 0
2018-02-24 04:10:40 GMT 39.865494 -104.384384 34,975 55 584 -64
2018-02-24 04:10:37 GMT 39.860641 -104.393639 34,975 55 584 -64
2018-02-24 04:10:34 GMT 39.856583 -104.401489 35,000 55 584 -128
2018-02-24 04:10:31 GMT 39.853558 -104.407288 35,000 55 584 -128
2018-02-24 04:10:27 GMT 39.845364 -104.422974 35,000 55 584 -128
2018-02-24 04:10:24 GMT 39.841873 -104.429649 35,000 55 584 -128
2018-02-24 04:10:21 GMT 39.837616 -104.437828 35,000 55 584 -128
2018-02-24 04:10:18 GMT 39.831722 -104.449097 35,000 55 584 -64
2018-02-24 04:10:14 GMT 39.825806 -104.460396 35,000 55 583 -64
2018-02-24 04:10:11 GMT 39.822601 -104.466492 35,000 55 583 64
2018-02-24 04:10:07 GMT 39.814590 -104.481888 35,000 55 583 0
2018-02-24 04:10:04 GMT 39.811707 -104.487366 35,000 55 583 64
2018-02-24 04:10:01 GMT 39.805756 -104.498672 34,975 55 583 64
2018-02-24 04:09:58 GMT 39.800766 -104.508179 34,975 55 582 64
2018-02-24 04:09:55 GMT 39.796856 -104.515747 34,975 55 582 64
2018-02-24 04:09:52 GMT 39.793945 -104.521179 34,975 55 581 64
2018-02-24 04:09:49 GMT 39.789593 -104.529541 34,975 55 581 0
2018-02-24 04:09:46 GMT 39.785477 -104.537361 34,975 55 581 -64
2018-02-24 04:09:43 GMT 39.778839 -104.550018 35,000 55 581 -64
2018-02-24 04:09:39 GMT 39.773392 -104.560410 35,000 55 581 -64
2018-02-24 04:09:35 GMT 39.766708 -104.573067 35,000 55 581 -64
2018-02-24 04:09:32 GMT 39.762920 -104.580261 35,000 55 581 -64
2018-02-24 04:09:29 GMT 39.757599 -104.590324 35,000 55 581 -64
2018-02-24 04:09:26 GMT 39.753189 -104.598694 35,000 55 581 64
2018-02-24 04:09:23 GMT 39.749233 -104.606201 35,000 55 582 0
2018-02-24 04:09:20 GMT 39.743462 -104.617126 35,000 55 582 64
2018-02-24 04:09:16 GMT 39.737503 -104.628357 34,975 55 582 128
2018-02-24 04:09:13 GMT 39.732971 -104.637016 34,975 55 582 64
2018-02-24 04:09:09 GMT 39.728237 -104.645935 34,975 55 582 64
2018-02-24 04:09:04 GMT 39.720325 -104.660889 34,975 55 581 0
2018-02-24 04:09:01 GMT 39.715809 -104.669556 35,000 55 582 -64
2018-02-24 04:08:57 GMT 39.709259 -104.681915 35,000 55 581 -128
2018-02-24 04:08:54 GMT 39.705147 -104.689697 35,000 55 582 -128
2018-02-24 04:08:51 GMT 39.699097 -104.701172 35,000 55 582 64
2018-02-24 04:08:47 GMT 39.694382 -104.710098 35,000 55 582 -64
2018-02-24 04:08:44 GMT 39.689209 -104.719887 35,000 55 582 0
2018-02-24 04:08:40 GMT 39.683872 -104.729980 35,000 55 582 64
2018-02-24 04:08:36 GMT 39.677216 -104.742615 34,975 55 582 128
2018-02-24 04:08:33 GMT 39.673260 -104.750122 34,975 55 580 128
2018-02-24 04:08:30 GMT 39.668564 -104.759056 34,975 55 580 128
2018-02-24 04:08:27 GMT 39.665394 -104.765076 34,975 55 580 64
2018-02-24 04:08:23 GMT 39.656754 -104.781387 34,975 55 579 0
2018-02-24 04:08:20 GMT 39.652962 -104.788574 34,975 55 579 -64
2018-02-24 04:08:17 GMT 39.649475 -104.795120 35,000 55 579 -128
2018-02-24 04:08:14 GMT 39.644943 -104.803719 35,000 55 579 -128
2018-02-24 04:08:11 GMT 39.638901 -104.815186 35,000 55 579 -64
2018-02-24 04:08:07 GMT 39.634048 -104.824379 35,000 55 579 -64
2018-02-24 04:08:03 GMT 39.626816 -104.838112 35,000 55 579 -64
2018-02-24 04:08:00 GMT 39.622425 -104.846436 34,975 55 580 0
2018-02-24 04:07:56 GMT 39.617538 -104.855591 35,000 55 581 0
2018-02-24 04:07:52 GMT 39.609344 -104.871033 34,975 55 580 0
2018-02-24 04:07:48 GMT 39.604614 -104.879906 34,975 55 579 0
2018-02-24 04:07:45 GMT 39.600826 -104.887024 34,975 55 580 0
2018-02-24 04:07:40 GMT 39.592304 -104.903076 34,975 55 579 -64
2018-02-24 04:07:37 GMT 39.587463 -104.912231 34,975 55 579 -64
2018-02-24 04:07:34 GMT 39.584114 -104.918518 34,975 55 579 -64
2018-02-24 04:07:30 GMT 39.578201 -104.929642 34,975 55 579 -64
2018-02-24 04:07:27 GMT 39.572159 -104.941048 35,000 55 579 -128
2018-02-24 04:07:23 GMT 39.567581 -104.949646 35,000 55 579 -64
2018-02-24 04:07:18 GMT 39.558792 -104.966187 35,000 55 578 -128
2018-02-24 04:07:15 GMT 39.554260 -104.974724 35,000 55 578 -128
2018-02-24 04:07:12 GMT 39.550323 -104.982185 35,000 55 578 -64
2018-02-24 04:07:09 GMT 39.545010 -104.992126 35,000 55 578 -64
2018-02-24 04:07:06 GMT 39.540894 -104.999802 35,000 55 578 -64
2018-02-24 04:07:01 GMT 39.533890 -105.012878 35,000 55 578 0
2018-02-24 04:06:57 GMT 39.527847 -105.024284 35,000 55 578 0
2018-02-24 04:06:54 GMT 39.522850 -105.033630 35,000 55 578 0
2018-02-24 04:06:50 GMT 39.516193 -105.046143 34,975 55 577 64
2018-02-24 04:06:46 GMT 39.511024 -105.055786 34,975 55 576 64
2018-02-24 04:06:43 GMT 39.507248 -105.062912 34,975 55 576 64
2018-02-24 04:06:39 GMT 39.500885 -105.074799 34,975 55 576 64
2018-02-24 04:06:36 GMT 39.496223 -105.083618 34,975 55 576 0
2018-02-24 04:06:33 GMT 39.491547 -105.092407 34,975 55 576 -64
2018-02-24 04:06:29 GMT 39.484444 -105.105713 34,975 55 575 -64
2018-02-24 04:06:26 GMT 39.480812 -105.112488 35,000 55 575 -64
2018-02-24 04:06:23 GMT 39.475525 -105.122383 35,000 55 575 -128
2018-02-24 04:06:16 GMT 39.464310 -105.143402 35,000 55 576 -64
2018-02-24 04:06:12 GMT 39.459633 -105.152161 35,000 55 576 -64
2018-02-24 04:06:05 GMT 39.449345 -105.171448 35,000 55 577 64
2018-02-24 04:06:02 GMT 39.443897 -105.181641 34,975 55 577 64
2018-02-24 04:05:56 GMT 39.435379 -105.197510 34,975 55 576 0
2018-02-24 04:05:53 GMT 39.430984 -105.205673 34,975 55 575 0
2018-02-24 04:05:50 GMT 39.427643 -105.211945 34,975 55 575 0
2018-02-24 04:05:46 GMT 39.419815 -105.226631 34,975 55 575 0
2018-02-24 04:05:43 GMT 39.415558 -105.234573 35,000 55 576 -64
2018-02-24 04:05:40 GMT 39.412380 -105.240479 35,000 55 576 -64
2018-02-24 04:05:34 GMT 39.400883 -105.262024 35,000 55 576 -64
2018-02-24 04:05:31 GMT 39.396973 -105.269348 35,000 55 575 0
2018-02-24 04:05:23 GMT 39.385025 -105.291718 35,000 55 576 -64
2018-02-24 04:05:19 GMT 39.378021 -105.304672 35,000 55 576 -64
2018-02-24 04:05:13 GMT 39.369087 -105.321350 35,000 55 576 -64
2018-02-24 04:05:10 GMT 39.365295 -105.328438 35,000 55 576 0
2018-02-24 04:05:07 GMT 39.362106 -105.334351 35,000 55 576 -64
2018-02-24 04:05:01 GMT 39.353306 -105.350708 35,000 55 577 64
2018-02-24 04:04:58 GMT 39.346436 -105.363426 35,000 55 577 64
2018-02-24 04:04:53 GMT 39.338837 -105.377579 35,000 55 577 64
2018-02-24 04:04:49 GMT 39.333984 -105.386589 34,975 55 578 128
2018-02-24 04:04:46 GMT 39.330002 -105.393936 35,000 55 578 64
2018-02-24 04:04:43 GMT 39.323746 -105.405579 34,975 55 578 128
2018-02-24 04:04:39 GMT 39.318100 -105.416031 34,975 55 579 128
2018-02-24 04:04:36 GMT 39.314297 -105.423157 34,975 55 579 64
2018-02-24 04:04:32 GMT 39.307114 -105.436447 34,975 55 579 64
2018-02-24 04:04:29 GMT 39.303131 -105.443855 34,975 55 579 64
2018-02-24 04:04:26 GMT 39.298096 -105.453186 34,975 55 579 0
2018-02-24 04:04:20 GMT 39.288712 -105.470482 34,975 55 580 0
2018-02-24 04:04:17 GMT 39.285645 -105.476151 34,975 55 581 0
2018-02-24 04:04:14 GMT 39.280746 -105.485229 34,975 55 580 -64
2018-02-24 04:04:11 GMT 39.274887 -105.496040 34,975 55 580 0
2018-02-24 04:04:07 GMT 39.269512 -105.505920 35,000 55 581 0
2018-02-24 04:04:04 GMT 39.264450 -105.515320 35,000 55 581 0
2018-02-24 04:03:58 GMT 39.255360 -105.532043 34,975 55 581 -64
2018-02-24 04:03:55 GMT 39.252289 -105.537781 35,000 55 581 0
2018-02-24 04:03:50 GMT 39.242142 -105.556519 34,975 55 582 0
2018-02-24 04:03:44 GMT 39.233368 -105.572701 34,975 55 581 -64
2018-02-24 04:03:38 GMT 39.225952 -105.586372 35,000 55 581 -64
2018-02-24 04:03:34 GMT 39.218857 -105.599396 35,000 55 582 -64
2018-02-24 04:03:26 GMT 39.205132 -105.624695 35,000 54 582 -64
2018-02-24 04:03:23 GMT 39.202057 -105.630371 35,000 55 583 -64
2018-02-24 04:03:18 GMT 39.194656 -105.643982 35,000 55 583 -64
2018-02-24 04:03:15 GMT 39.189396 -105.653625 35,000 55 583 0
2018-02-24 04:03:12 GMT 39.185345 -105.661011 35,000 54 582 64
2018-02-24 04:03:07 GMT 39.175755 -105.678589 35,000 54 583 64
2018-02-24 04:03:04 GMT 39.170975 -105.687401 35,000 54 583 64
2018-02-24 04:03:01 GMT 39.166447 -105.695618 35,000 54 583 64
2018-02-24 04:02:56 GMT 39.159603 -105.708069 34,975 54 583 64
2018-02-24 04:02:53 GMT 39.156647 -105.713493 34,975 54 583 128
2018-02-24 04:02:46 GMT 39.143124 -105.738098 34,975 54 582 0
2018-02-24 04:02:43 GMT 39.137817 -105.747681 34,975 54 582 -64
2018-02-24 04:02:35 GMT 39.127441 -105.766632 34,975 54 582 -64
2018-02-24 04:02:32 GMT 39.123413 -105.773979 35,000 54 582 -128
2018-02-24 04:02:28 GMT 39.116913 -105.785858 34,975 54 581 -64
2018-02-24 04:02:23 GMT 39.108810 -105.800552 34,975 54 581 0
2018-02-24 04:02:19 GMT 39.101715 -105.813507 35,000 54 581 -128
2018-02-24 04:02:16 GMT 39.097046 -105.821983 35,000 54 581 -128
2018-02-24 04:02:13 GMT 39.091782 -105.831535 34,975 55 580 -64
2018-02-24 04:02:09 GMT 39.085922 -105.842285 35,000 54 580 -64
2018-02-24 04:02:04 GMT 39.078827 -105.855301 34,975 54 581 -64
2018-02-24 04:02:01 GMT 39.076035 -105.860374 34,975 54 580 -64
2018-02-24 04:01:58 GMT 39.069988 -105.871338 34,975 54 580 -64
2018-02-24 04:01:52 GMT 39.060516 -105.888443 35,000 54 579 -64
2018-02-24 04:01:48 GMT 39.053276 -105.901672 35,000 54 579 -64
2018-02-24 04:01:41 GMT 39.044174 -105.918236 34,975 54 578 -64
2018-02-24 04:01:36 GMT 39.037266 -105.930908 35,000 54 578 -64
2018-02-24 04:01:31 GMT 39.028374 -105.947205 34,975 55 578 0
2018-02-24 04:01:21 GMT 39.012360 -105.976746 35,000 55 576 -128
2018-02-24 04:01:14 GMT 39.002628 -105.995117 35,000 56 576 -192
2018-02-24 04:01:10 GMT 38.997162 -106.005585 35,025 56 575 -128
2018-02-24 04:01:06 GMT 38.989700 -106.019737 35,000 56 576 -64
2018-02-24 04:01:00 GMT 38.981915 -106.034851 35,000 56 575 64
2018-02-24 04:00:54 GMT 38.973541 -106.051025 35,000 56 576 64
2018-02-24 04:00:50 GMT 38.966446 -106.064697 34,975 56 576 128
2018-02-24 04:00:45 GMT 38.959351 -106.078369 34,975 56 576 64
2018-02-24 04:00:41 GMT 38.953766 -106.089180 34,975 56 576 64
2018-02-24 04:00:38 GMT 38.950676 -106.095154 34,975 56 576 64
2018-02-24 04:00:28 GMT 38.935268 -106.124695 35,000 56 577 0
2018-02-24 04:00:21 GMT 38.923508 -106.147156 34,975 56 578 -64
2018-02-24 04:00:17 GMT 38.919533 -106.154846 34,975 56 578 -64
2018-02-24 04:00:08 GMT 38.904915 -106.182739 35,000 56 578 -64
2018-02-24 04:00:01 GMT 38.894943 -106.201790 35,000 56 578 -64
2018-02-24 03:59:58 GMT 38.889133 -106.212891 35,000 56 578 -64
2018-02-24 03:59:52 GMT 38.881577 -106.227402 35,000 56 578 64
2018-02-24 03:59:48 GMT 38.874283 -106.241394 34,975 56 578 64
2018-02-24 03:59:45 GMT 38.871304 -106.247070 34,975 56 578 64
2018-02-24 03:59:39 GMT 38.862411 -106.264099 35,000 56 577 -64
2018-02-24 03:59:36 GMT 38.858414 -106.271828 35,000 56 577 -64
2018-02-24 03:59:29 GMT 38.846786 -106.293976 35,000 56 577 0
2018-02-24 03:59:25 GMT 38.841156 -106.304726 35,000 56 576 0
2018-02-24 03:59:18 GMT 38.830059 -106.326050 35,000 56 577 0
2018-02-24 03:59:15 GMT 38.824860 -106.336014 35,000 56 576 64
2018-02-24 03:59:08 GMT 38.816139 -106.352783 34,975 56 577 64
2018-02-24 03:59:05 GMT 38.812134 -106.360435 35,000 56 578 64
2018-02-24 03:59:02 GMT 38.806316 -106.371460 35,000 56 578 64
2018-02-24 03:58:57 GMT 38.800186 -106.383125 35,000 56 578 64
2018-02-24 03:58:54 GMT 38.795425 -106.392197 34,975 56 578 64
2018-02-24 03:58:48 GMT 38.785461 -106.411194 34,975 56 578 64
2018-02-24 03:58:42 GMT 38.778442 -106.424500 34,975 56 578 -128
2018-02-24 03:58:36 GMT 38.768471 -106.443542 34,975 56 578 -64
2018-02-24 03:58:25 GMT 38.752533 -106.473877 35,000 56 578 -128
2018-02-24 03:58:16 GMT 38.737610 -106.502243 35,000 56 578 -64
2018-02-24 03:58:05 GMT 38.722687 -106.530663 35,000 56 579 128
2018-02-24 03:57:55 GMT 38.707256 -106.559875 34,975 56 579 128
2018-02-24 03:57:45 GMT 38.692265 -106.588318 34,975 55 580 64
2018-02-24 03:57:34 GMT 38.676453 -106.618134 35,000 55 580 -64
2018-02-24 03:57:25 GMT 38.661438 -106.646553 35,000 55 580 -128
2018-02-24 03:57:12 GMT 38.643356 -106.680649 35,000 55 581 -64
2018-02-24 03:57:00 GMT 38.624954 -106.715279 35,000 55 581 0
2018-02-24 03:56:54 GMT 38.615936 -106.732353 35,000 55 581 64
2018-02-24 03:56:49 GMT 38.607193 -106.748833 35,000 55 581 64
2018-02-24 03:56:40 GMT 38.594971 -106.771851 34,975 55 581 64
2018-02-24 03:56:31 GMT 38.580818 -106.798523 34,975 55 581 0
We lost coverage of the aircraft here for a total of 6 minutes
2018-02-24 03:50:58 GMT 38.196949 -107.804543 34,975 66 569 0
2018-02-24 03:50:29 GMT 38.166782 -107.893623 35,000 66 570 -64
2018-02-24 03:50:26 GMT 38.164398 -107.900703 35,000 66 570 -64
2018-02-24 03:50:17 GMT 38.153656 -107.932259 35,000 66 569 -64
2018-02-24 03:50:06 GMT 38.142929 -107.963814 35,000 66 568 0
2018-02-24 03:49:56 GMT 38.132008 -107.995903 34,975 66 566 64
2018-02-24 03:49:44 GMT 38.120789 -108.028801 34,975 66 566 0
2018-02-24 03:49:35 GMT 38.110409 -108.059258 35,000 66 565 -64
2018-02-24 03:49:24 GMT 38.099533 -108.091148 35,000 66 565 -64
2018-02-24 03:49:13 GMT 38.087906 -108.125160 34,975 66 565 64
2018-02-24 03:49:03 GMT 38.077030 -108.157059 34,975 66 565 0
2018-02-24 03:48:53 GMT 38.067169 -108.185883 35,000 66 565 -64
2018-02-24 03:48:43 GMT 38.055908 -108.218719 35,000 66 565 0
2018-02-24 03:48:31 GMT 38.044956 -108.250557 35,000 66 565 64
2018-02-24 03:48:22 GMT 38.034027 -108.282417 34,975 66 564 64
2018-02-24 03:48:11 GMT 38.023357 -108.313675 34,975 66 564 -64
2018-02-24 03:48:01 GMT 38.012321 -108.345734 35,000 66 563 -128
2018-02-24 03:47:50 GMT 38.001755 -108.376541 35,000 66 563 -64
2018-02-24 03:47:40 GMT 37.990910 -108.408012 34,975 66 563 64
2018-02-24 03:47:29 GMT 37.980061 -108.439415 34,975 66 563 64
2018-02-24 03:45:15 GMT 37.839706 -108.842567 34,975 66 558 -64
We lost coverage of the aircraft here for a total of 11 minutes
2018-02-24 03:34:15 GMT 37.314968 -110.865662 35,000 71 548 -128
2018-02-24 03:34:09 GMT 37.310642 -110.881966 35,000 71 548 -64
2018-02-24 03:33:56 GMT 37.300598 -110.919662 34,975 71 548 0
2018-02-24 03:33:46 GMT 37.292671 -110.949493 34,975 71 548 -64
2018-02-24 03:33:37 GMT 37.284664 -110.979591 35,000 71 547 -64
2018-02-24 03:33:25 GMT 37.275742 -111.012932 35,000 71 547 0
2018-02-24 03:33:11 GMT 37.264786 -111.054047 35,000 71 546 0
2018-02-24 03:33:05 GMT 37.259125 -111.075340 34,975 71 546 -64
2018-02-24 03:32:53 GMT 37.250217 -111.108620 35,000 71 546 -64
2018-02-24 03:32:43 GMT 37.242023 -111.139191 35,000 71 545 0
2018-02-24 03:32:33 GMT 37.233124 -111.172409 35,000 71 545 0
2018-02-24 03:32:22 GMT 37.224567 -111.204330 34,975 71 544 64
2018-02-24 03:32:10 GMT 37.216091 -111.235977 34,975 71 543 -64
2018-02-24 03:32:00 GMT 37.207626 -111.267311 35,000 71 543 -64
2018-02-24 03:31:50 GMT 37.198868 -111.299805 35,000 71 543 0
2018-02-24 03:31:38 GMT 37.189590 -111.334045 34,975 71 542 0
2018-02-24 03:31:28 GMT 37.181644 -111.363449 35,000 71 542 -64
2018-02-24 03:31:17 GMT 37.172882 -111.395813 35,000 71 541 0
2018-02-24 03:31:06 GMT 37.163269 -111.431404 34,975 71 540 0
2018-02-24 03:30:56 GMT 37.155533 -111.459808 35,000 71 540 -64
2018-02-24 03:30:44 GMT 37.146778 -111.492065 35,000 71 540 -64
2018-02-24 03:30:34 GMT 37.137932 -111.524544 35,000 71 540 -64
2018-02-24 03:30:24 GMT 37.129646 -111.554695 35,000 71 539 64
2018-02-24 03:30:12 GMT 37.121265 -111.585449 34,975 71 539 64
2018-02-24 03:30:01 GMT 37.112411 -111.618233 34,975 71 540 -64
2018-02-24 03:29:52 GMT 37.103851 -111.649612 35,000 71 540 -64
2018-02-24 03:29:41 GMT 37.095062 -111.681458 35,000 71 540 -64
2018-02-24 03:29:30 GMT 37.086823 -111.711617 35,000 71 540 0
2018-02-24 03:29:20 GMT 37.077972 -111.743736 34,975 70 539 64
2018-02-24 03:29:08 GMT 37.068604 -111.777649 35,000 71 540 -64
2018-02-24 03:28:58 GMT 37.060608 -111.806847 35,000 71 540 -64
2018-02-24 03:28:47 GMT 37.051811 -111.838730 35,000 70 540 -64
2018-02-24 03:28:37 GMT 37.043198 -111.870018 34,975 71 540 0
2018-02-24 03:28:25 GMT 37.033470 -111.905365 35,000 70 539 -64
2018-02-24 03:28:14 GMT 37.025574 -111.933968 35,000 71 539 0
2018-02-24 03:28:05 GMT 37.017151 -111.964531 34,975 71 538 0
2018-02-24 03:27:54 GMT 37.008190 -111.997139 34,975 71 538 0
2018-02-24 03:27:42 GMT 36.999580 -112.028244 35,000 70 537 -64
2018-02-24 03:27:32 GMT 36.990921 -112.059608 35,000 70 537 -64
2018-02-24 03:27:22 GMT 36.982086 -112.091225 35,000 70 537 0
2018-02-24 03:27:11 GMT 36.973183 -112.123184 34,975 70 537 0
2018-02-24 03:26:59 GMT 36.964096 -112.155624 35,000 70 536 -64
2018-02-24 03:26:49 GMT 36.955818 -112.185097 35,000 70 535 -64
2018-02-24 03:26:39 GMT 36.946930 -112.216866 35,000 70 535 0
2018-02-24 03:26:28 GMT 36.938141 -112.248367 34,975 70 535 0
2018-02-24 03:26:17 GMT 36.929752 -112.278366 34,975 70 535 0
2018-02-24 03:26:07 GMT 36.920628 -112.311020 34,975 70 535 0
2018-02-24 03:25:56 GMT 36.912094 -112.341637 34,975 70 535 -64
2018-02-24 03:25:44 GMT 36.903351 -112.373070 34,975 70 534 -64
2018-02-24 03:25:33 GMT 36.894562 -112.404510 34,975 70 534 -64
2018-02-24 03:25:24 GMT 36.885944 -112.434921 35,000 70 532 -64
2018-02-24 03:25:13 GMT 36.877335 -112.465668 35,000 70 531 -64
2018-02-24 03:25:02 GMT 36.868534 -112.496895 35,000 70 531 -64
2018-02-24 03:24:50 GMT 36.859272 -112.529793 35,000 70 531 -64
2018-02-24 03:24:40 GMT 36.850662 -112.560074 35,000 70 530 0
2018-02-24 03:24:30 GMT 36.841625 -112.592041 35,000 70 530 0
2018-02-24 03:24:19 GMT 36.833038 -112.622223 35,000 70 530 0
2018-02-24 03:24:06 GMT 36.823471 -112.655968 34,975 70 530 0
2018-02-24 03:23:57 GMT 36.815506 -112.683907 34,975 70 531 -64
2018-02-24 03:23:46 GMT 36.805984 -112.717384 35,000 70 532 -64
2018-02-24 03:23:36 GMT 36.797684 -112.746552 35,000 70 532 0
2018-02-24 03:23:24 GMT 36.788910 -112.777458 35,000 70 532 64
2018-02-24 03:23:13 GMT 36.780029 -112.808594 34,975 70 531 64
2018-02-24 03:23:02 GMT 36.770325 -112.842636 34,975 70 532 -128
2018-02-24 03:22:53 GMT 36.762115 -112.871201 35,000 70 532 -64
2018-02-24 03:22:42 GMT 36.753113 -112.902718 35,000 70 533 -64
2018-02-24 03:22:30 GMT 36.744186 -112.933960 35,000 70 533 -64
2018-02-24 03:22:19 GMT 36.735161 -112.965462 35,000 70 532 -64
2018-02-24 03:22:09 GMT 36.726410 -112.996078 35,000 70 532 64
2018-02-24 03:21:59 GMT 36.717472 -113.027107 34,975 70 531 0
2018-02-24 03:21:48 GMT 36.708435 -113.058411 35,000 70 531 -64
2018-02-24 03:21:37 GMT 36.699142 -113.090569 34,975 70 531 128
2018-02-24 03:21:26 GMT 36.690659 -113.120140 34,975 70 531 64
2018-02-24 03:21:14 GMT 36.681564 -113.151459 35,000 70 531 -128
2018-02-24 03:21:04 GMT 36.672821 -113.181953 35,000 70 532 -128
2018-02-24 03:20:54 GMT 36.663849 -113.213081 35,000 70 532 64
2018-02-24 03:20:42 GMT 36.654488 -113.245491 34,975 70 531 64
2018-02-24 03:20:32 GMT 36.646061 -113.274773 34,975 70 530 -64
2018-02-24 03:20:20 GMT 36.636238 -113.308548 35,000 70 530 -128
2018-02-24 03:20:11 GMT 36.628044 -113.336655 35,000 70 530 0
2018-02-24 03:20:00 GMT 36.619263 -113.366661 34,975 70 529 64
2018-02-24 03:19:49 GMT 36.610168 -113.397842 34,975 70 529 64
2018-02-24 03:19:38 GMT 36.601273 -113.428459 34,975 70 530 -64
2018-02-24 03:19:28 GMT 36.592014 -113.460251 34,975 69 531 -64
2018-02-24 03:19:16 GMT 36.582191 -113.493500 35,000 69 532 -64
2018-02-24 03:19:05 GMT 36.573906 -113.521614 35,000 69 532 -128
2018-02-24 03:18:54 GMT 36.564175 -113.554924 35,000 70 532 -64
2018-02-24 03:18:43 GMT 36.555542 -113.584496 35,000 70 531 0
2018-02-24 03:18:34 GMT 36.546982 -113.613686 35,000 69 530 0
2018-02-24 03:18:23 GMT 36.537594 -113.645325 34,975 69 529 64
2018-02-24 03:18:12 GMT 36.528809 -113.675308 34,975 69 530 -64
2018-02-24 03:18:00 GMT 36.519012 -113.708443 35,000 69 530 -64
2018-02-24 03:17:51 GMT 36.510406 -113.737564 34,975 69 530 0
2018-02-24 03:17:40 GMT 36.501190 -113.768684 34,975 69 530 -64
2018-02-24 03:17:28 GMT 36.492188 -113.799248 35,000 69 530 -64
2018-02-24 03:17:18 GMT 36.483398 -113.828888 34,975 69 529 0
2018-02-24 03:17:08 GMT 36.473866 -113.861076 35,000 69 529 -64
2018-02-24 03:16:57 GMT 36.465252 -113.890121 34,975 69 529 0
2018-02-24 03:16:45 GMT 36.455894 -113.921387 34,975 69 529 0
2018-02-24 03:16:35 GMT 36.446865 -113.951538 35,000 69 528 -64
2018-02-24 03:16:25 GMT 36.437805 -113.981956 35,000 69 528 -64
2018-02-24 03:16:13 GMT 36.428696 -114.012627 34,975 69 527 -64
2018-02-24 03:16:03 GMT 36.419724 -114.042603 35,000 69 526 -128
2018-02-24 03:15:52 GMT 36.410614 -114.073158 35,000 69 525 -64
2018-02-24 03:15:42 GMT 36.401428 -114.103828 35,000 69 523 0
2018-02-24 03:15:31 GMT 36.392258 -114.134499 34,975 69 523 64
2018-02-24 03:15:20 GMT 36.383415 -114.163963 34,975 69 522 0
2018-02-24 03:15:12 GMT 36.375828 -114.189209 34,975 69 523 -64
2018-02-24 03:15:09 GMT 36.374222 -114.194527 35,000 69 523 -128
2018-02-24 03:15:05 GMT 36.370834 -114.205742 35,000 69 523 -128
2018-02-24 03:14:59 GMT 36.365112 -114.224854 35,000 69 524 -64
2018-02-24 03:14:54 GMT 36.361725 -114.236130 35,000 69 525 -64
2018-02-24 03:14:48 GMT 36.356003 -114.255295 34,975 69 524 0
2018-02-24 03:14:43 GMT 36.352798 -114.265991 34,975 69 524 0
2018-02-24 03:14:36 GMT 36.346779 -114.285980 34,975 69 524 -64
2018-02-24 03:14:32 GMT 36.343426 -114.297256 35,000 69 524 -128
2018-02-24 03:14:26 GMT 36.337967 -114.315552 35,000 69 523 -128
2018-02-24 03:14:22 GMT 36.334900 -114.325623 35,000 69 523 -128
2018-02-24 03:14:15 GMT 36.328388 -114.347221 35,000 69 522 -64
2018-02-24 03:14:05 GMT 36.319729 -114.375679 35,000 69 521 0
2018-02-24 03:13:53 GMT 36.310684 -114.405502 34,975 69 519 0
2018-02-24 03:13:43 GMT 36.301529 -114.435478 34,975 69 518 -64
2018-02-24 03:13:36 GMT 36.295525 -114.455154 34,975 69 518 0
2018-02-24 03:13:32 GMT 36.291985 -114.466789 35,000 69 517 -64
2018-02-24 03:13:27 GMT 36.288261 -114.478943 35,000 69 517 -128
2018-02-24 03:13:21 GMT 36.281975 -114.499397 34,975 69 517 -64
2018-02-24 03:13:15 GMT 36.278137 -114.511871 34,975 69 517 0
2018-02-24 03:13:10 GMT 36.274246 -114.524574 34,975 69 517 0
2018-02-24 03:13:06 GMT 36.269165 -114.541168 34,975 69 517 64
2018-02-24 03:12:58 GMT 36.263580 -114.559425 34,975 69 517 -64
2018-02-24 03:12:54 GMT 36.260193 -114.570518 34,975 69 518 -64
2018-02-24 03:12:50 GMT 36.255798 -114.584946 34,975 69 518 -128
2018-02-24 03:12:47 GMT 36.254044 -114.590790 34,975 69 518 -64
2018-02-24 03:12:37 GMT 36.245899 -114.618027 35,000 69 520 -128
2018-02-24 03:12:33 GMT 36.242733 -114.628662 35,000 69 521 -64
2018-02-24 03:12:27 GMT 36.236755 -114.648460 35,000 69 522 -64
2018-02-24 03:12:22 GMT 36.233467 -114.659401 35,000 69 522 0
2018-02-24 03:12:17 GMT 36.228909 -114.674530 34,975 69 523 64
2018-02-24 03:12:07 GMT 36.219818 -114.704414 34,975 69 522 0
2018-02-24 03:11:59 GMT 36.212906 -114.726791 34,975 69 523 -64
2018-02-24 03:11:54 GMT 36.209728 -114.737122 35,000 69 524 -128
2018-02-24 03:11:47 GMT 36.203064 -114.758720 35,000 69 525 -64
2018-02-24 03:11:42 GMT 36.199310 -114.771080 35,000 69 525 -64
2018-02-24 03:11:34 GMT 36.192410 -114.793861 34,975 69 525 -128
2018-02-24 03:11:31 GMT 36.188690 -114.805923 35,000 69 525 -128
2018-02-24 03:11:27 GMT 36.185257 -114.817139 35,000 69 525 -64
2018-02-24 03:11:23 GMT 36.182693 -114.825554 35,000 69 524 -64
2018-02-24 03:11:13 GMT 36.173492 -114.855141 35,000 69 522 -64
2018-02-24 03:11:10 GMT 36.170483 -114.864922 34,975 68 521 0
2018-02-24 03:11:02 GMT 36.164520 -114.884033 35,000 69 519 -64
2018-02-24 03:10:58 GMT 36.161686 -114.893211 35,000 69 518 0
2018-02-24 03:10:55 GMT 36.158707 -114.902863 35,000 69 517 -64
2018-02-24 03:10:52 GMT 36.155399 -114.913658 34,975 69 517 0
2018-02-24 03:10:47 GMT 36.152050 -114.924706 35,000 69 516 -64
2018-02-24 03:10:41 GMT 36.146439 -114.943199 35,000 69 515 -64
2018-02-24 03:10:37 GMT 36.143097 -114.954185 35,000 69 515 -64
2018-02-24 03:10:30 GMT 36.137558 -114.972382 35,000 69 516 -64
2018-02-24 03:10:24 GMT 36.132660 -114.988342 35,000 69 515 -64
2018-02-24 03:10:19 GMT 36.128586 -115.001900 35,000 69 516 64
2018-02-24 03:10:16 GMT 36.125381 -115.012718 35,000 69 517 -64
2018-02-24 03:10:09 GMT 36.119705 -115.031548 35,000 69 517 -64
2018-02-24 03:10:03 GMT 36.115414 -115.045670 35,025 69 518 64
2018-02-24 03:10:00 GMT 36.111919 -115.057304 35,000 69 518 64
2018-02-24 03:09:56 GMT 36.108170 -115.069824 34,975 69 518 128
2018-02-24 03:09:48 GMT 36.102585 -115.088081 34,975 67 517 192
2018-02-24 03:09:44 GMT 36.099213 -115.098206 34,975 66 517 192
2018-02-24 03:09:38 GMT 36.092560 -115.116180 34,950 64 516 192
2018-02-24 03:09:33 GMT 36.086411 -115.131111 34,950 61 515 0
2018-02-24 03:09:26 GMT 36.078232 -115.148621 34,950 58 513 -64
2018-02-24 03:09:23 GMT 36.075989 -115.153137 34,975 58 513 -192
2018-02-24 03:09:17 GMT 36.066673 -115.171196 35,000 56 514 -192
2018-02-24 03:09:14 GMT 36.062576 -115.178719 35,000 55 513 -192
2018-02-24 03:09:02 GMT 36.048100 -115.202988 34,975 51 511 -192
2018-02-24 03:08:53 GMT 36.033463 -115.224548 34,975 48 507 -64
2018-02-24 03:08:49 GMT 36.026497 -115.234306 35,000 48 507 -64
2018-02-24 03:08:43 GMT 36.016708 -115.247955 35,000 48 505 -64
2018-02-24 03:08:39 GMT 36.011276 -115.255463 35,000 48 505 -64
2018-02-24 03:08:35 GMT 36.004433 -115.264931 34,975 48 505 64
2018-02-24 03:08:28 GMT 35.994514 -115.278778 34,975 48 505 64
2018-02-24 03:08:20 GMT 35.980453 -115.298424 34,975 48 505 -192
2018-02-24 03:08:17 GMT 35.976105 -115.304436 34,975 48 505 -128
2018-02-24 03:08:11 GMT 35.966812 -115.317368 35,000 48 505 -192
2018-02-24 03:08:07 GMT 35.960587 -115.326004 35,000 48 506 -128
2018-02-24 03:07:59 GMT 35.949097 -115.341972 35,000 48 506 -64
2018-02-24 03:07:48 GMT 35.933392 -115.363693 34,975 48 503 64
2018-02-24 03:07:37 GMT 35.916550 -115.386948 34,975 48 501 -64
2018-02-24 03:07:28 GMT 35.900528 -115.409088 34,975 48 498 -64
2018-02-24 03:07:17 GMT 35.884003 -115.431976 35,000 48 497 -64
2018-02-24 03:07:08 GMT 35.870735 -115.450356 35,000 48 496 -64
2018-02-24 03:07:05 GMT 35.867058 -115.455437 34,975 48 496 -64
2018-02-24 03:06:58 GMT 35.855141 -115.471863 34,975 48 497 -64
2018-02-24 03:06:54 GMT 35.850998 -115.477577 35,000 48 496 -64
2018-02-24 03:06:45 GMT 35.834793 -115.499893 35,000 48 496 -64
2018-02-24 03:06:36 GMT 35.821201 -115.518669 35,000 48 496 -64
2018-02-24 03:06:32 GMT 35.817245 -115.524162 35,000 48 496 -64
2018-02-24 03:06:25 GMT 35.805542 -115.540466 34,975 48 498 -64
2018-02-24 03:06:22 GMT 35.802155 -115.545158 35,000 48 498 -64
2018-02-24 03:06:13 GMT 35.786316 -115.567307 34,975 48 499 -64
2018-02-24 03:06:05 GMT 35.773952 -115.584526 34,975 48 500 -64
2018-02-24 03:06:02 GMT 35.769516 -115.590706 34,975 48 502 -64
2018-02-24 03:05:54 GMT 35.757477 -115.607414 34,975 48 503 -64
2018-02-24 03:05:50 GMT 35.753174 -115.613419 34,975 48 503 -64
2018-02-24 03:05:40 GMT 35.736374 -115.636482 35,000 48 504 -192
2018-02-24 03:05:34 GMT 35.725582 -115.651146 35,000 48 504 -128
2018-02-24 03:05:30 GMT 35.719528 -115.659431 35,000 48 504 -64
2018-02-24 03:05:22 GMT 35.708778 -115.674110 35,000 48 502 64
2018-02-24 03:05:19 GMT 35.702911 -115.682236 35,000 48 501 0
2018-02-24 03:05:10 GMT 35.689453 -115.700684 35,000 48 500 0
2018-02-24 03:05:07 GMT 35.686386 -115.704918 35,000 48 500 0
2018-02-24 03:05:02 GMT 35.676224 -115.718941 34,975 48 499 64
2018-02-24 03:04:57 GMT 35.669628 -115.728050 34,975 48 499 64
2018-02-24 03:04:50 GMT 35.659760 -115.741554 34,975 48 500 64
2018-02-24 03:04:47 GMT 35.653473 -115.750237 34,975 48 499 0
2018-02-24 03:04:39 GMT 35.640793 -115.767570 34,975 48 501 -64
2018-02-24 03:04:36 GMT 35.636295 -115.773689 34,975 47 501 -128
2018-02-24 03:04:28 GMT 35.624428 -115.789703 35,000 47 501 -192
2018-02-24 03:04:24 GMT 35.619873 -115.795784 35,000 47 501 -192
2018-02-24 03:04:18 GMT 35.607697 -115.812263 35,000 47 502 -192
2018-02-24 03:04:14 GMT 35.602707 -115.818954 35,000 47 501 -128
2018-02-24 03:04:04 GMT 35.586090 -115.841270 35,000 47 501 0
2018-02-24 03:03:56 GMT 35.574234 -115.857239 34,975 47 500 64
2018-02-24 03:03:53 GMT 35.569729 -115.863335 34,975 47 500 64
2018-02-24 03:03:46 GMT 35.559036 -115.877838 34,975 47 499 64
2018-02-24 03:03:42 GMT 35.553295 -115.885597 34,975 47 499 0
2018-02-24 03:03:35 GMT 35.542400 -115.900208 34,975 47 499 -64
2018-02-24 03:03:32 GMT 35.536816 -115.907745 34,975 47 499 -128
2018-02-24 03:03:24 GMT 35.526077 -115.922188 35,000 47 500 -128
2018-02-24 03:03:21 GMT 35.519806 -115.930595 35,000 47 501 -128
2018-02-24 03:03:13 GMT 35.508224 -115.946098 35,000 47 501 -128
2018-02-24 03:03:09 GMT 35.501854 -115.954674 35,000 47 501 -64
2018-02-24 03:03:04 GMT 35.492340 -115.967506 35,000 47 501 -64
2018-02-24 03:02:59 GMT 35.486389 -115.975456 35,000 47 500 0
2018-02-24 03:02:53 GMT 35.476135 -115.989243 34,975 47 499 -64
2018-02-24 03:02:49 GMT 35.469734 -115.997803 34,975 47 498 0
2018-02-24 03:02:41 GMT 35.457092 -116.014648 34,975 47 497 0
2018-02-24 03:02:38 GMT 35.451828 -116.021751 34,975 47 498 0
2018-02-24 03:02:35 GMT 35.447945 -116.026962 34,975 47 498 0
2018-02-24 03:02:32 GMT 35.443291 -116.033218 34,975 47 498 0
2018-02-24 03:02:26 GMT 35.435669 -116.043381 34,975 47 498 -64
2018-02-24 03:02:22 GMT 35.427292 -116.054588 35,000 47 498 -128
2018-02-24 03:02:18 GMT 35.420425 -116.063744 35,000 47 499 -128
2018-02-24 03:02:11 GMT 35.409805 -116.077934 35,000 47 500 -128
2018-02-24 03:02:06 GMT 35.404541 -116.085091 35,000 47 500 -128
2018-02-24 03:02:00 GMT 35.392830 -116.100708 35,000 47 499 0
2018-02-24 03:01:55 GMT 35.386734 -116.108894 35,000 47 499 64
2018-02-24 03:01:49 GMT 35.377396 -116.121368 34,975 47 499 64
2018-02-24 03:01:46 GMT 35.371124 -116.129723 34,975 47 499 64
2018-02-24 03:01:40 GMT 35.363983 -116.139336 34,975 47 499 64
2018-02-24 03:01:37 GMT 35.359268 -116.145576 34,975 47 499 0
2018-02-24 03:01:34 GMT 35.354748 -116.151611 34,975 47 499 64
2018-02-24 03:01:29 GMT 35.346771 -116.162224 35,000 47 499 -64
2018-02-24 03:01:26 GMT 35.339760 -116.171654 35,000 47 500 -64
2018-02-24 03:01:23 GMT 35.336792 -116.175613 35,000 47 501 -64
2018-02-24 03:01:17 GMT 35.325977 -116.190063 34,975 47 502 0
2018-02-24 03:01:14 GMT 35.321457 -116.196098 34,975 47 502 64
2018-02-24 03:01:08 GMT 35.311874 -116.208878 34,975 47 503 0
2018-02-24 03:01:03 GMT 35.305264 -116.217705 34,975 47 503 64
2018-02-24 03:01:00 GMT 35.299759 -116.225052 34,975 47 503 64
2018-02-24 03:00:57 GMT 35.295815 -116.230270 34,975 47 504 64
2018-02-24 03:00:53 GMT 35.287621 -116.241196 34,975 47 504 64
2018-02-24 03:00:47 GMT 35.280853 -116.250229 34,975 47 506 -64
2018-02-24 03:00:44 GMT 35.276093 -116.256577 34,975 47 506 -128
2018-02-24 03:00:41 GMT 35.269180 -116.265846 34,975 47 506 -192
2018-02-24 03:00:36 GMT 35.260479 -116.277489 35,000 47 506 -320
2018-02-24 03:00:33 GMT 35.257969 -116.280876 35,000 47 506 -320
2018-02-24 03:00:28 GMT 35.248627 -116.293373 35,025 47 507 -128
2018-02-24 03:00:24 GMT 35.242138 -116.302032 35,025 47 508 64
2018-02-24 03:00:21 GMT 35.237392 -116.308395 35,025 47 508 256
2018-02-24 03:00:18 GMT 35.232788 -116.314545 34,975 47 508 512
2018-02-24 03:00:15 GMT 35.227386 -116.321732 34,925 47 508 768
2018-02-24 03:00:12 GMT 35.223267 -116.327278 34,900 47 508 960
2018-02-24 03:00:09 GMT 35.219280 -116.332512 34,850 47 508 1024
2018-02-24 03:00:04 GMT 35.212784 -116.341179 34,750 47 508 1024
2018-02-24 03:00:01 GMT 35.206898 -116.349052 34,675 47 508 1088
2018-02-24 02:59:58 GMT 35.203033 -116.354080 34,675 47 508 1152
2018-02-24 02:59:54 GMT 35.193970 -116.366180 34,550 47 509 1024
2018-02-24 02:59:49 GMT 35.186646 -116.375931 34,475 47 510 960
2018-02-24 02:59:45 GMT 35.180737 -116.383781 34,425 47 510 960
2018-02-24 02:59:41 GMT 35.174149 -116.392410 34,325 47 510 896
2018-02-24 02:59:38 GMT 35.170303 -116.397514 34,325 47 510 896
2018-02-24 02:59:33 GMT 35.162163 -116.408325 34,200 47 510 832
2018-02-24 02:59:28 GMT 35.153179 -116.420174 34,150 47 510 704
2018-02-24 02:59:23 GMT 35.145996 -116.429688 34,100 47 509 576
2018-02-24 02:59:20 GMT 35.140228 -116.437309 34,075 47 509 512
2018-02-24 02:59:16 GMT 35.135628 -116.443405 33,975 47 508 512
2018-02-24 02:59:12 GMT 35.129578 -116.451416 34,025 47 507 576
2018-02-24 02:59:09 GMT 35.123199 -116.459824 33,950 47 507 640
2018-02-24 02:59:05 GMT 35.118576 -116.465897 33,950 47 507 640
2018-02-24 02:59:00 GMT 35.108536 -116.479111 33,800 47 505 896
2018-02-24 02:58:56 GMT 35.101875 -116.487923 33,825 47 505 832
2018-02-24 02:58:52 GMT 35.095688 -116.496109 33,750 47 505 1024
2018-02-24 02:58:48 GMT 35.089050 -116.504906 33,675 47 505 1088
2018-02-24 02:58:44 GMT 35.084290 -116.511185 33,625 47 505 1088
2018-02-24 02:58:40 GMT 35.076370 -116.521614 33,475 47 504 1216
2018-02-24 02:58:35 GMT 35.069046 -116.531197 33,425 47 505 1472
2018-02-24 02:58:29 GMT 35.058197 -116.545380 33,250 47 505 1472
2018-02-24 02:58:24 GMT 35.051834 -116.553787 33,150 47 506 1216
2018-02-24 02:58:19 GMT 35.042801 -116.565742 33,025 47 506 1216
2018-02-24 02:58:16 GMT 35.038513 -116.571388 32,975 47 506 1216
2018-02-24 02:58:13 GMT 35.034668 -116.576431 32,925 47 507 1216
2018-02-24 02:58:07 GMT 35.025951 -116.587997 32,800 47 507 1216
2018-02-24 02:58:03 GMT 35.018097 -116.598289 32,700 47 508 1216
2018-02-24 02:57:54 GMT 35.004211 -116.616554 32,525 47 508 1088
2018-02-24 02:57:51 GMT 35.000885 -116.620995 32,500 47 508 1024
2018-02-24 02:57:47 GMT 34.993690 -116.630463 32,300 48 509 1280
2018-02-24 02:57:42 GMT 34.984100 -116.643044 32,300 47 508 1088
2018-02-24 02:57:37 GMT 34.976578 -116.652946 32,200 47 508 1152
2018-02-24 02:57:30 GMT 34.966324 -116.666344 32,075 47 508 1216
2018-02-24 02:57:24 GMT 34.955330 -116.680984 31,950 48 509 1280
2018-02-24 02:57:19 GMT 34.949203 -116.689323 31,850 48 510 1280
2018-02-24 02:57:16 GMT 34.942383 -116.698853 31,750 49 512 1280
2018-02-24 02:57:13 GMT 34.938805 -116.703873 31,700 49 512 1344
2018-02-24 02:57:10 GMT 34.934196 -116.710510 31,650 50 513 1408
2018-02-24 02:57:05 GMT 34.927048 -116.720940 31,525 50 515 1472
2018-02-24 02:57:02 GMT 34.923302 -116.726532 31,400 51 516 1472
2018-02-24 02:56:59 GMT 34.918625 -116.733551 31,375 51 516 1472
2018-02-24 02:56:56 GMT 34.911945 -116.743752 31,225 52 518 1408
2018-02-24 02:56:53 GMT 34.907520 -116.750626 31,200 52 518 1408
2018-02-24 02:56:48 GMT 34.902420 -116.758713 31,125 52 519 1344
2018-02-24 02:56:45 GMT 34.897327 -116.766869 31,025 53 520 1216
2018-02-24 02:56:42 GMT 34.892624 -116.774635 30,975 53 520 1216
2018-02-24 02:56:38 GMT 34.887085 -116.783867 30,875 54 521 1216
2018-02-24 02:56:32 GMT 34.880383 -116.795311 30,800 54 521 1152
2018-02-24 02:56:29 GMT 34.873810 -116.806526 30,700 54 521 960
2018-02-24 02:56:26 GMT 34.871723 -116.810127 30,675 54 520 960
2018-02-24 02:56:23 GMT 34.866695 -116.818710 30,600 54 519 768
2018-02-24 02:56:20 GMT 34.860992 -116.828445 30,575 54 519 768
2018-02-24 02:56:16 GMT 34.856232 -116.836517 30,525 54 519 640
2018-02-24 02:56:13 GMT 34.851517 -116.844643 30,475 54 518 896
2018-02-24 02:56:10 GMT 34.847351 -116.851761 30,425 54 517 1152
2018-02-24 02:56:05 GMT 34.842087 -116.860733 30,375 54 517 1344
2018-02-24 02:55:59 GMT 34.833317 -116.875710 30,200 54 517 1408
2018-02-24 02:55:54 GMT 34.826523 -116.887299 30,075 54 518 1216
2018-02-24 02:55:49 GMT 34.818329 -116.901337 29,975 54 518 1280
2018-02-24 02:55:45 GMT 34.813477 -116.909607 29,850 54 518 1280
2018-02-24 02:55:41 GMT 34.807247 -116.920341 29,800 54 518 1216
2018-02-24 02:55:38 GMT 34.802826 -116.927895 29,725 54 518 1216
2018-02-24 02:55:33 GMT 34.797565 -116.936935 29,650 54 517 1216
2018-02-24 02:55:29 GMT 34.792145 -116.946159 29,525 54 517 1024
2018-02-24 02:55:25 GMT 34.784958 -116.958488 29,475 54 516 896
2018-02-24 02:55:22 GMT 34.781223 -116.964851 29,425 54 515 832
2018-02-24 02:55:19 GMT 34.777081 -116.971954 29,400 54 515 832
2018-02-24 02:55:16 GMT 34.773499 -116.978073 29,375 54 514 832
2018-02-24 02:55:13 GMT 34.770081 -116.983994 29,300 54 513 832
2018-02-24 02:55:10 GMT 34.766464 -116.990105 29,300 54 513 832
2018-02-24 02:55:07 GMT 34.762344 -116.997162 29,250 54 513 832
2018-02-24 02:55:04 GMT 34.756180 -117.007713 29,175 54 511 768
2018-02-24 02:55:01 GMT 34.751907 -117.014992 29,125 54 511 704
2018-02-24 02:54:58 GMT 34.748501 -117.020821 29,125 54 509 704
2018-02-24 02:54:54 GMT 34.743439 -117.029449 28,925 54 505 512
2018-02-24 02:54:49 GMT 34.735245 -117.043404 29,000 54 507 640
2018-02-24 02:54:45 GMT 34.729923 -117.052460 28,950 54 506 576
2018-02-24 02:54:39 GMT 34.723251 -117.063812 28,925 54 504 512
2018-02-24 02:54:36 GMT 34.719452 -117.070259 28,900 54 504 512
2018-02-24 02:54:32 GMT 34.712791 -117.081528 28,850 54 502 320
2018-02-24 02:54:29 GMT 34.708328 -117.089088 28,825 54 501 320
2018-02-24 02:54:26 GMT 34.702652 -117.098679 28,825 54 499 192
2018-02-24 02:54:23 GMT 34.700924 -117.101669 28,800 54 498 128
2018-02-24 02:54:18 GMT 34.694595 -117.112350 28,800 54 496 192
2018-02-24 02:54:14 GMT 34.690613 -117.119133 28,800 54 495 192
2018-02-24 02:54:11 GMT 34.685932 -117.127075 28,775 54 492 256
2018-02-24 02:54:08 GMT 34.680393 -117.136520 28,750 54 491 384
2018-02-24 02:54:05 GMT 34.676788 -117.142563 28,750 54 490 448
2018-02-24 02:54:00 GMT 34.670338 -117.153564 28,675 54 488 512
2018-02-24 02:53:57 GMT 34.666149 -117.160667 28,675 54 487 576
2018-02-24 02:53:54 GMT 34.662323 -117.167114 28,625 54 486 576
2018-02-24 02:53:51 GMT 34.658562 -117.173538 28,600 54 485 576
2018-02-24 02:53:48 GMT 34.653946 -117.181244 28,550 54 484 640
2018-02-24 02:53:45 GMT 34.651997 -117.184586 28,550 54 482 640
2018-02-24 02:53:41 GMT 34.644836 -117.196655 28,500 54 481 576
2018-02-24 02:53:37 GMT 34.639114 -117.206299 28,450 54 479 512
2018-02-24 02:53:33 GMT 34.635376 -117.212624 28,400 54 476 320
2018-02-24 02:53:29 GMT 34.629700 -117.222176 28,400 54 476 256
2018-02-24 02:53:26 GMT 34.625603 -117.229095 28,375 54 473 320
2018-02-24 02:53:22 GMT 34.620071 -117.238358 28,275 54 472 384
2018-02-24 02:53:19 GMT 34.617279 -117.243065 28,350 54 470 384
2018-02-24 02:53:15 GMT 34.611694 -117.252541 28,300 54 469 512
2018-02-24 02:53:12 GMT 34.607773 -117.259140 28,275 54 468 640
2018-02-24 02:53:08 GMT 34.603489 -117.266403 28,250 54 467 768
2018-02-24 02:53:04 GMT 34.597321 -117.276810 28,150 54 466 1408
2018-02-24 02:53:00 GMT 34.594070 -117.282356 27,875 54 466 2624
2018-02-24 02:52:57 GMT 34.590454 -117.288490 27,850 54 466 2624
2018-02-24 02:52:54 GMT 34.586060 -117.295982 27,825 54 467 2624
2018-02-24 02:52:50 GMT 34.580750 -117.304947 27,575 54 469 2432
2018-02-24 02:52:47 GMT 34.576813 -117.311554 27,425 54 470 2176
2018-02-24 02:52:44 GMT 34.572250 -117.319283 27,375 54 470 2176
2018-02-24 02:52:40 GMT 34.568344 -117.325912 27,200 54 472 2176
2018-02-24 02:52:37 GMT 34.564384 -117.332558 27,000 54 473 2432
2018-02-24 02:52:34 GMT 34.560928 -117.338356 27,050 54 473 2368
2018-02-24 02:52:31 GMT 34.556751 -117.345490 26,825 54 473 2432
2018-02-24 02:52:28 GMT 34.553909 -117.350235 26,725 54 475 2624
2018-02-24 02:52:24 GMT 34.547150 -117.361671 26,575 54 475 2624
2018-02-24 02:52:19 GMT 34.541340 -117.371468 26,375 54 477 2752
2018-02-24 02:52:16 GMT 34.536850 -117.379051 26,175 54 480 2688
2018-02-24 02:52:13 GMT 34.534012 -117.383873 25,900 54 480 2752
2018-02-24 02:52:10 GMT 34.529472 -117.391495 25,900 54 481 2816
2018-02-24 02:52:07 GMT 34.525452 -117.398277 25,800 54 483 2624
2018-02-24 02:52:04 GMT 34.522209 -117.403793 25,600 54 483 2624
2018-02-24 02:52:01 GMT 34.517899 -117.411057 25,550 54 483 2624
2018-02-24 02:51:58 GMT 34.513363 -117.418785 25,400 54 485 2560
2018-02-24 02:51:54 GMT 34.507824 -117.428055 25,150 54 487 2304
2018-02-24 02:51:50 GMT 34.503914 -117.434692 25,050 54 487 1344
2018-02-24 02:51:47 GMT 34.499039 -117.442894 25,000 54 486 832
2018-02-24 02:51:44 GMT 34.497070 -117.446251 24,975 54 487 896
2018-02-24 02:51:41 GMT 34.492599 -117.453751 24,900 54 485 832
2018-02-24 02:51:38 GMT 34.488411 -117.460838 24,875 55 460 1792
2018-02-24 02:51:35 GMT 34.484070 -117.468063 24,775 54 482 1152
2018-02-24 02:51:32 GMT 34.480682 -117.473778 24,775 54 482 1152
2018-02-24 02:51:29 GMT 34.475464 -117.482521 24,675 54 481 1408
2018-02-24 02:51:26 GMT 34.470909 -117.490196 24,600 54 481 1408

Making use of Plane Finder data

You are free to use the raw flight data, aircraft information and images provided in this report for your own purposes provided the data is correctly attributed to Plane Finder. We ask that you please credit Plane Finder and link to planefinder.net in close proximity to the content.

Optionally one of the following logos (no smaller then 150x24px) can be used and must link to planefinder.net

Embedding the Plane Finder map

You are welcome to embed the Plane Finder playback map on your website to offer visitors a more interactive experience. We suggest using the following HTML code:

<iframe src="//planefinder.net/data/report/BA280-G-ZBKA-7700-squawk-2018-02-24/map" width="800" height="600" seamless="seamless"></iframe>

Where our data comes from

Plane Finder has a global network of data feeds and antenna radars that receive data broadcast directly from aircraft. The primary technologies used are ADS-B and MLAT. We also show feeds from the FAA and a FLARM glider feed.

Click here to find out more about the Plane Finder network.

How we collect our data